<?xml version="1.0" encoding="UTF-8" standalone="no" ?>
<gpx xmlns="http://www.topografix.com/GPX/1/1" xmlns:xsi="http://www.w3.org/2001/XMLSchema-instance" xsi:schemaLocation="http://www.topografix.com/GPX/1/1 http://www.topografix.com/GPX/1/1/gpx.xsd" version="1.1" creator="VisuGPX - https://www.visugpx.com">
  <metadata>
    <name>VTT Turriers Bois noir/Astoin /Rouyeres</name>
    <desc><![CDATA[Circuit sur petites routes et pistes forestières avec descente impraticable sur le vélo avant astoin ]]></desc>
  </metadata>
  <trk>
    <name><![CDATA[N°  Bois Noir /Astoin/Gières/Col des rouyères]]></name>
    <trkseg>
      <trkpt lat="44.39812" lon="6.17133">
        <ele>1038.3613281</ele>
        <time>2013-05-24T08:13:05Z</time>
      </trkpt>
      <trkpt lat="44.39807" lon="6.17134">
        <ele>1038.842041</ele>
        <time>2013-05-24T08:13:10Z</time>
      </trkpt>
      <trkpt lat="44.39807" lon="6.17134">
        <ele>1036.4387207</ele>
        <time>2013-05-24T08:13:11Z</time>
      </trkpt>
      <trkpt lat="44.39801" lon="6.17128">
        <ele>1035.9577637</ele>
        <time>2013-05-24T08:13:19Z</time>
      </trkpt>
      <trkpt lat="44.39796" lon="6.17126">
        <ele>1032.5932617</ele>
        <time>2013-05-24T08:13:23Z</time>
      </trkpt>
      <trkpt lat="44.39795" lon="6.17126">
        <ele>1028.7480469</ele>
        <time>2013-05-24T08:13:26Z</time>
      </trkpt>
      <trkpt lat="44.39794" lon="6.17125">
        <ele>1024.902832</ele>
        <time>2013-05-24T08:13:35Z</time>
      </trkpt>
      <trkpt lat="44.39794" lon="6.17125">
        <ele>1023.4609375</ele>
        <time>2013-05-24T08:13:40Z</time>
      </trkpt>
      <trkpt lat="44.39796" lon="6.17124">
        <ele>1020.0961914</ele>
        <time>2013-05-24T08:13:46Z</time>
      </trkpt>
      <trkpt lat="44.39795" lon="6.17123">
        <ele>1016.7314453</ele>
        <time>2013-05-24T08:13:53Z</time>
      </trkpt>
      <trkpt lat="44.39795" lon="6.17123">
        <ele>1016.2507324</ele>
        <time>2013-05-24T08:13:55Z</time>
      </trkpt>
      <trkpt lat="44.39792" lon="6.17126">
        <ele>1014.8088379</ele>
        <time>2013-05-24T08:13:57Z</time>
      </trkpt>
      <trkpt lat="44.39789" lon="6.1713">
        <ele>1012.8862305</ele>
        <time>2013-05-24T08:13:59Z</time>
      </trkpt>
      <trkpt lat="44.39786" lon="6.17133">
        <ele>1011.9250488</ele>
        <time>2013-05-24T08:14:12Z</time>
      </trkpt>
      <trkpt lat="44.39787" lon="6.17134">
        <ele>1010.4829102</ele>
        <time>2013-05-24T08:14:23Z</time>
      </trkpt>
      <trkpt lat="44.39769" lon="6.17166">
        <ele>1008.079834</ele>
        <time>2013-05-24T08:14:32Z</time>
      </trkpt>
      <trkpt lat="44.39758" lon="6.17194">
        <ele>1005.6765137</ele>
        <time>2013-05-24T08:14:36Z</time>
      </trkpt>
      <trkpt lat="44.39744" lon="6.17233">
        <ele>1003.7536621</ele>
        <time>2013-05-24T08:14:41Z</time>
      </trkpt>
      <trkpt lat="44.39736" lon="6.17251">
        <ele>1001.8310547</ele>
        <time>2013-05-24T08:14:43Z</time>
      </trkpt>
      <trkpt lat="44.39732" lon="6.17261">
        <ele>1001.8310547</ele>
        <time>2013-05-24T08:14:44Z</time>
      </trkpt>
      <trkpt lat="44.39719" lon="6.17281">
        <ele>1000.3891602</ele>
        <time>2013-05-24T08:14:47Z</time>
      </trkpt>
      <trkpt lat="44.39698" lon="6.17296">
        <ele>998.9470215</ele>
        <time>2013-05-24T08:14:50Z</time>
      </trkpt>
      <trkpt lat="44.39691" lon="6.17301">
        <ele>998.4663086</ele>
        <time>2013-05-24T08:14:51Z</time>
      </trkpt>
      <trkpt lat="44.39665" lon="6.17342">
        <ele>996.5439453</ele>
        <time>2013-05-24T08:14:56Z</time>
      </trkpt>
      <trkpt lat="44.39652" lon="6.17368">
        <ele>996.5439453</ele>
        <time>2013-05-24T08:15:01Z</time>
      </trkpt>
      <trkpt lat="44.39619" lon="6.17345">
        <ele>997.9858398</ele>
        <time>2013-05-24T08:15:13Z</time>
      </trkpt>
      <trkpt lat="44.39598" lon="6.1732">
        <ele>1000.3891602</ele>
        <time>2013-05-24T08:15:29Z</time>
      </trkpt>
      <trkpt lat="44.39573" lon="6.17331">
        <ele>1001.8310547</ele>
        <time>2013-05-24T08:15:48Z</time>
      </trkpt>
      <trkpt lat="44.39559" lon="6.17342">
        <ele>1005.1958008</ele>
        <time>2013-05-24T08:16:01Z</time>
      </trkpt>
      <trkpt lat="44.39537" lon="6.17359">
        <ele>1008.079834</ele>
        <time>2013-05-24T08:16:22Z</time>
      </trkpt>
      <trkpt lat="44.39522" lon="6.17363">
        <ele>1009.0410156</ele>
        <time>2013-05-24T08:16:34Z</time>
      </trkpt>
      <trkpt lat="44.39494" lon="6.17397">
        <ele>1009.5217285</ele>
        <time>2013-05-24T08:16:52Z</time>
      </trkpt>
      <trkpt lat="44.39454" lon="6.17427">
        <ele>1010.0021973</ele>
        <time>2013-05-24T08:17:10Z</time>
      </trkpt>
      <trkpt lat="44.39408" lon="6.17449">
        <ele>1011.9250488</ele>
        <time>2013-05-24T08:17:31Z</time>
      </trkpt>
      <trkpt lat="44.39388" lon="6.17476">
        <ele>1012.8862305</ele>
        <time>2013-05-24T08:17:44Z</time>
      </trkpt>
      <trkpt lat="44.39369" lon="6.17517">
        <ele>1013.8474121</ele>
        <time>2013-05-24T08:17:59Z</time>
      </trkpt>
      <trkpt lat="44.39373" lon="6.1753">
        <ele>1013.8474121</ele>
        <time>2013-05-24T08:18:03Z</time>
      </trkpt>
      <trkpt lat="44.3941" lon="6.17568">
        <ele>1015.2895508</ele>
        <time>2013-05-24T08:18:20Z</time>
      </trkpt>
      <trkpt lat="44.39451" lon="6.1762">
        <ele>1015.7702637</ele>
        <time>2013-05-24T08:18:40Z</time>
      </trkpt>
      <trkpt lat="44.39475" lon="6.17695">
        <ele>1016.7314453</ele>
        <time>2013-05-24T08:19:00Z</time>
      </trkpt>
      <trkpt lat="44.39489" lon="6.17797">
        <ele>1016.2507324</ele>
        <time>2013-05-24T08:19:22Z</time>
      </trkpt>
      <trkpt lat="44.39506" lon="6.17873">
        <ele>1018.1733398</ele>
        <time>2013-05-24T08:19:41Z</time>
      </trkpt>
      <trkpt lat="44.39542" lon="6.1797">
        <ele>1019.1347656</ele>
        <time>2013-05-24T08:20:05Z</time>
      </trkpt>
      <trkpt lat="44.39584" lon="6.18074">
        <ele>1020.5769043</ele>
        <time>2013-05-24T08:20:31Z</time>
      </trkpt>
      <trkpt lat="44.39589" lon="6.18146">
        <ele>1022.4995117</ele>
        <time>2013-05-24T08:20:48Z</time>
      </trkpt>
      <trkpt lat="44.39577" lon="6.18227">
        <ele>1023.9414063</ele>
        <time>2013-05-24T08:21:07Z</time>
      </trkpt>
      <trkpt lat="44.39538" lon="6.18272">
        <ele>1024.902832</ele>
        <time>2013-05-24T08:21:23Z</time>
      </trkpt>
      <trkpt lat="44.39513" lon="6.18324">
        <ele>1024.4221191</ele>
        <time>2013-05-24T08:21:37Z</time>
      </trkpt>
      <trkpt lat="44.39533" lon="6.18393">
        <ele>1024.4221191</ele>
        <time>2013-05-24T08:21:51Z</time>
      </trkpt>
      <trkpt lat="44.39572" lon="6.1844">
        <ele>1024.902832</ele>
        <time>2013-05-24T08:22:07Z</time>
      </trkpt>
      <trkpt lat="44.39624" lon="6.18467">
        <ele>1025.8640137</ele>
        <time>2013-05-24T08:22:26Z</time>
      </trkpt>
      <trkpt lat="44.39666" lon="6.18489">
        <ele>1027.7866211</ele>
        <time>2013-05-24T08:22:42Z</time>
      </trkpt>
      <trkpt lat="44.39685" lon="6.18514">
        <ele>1030.6706543</ele>
        <time>2013-05-24T08:22:55Z</time>
      </trkpt>
      <trkpt lat="44.39687" lon="6.1856">
        <ele>1034.0351563</ele>
        <time>2013-05-24T08:23:13Z</time>
      </trkpt>
      <trkpt lat="44.39692" lon="6.18611">
        <ele>1037.3999023</ele>
        <time>2013-05-24T08:23:34Z</time>
      </trkpt>
      <trkpt lat="44.39709" lon="6.18655">
        <ele>1039.8032227</ele>
        <time>2013-05-24T08:23:55Z</time>
      </trkpt>
      <trkpt lat="44.39718" lon="6.18693">
        <ele>1043.1677246</ele>
        <time>2013-05-24T08:24:12Z</time>
      </trkpt>
      <trkpt lat="44.39701" lon="6.18752">
        <ele>1045.5710449</ele>
        <time>2013-05-24T08:24:36Z</time>
      </trkpt>
      <trkpt lat="44.39678" lon="6.18807">
        <ele>1047.9743652</ele>
        <time>2013-05-24T08:25:01Z</time>
      </trkpt>
      <trkpt lat="44.39663" lon="6.1886">
        <ele>1049.4162598</ele>
        <time>2013-05-24T08:25:23Z</time>
      </trkpt>
      <trkpt lat="44.39649" lon="6.18913">
        <ele>1051.8195801</ele>
        <time>2013-05-24T08:25:43Z</time>
      </trkpt>
      <trkpt lat="44.39645" lon="6.18972">
        <ele>1054.7036133</ele>
        <time>2013-05-24T08:26:04Z</time>
      </trkpt>
      <trkpt lat="44.3967" lon="6.19014">
        <ele>1057.1069336</ele>
        <time>2013-05-24T08:26:23Z</time>
      </trkpt>
      <trkpt lat="44.39703" lon="6.19047">
        <ele>1059.9907227</ele>
        <time>2013-05-24T08:26:45Z</time>
      </trkpt>
      <trkpt lat="44.39743" lon="6.19063">
        <ele>1061.4328613</ele>
        <time>2013-05-24T08:27:04Z</time>
      </trkpt>
      <trkpt lat="44.39784" lon="6.19126">
        <ele>1061.4328613</ele>
        <time>2013-05-24T08:27:24Z</time>
      </trkpt>
      <trkpt lat="44.39837" lon="6.19205">
        <ele>1061.4328613</ele>
        <time>2013-05-24T08:27:48Z</time>
      </trkpt>
      <trkpt lat="44.39852" lon="6.19271">
        <ele>1060.9521484</ele>
        <time>2013-05-24T08:28:03Z</time>
      </trkpt>
      <trkpt lat="44.39839" lon="6.19312">
        <ele>1060.4714355</ele>
        <time>2013-05-24T08:28:11Z</time>
      </trkpt>
      <trkpt lat="44.39839" lon="6.19422">
        <ele>1059.029541</ele>
        <time>2013-05-24T08:28:29Z</time>
      </trkpt>
      <trkpt lat="44.39835" lon="6.1947">
        <ele>1058.5488281</ele>
        <time>2013-05-24T08:28:36Z</time>
      </trkpt>
      <trkpt lat="44.39843" lon="6.19517">
        <ele>1058.5488281</ele>
        <time>2013-05-24T08:28:43Z</time>
      </trkpt>
      <trkpt lat="44.39832" lon="6.19639">
        <ele>1057.1069336</ele>
        <time>2013-05-24T08:29:01Z</time>
      </trkpt>
      <trkpt lat="44.3983" lon="6.19801">
        <ele>1056.1455078</ele>
        <time>2013-05-24T08:29:26Z</time>
      </trkpt>
      <trkpt lat="44.39824" lon="6.19934">
        <ele>1056.6262207</ele>
        <time>2013-05-24T08:29:46Z</time>
      </trkpt>
      <trkpt lat="44.39809" lon="6.19969">
        <ele>1057.1069336</ele>
        <time>2013-05-24T08:29:52Z</time>
      </trkpt>
      <trkpt lat="44.39803" lon="6.19995">
        <ele>1056.6262207</ele>
        <time>2013-05-24T08:29:56Z</time>
      </trkpt>
      <trkpt lat="44.39792" lon="6.20117">
        <ele>1056.6262207</ele>
        <time>2013-05-24T08:30:15Z</time>
      </trkpt>
      <trkpt lat="44.39756" lon="6.20199">
        <ele>1056.1455078</ele>
        <time>2013-05-24T08:30:30Z</time>
      </trkpt>
      <trkpt lat="44.39695" lon="6.20267">
        <ele>1055.6650391</ele>
        <time>2013-05-24T08:30:46Z</time>
      </trkpt>
      <trkpt lat="44.39659" lon="6.20345">
        <ele>1055.6650391</ele>
        <time>2013-05-24T08:31:01Z</time>
      </trkpt>
      <trkpt lat="44.3965" lon="6.20375">
        <ele>1055.6650391</ele>
        <time>2013-05-24T08:31:06Z</time>
      </trkpt>
      <trkpt lat="44.39649" lon="6.20402">
        <ele>1055.6650391</ele>
        <time>2013-05-24T08:31:10Z</time>
      </trkpt>
      <trkpt lat="44.39655" lon="6.20441">
        <ele>1056.1455078</ele>
        <time>2013-05-24T08:31:16Z</time>
      </trkpt>
      <trkpt lat="44.39626" lon="6.20516">
        <ele>1055.6650391</ele>
        <time>2013-05-24T08:31:30Z</time>
      </trkpt>
      <trkpt lat="44.39537" lon="6.20562">
        <ele>1054.7036133</ele>
        <time>2013-05-24T08:31:49Z</time>
      </trkpt>
      <trkpt lat="44.39525" lon="6.20572">
        <ele>1054.7036133</ele>
        <time>2013-05-24T08:31:52Z</time>
      </trkpt>
      <trkpt lat="44.39498" lon="6.20619">
        <ele>1054.2231445</ele>
        <time>2013-05-24T08:32:01Z</time>
      </trkpt>
      <trkpt lat="44.39455" lon="6.20739">
        <ele>1053.7424316</ele>
        <time>2013-05-24T08:32:21Z</time>
      </trkpt>
      <trkpt lat="44.39435" lon="6.20821">
        <ele>1053.7424316</ele>
        <time>2013-05-24T08:32:34Z</time>
      </trkpt>
      <trkpt lat="44.39426" lon="6.20845">
        <ele>1053.7424316</ele>
        <time>2013-05-24T08:32:38Z</time>
      </trkpt>
      <trkpt lat="44.39393" lon="6.20848">
        <ele>1052.7810059</ele>
        <time>2013-05-24T08:32:45Z</time>
      </trkpt>
      <trkpt lat="44.39338" lon="6.20821">
        <ele>1051.3388672</ele>
        <time>2013-05-24T08:32:58Z</time>
      </trkpt>
      <trkpt lat="44.3932" lon="6.2082">
        <ele>1050.8581543</ele>
        <time>2013-05-24T08:33:02Z</time>
      </trkpt>
      <trkpt lat="44.39292" lon="6.20854">
        <ele>1050.8581543</ele>
        <time>2013-05-24T08:33:11Z</time>
      </trkpt>
      <trkpt lat="44.39299" lon="6.20877">
        <ele>1050.3776855</ele>
        <time>2013-05-24T08:33:17Z</time>
      </trkpt>
      <trkpt lat="44.39311" lon="6.20884">
        <ele>1052.7810059</ele>
        <time>2013-05-24T08:33:24Z</time>
      </trkpt>
      <trkpt lat="44.39322" lon="6.20889">
        <ele>1054.7036133</ele>
        <time>2013-05-24T08:33:31Z</time>
      </trkpt>
      <trkpt lat="44.39331" lon="6.2093">
        <ele>1058.0683594</ele>
        <time>2013-05-24T08:33:46Z</time>
      </trkpt>
      <trkpt lat="44.39332" lon="6.20934">
        <ele>1058.0683594</ele>
        <time>2013-05-24T08:33:48Z</time>
      </trkpt>
      <trkpt lat="44.39328" lon="6.20972">
        <ele>1061.4328613</ele>
        <time>2013-05-24T08:34:06Z</time>
      </trkpt>
      <trkpt lat="44.39328" lon="6.20974">
        <ele>1061.4328613</ele>
        <time>2013-05-24T08:34:07Z</time>
      </trkpt>
      <trkpt lat="44.39328" lon="6.20982">
        <ele>1061.9135742</ele>
        <time>2013-05-24T08:34:11Z</time>
      </trkpt>
      <trkpt lat="44.39328" lon="6.20996">
        <ele>1062.8747559</ele>
        <time>2013-05-24T08:34:17Z</time>
      </trkpt>
      <trkpt lat="44.39321" lon="6.21045">
        <ele>1065.7587891</ele>
        <time>2013-05-24T08:34:39Z</time>
      </trkpt>
      <trkpt lat="44.39303" lon="6.21099">
        <ele>1068.6428223</ele>
        <time>2013-05-24T08:35:00Z</time>
      </trkpt>
      <trkpt lat="44.39291" lon="6.21156">
        <ele>1071.5266113</ele>
        <time>2013-05-24T08:35:21Z</time>
      </trkpt>
      <trkpt lat="44.39286" lon="6.21204">
        <ele>1073.9299316</ele>
        <time>2013-05-24T08:35:40Z</time>
      </trkpt>
      <trkpt lat="44.39282" lon="6.21262">
        <ele>1076.8139648</ele>
        <time>2013-05-24T08:36:03Z</time>
      </trkpt>
      <trkpt lat="44.39279" lon="6.21313">
        <ele>1079.217041</ele>
        <time>2013-05-24T08:36:25Z</time>
      </trkpt>
      <trkpt lat="44.39288" lon="6.2137">
        <ele>1082.1010742</ele>
        <time>2013-05-24T08:36:49Z</time>
      </trkpt>
      <trkpt lat="44.39296" lon="6.21415">
        <ele>1084.9853516</ele>
        <time>2013-05-24T08:37:10Z</time>
      </trkpt>
      <trkpt lat="44.39304" lon="6.21457">
        <ele>1087.3884277</ele>
        <time>2013-05-24T08:37:30Z</time>
      </trkpt>
      <trkpt lat="44.39309" lon="6.2151">
        <ele>1088.3498535</ele>
        <time>2013-05-24T08:37:50Z</time>
      </trkpt>
      <trkpt lat="44.39317" lon="6.21595">
        <ele>1088.8305664</ele>
        <time>2013-05-24T08:38:14Z</time>
      </trkpt>
      <trkpt lat="44.39319" lon="6.21631">
        <ele>1088.8305664</ele>
        <time>2013-05-24T08:38:24Z</time>
      </trkpt>
      <trkpt lat="44.39306" lon="6.21662">
        <ele>1088.3498535</ele>
        <time>2013-05-24T08:38:37Z</time>
      </trkpt>
      <trkpt lat="44.39278" lon="6.21682">
        <ele>1090.2724609</ele>
        <time>2013-05-24T08:38:55Z</time>
      </trkpt>
      <trkpt lat="44.39257" lon="6.217">
        <ele>1093.15625</ele>
        <time>2013-05-24T08:39:12Z</time>
      </trkpt>
      <trkpt lat="44.39244" lon="6.21716">
        <ele>1096.0402832</ele>
        <time>2013-05-24T08:39:32Z</time>
      </trkpt>
      <trkpt lat="44.3922" lon="6.21742">
        <ele>1099.4047852</ele>
        <time>2013-05-24T08:39:52Z</time>
      </trkpt>
      <trkpt lat="44.39197" lon="6.21763">
        <ele>1102.2888184</ele>
        <time>2013-05-24T08:40:16Z</time>
      </trkpt>
      <trkpt lat="44.39197" lon="6.21763">
        <ele>1103.730957</ele>
        <time>2013-05-24T08:40:29Z</time>
      </trkpt>
      <trkpt lat="44.39187" lon="6.21792">
        <ele>1104.6921387</ele>
        <time>2013-05-24T08:40:38Z</time>
      </trkpt>
      <trkpt lat="44.39217" lon="6.21793">
        <ele>1106.1340332</ele>
        <time>2013-05-24T08:41:01Z</time>
      </trkpt>
      <trkpt lat="44.39241" lon="6.21782">
        <ele>1109.0180664</ele>
        <time>2013-05-24T08:41:23Z</time>
      </trkpt>
      <trkpt lat="44.39241" lon="6.21795">
        <ele>1109.0180664</ele>
        <time>2013-05-24T08:41:32Z</time>
      </trkpt>
      <trkpt lat="44.39215" lon="6.21813">
        <ele>1112.8632813</ele>
        <time>2013-05-24T08:41:54Z</time>
      </trkpt>
      <trkpt lat="44.39196" lon="6.21842">
        <ele>1115.7473145</ele>
        <time>2013-05-24T08:42:16Z</time>
      </trkpt>
      <trkpt lat="44.39177" lon="6.21853">
        <ele>1118.6313477</ele>
        <time>2013-05-24T08:42:36Z</time>
      </trkpt>
      <trkpt lat="44.39153" lon="6.21855">
        <ele>1121.9958496</ele>
        <time>2013-05-24T08:42:57Z</time>
      </trkpt>
      <trkpt lat="44.39122" lon="6.21853">
        <ele>1124.8798828</ele>
        <time>2013-05-24T08:43:24Z</time>
      </trkpt>
      <trkpt lat="44.39099" lon="6.21839">
        <ele>1127.7636719</ele>
        <time>2013-05-24T08:43:46Z</time>
      </trkpt>
      <trkpt lat="44.39076" lon="6.21817">
        <ele>1130.6477051</ele>
        <time>2013-05-24T08:44:10Z</time>
      </trkpt>
      <trkpt lat="44.39068" lon="6.21815">
        <ele>1131.128418</ele>
        <time>2013-05-24T08:44:16Z</time>
      </trkpt>
      <trkpt lat="44.39071" lon="6.21826">
        <ele>1132.5705566</ele>
        <time>2013-05-24T08:44:25Z</time>
      </trkpt>
      <trkpt lat="44.39089" lon="6.21849">
        <ele>1133.5317383</ele>
        <time>2013-05-24T08:44:45Z</time>
      </trkpt>
      <trkpt lat="44.39106" lon="6.21875">
        <ele>1136.4157715</ele>
        <time>2013-05-24T08:45:06Z</time>
      </trkpt>
      <trkpt lat="44.39128" lon="6.21893">
        <ele>1139.2995605</ele>
        <time>2013-05-24T08:45:27Z</time>
      </trkpt>
      <trkpt lat="44.39149" lon="6.21906">
        <ele>1142.6643066</ele>
        <time>2013-05-24T08:45:46Z</time>
      </trkpt>
      <trkpt lat="44.39162" lon="6.21922">
        <ele>1144.1062012</ele>
        <time>2013-05-24T08:46:01Z</time>
      </trkpt>
      <trkpt lat="44.39161" lon="6.21953">
        <ele>1146.0288086</ele>
        <time>2013-05-24T08:46:20Z</time>
      </trkpt>
      <trkpt lat="44.39163" lon="6.21972">
        <ele>1147.951416</ele>
        <time>2013-05-24T08:46:33Z</time>
      </trkpt>
      <trkpt lat="44.3915" lon="6.21999">
        <ele>1151.3161621</ele>
        <time>2013-05-24T08:46:55Z</time>
      </trkpt>
      <trkpt lat="44.39139" lon="6.22007">
        <ele>1153.7194824</ele>
        <time>2013-05-24T08:47:08Z</time>
      </trkpt>
      <trkpt lat="44.39119" lon="6.22012">
        <ele>1157.0839844</ele>
        <time>2013-05-24T08:47:28Z</time>
      </trkpt>
      <trkpt lat="44.39097" lon="6.2202">
        <ele>1159.9677734</ele>
        <time>2013-05-24T08:47:51Z</time>
      </trkpt>
      <trkpt lat="44.39077" lon="6.22031">
        <ele>1162.8518066</ele>
        <time>2013-05-24T08:48:12Z</time>
      </trkpt>
      <trkpt lat="44.39059" lon="6.22053">
        <ele>1165.736084</ele>
        <time>2013-05-24T08:48:35Z</time>
      </trkpt>
      <trkpt lat="44.39035" lon="6.22076">
        <ele>1168.1391602</ele>
        <time>2013-05-24T08:49:02Z</time>
      </trkpt>
      <trkpt lat="44.39015" lon="6.22084">
        <ele>1171.5036621</ele>
        <time>2013-05-24T08:49:23Z</time>
      </trkpt>
      <trkpt lat="44.38994" lon="6.22092">
        <ele>1172.9458008</ele>
        <time>2013-05-24T08:49:42Z</time>
      </trkpt>
      <trkpt lat="44.38973" lon="6.22102">
        <ele>1175.8295898</ele>
        <time>2013-05-24T08:50:03Z</time>
      </trkpt>
      <trkpt lat="44.38951" lon="6.22109">
        <ele>1178.2329102</ele>
        <time>2013-05-24T08:50:24Z</time>
      </trkpt>
      <trkpt lat="44.38935" lon="6.22124">
        <ele>1180.6364746</ele>
        <time>2013-05-24T08:50:43Z</time>
      </trkpt>
      <trkpt lat="44.38916" lon="6.22143">
        <ele>1184.4816895</ele>
        <time>2013-05-24T08:51:06Z</time>
      </trkpt>
      <trkpt lat="44.38898" lon="6.22164">
        <ele>1187.3654785</ele>
        <time>2013-05-24T08:51:29Z</time>
      </trkpt>
      <trkpt lat="44.38881" lon="6.22176">
        <ele>1190.2495117</ele>
        <time>2013-05-24T08:51:49Z</time>
      </trkpt>
      <trkpt lat="44.38864" lon="6.22181">
        <ele>1193.1333008</ele>
        <time>2013-05-24T08:52:08Z</time>
      </trkpt>
      <trkpt lat="44.38861" lon="6.2218">
        <ele>1193.1333008</ele>
        <time>2013-05-24T08:52:11Z</time>
      </trkpt>
      <trkpt lat="44.3885" lon="6.22182">
        <ele>1194.5751953</ele>
        <time>2013-05-24T08:52:22Z</time>
      </trkpt>
      <trkpt lat="44.38826" lon="6.22183">
        <ele>1196.9787598</ele>
        <time>2013-05-24T08:52:44Z</time>
      </trkpt>
      <trkpt lat="44.38817" lon="6.22185">
        <ele>1197.4594727</ele>
        <time>2013-05-24T08:52:52Z</time>
      </trkpt>
      <trkpt lat="44.38792" lon="6.22172">
        <ele>1200.3435059</ele>
        <time>2013-05-24T08:53:14Z</time>
      </trkpt>
      <trkpt lat="44.3877" lon="6.22169">
        <ele>1202.2658691</ele>
        <time>2013-05-24T08:53:34Z</time>
      </trkpt>
      <trkpt lat="44.38748" lon="6.22172">
        <ele>1205.6306152</ele>
        <time>2013-05-24T08:53:54Z</time>
      </trkpt>
      <trkpt lat="44.38731" lon="6.22175">
        <ele>1207.5532227</ele>
        <time>2013-05-24T08:54:09Z</time>
      </trkpt>
      <trkpt lat="44.38729" lon="6.22162">
        <ele>1209.4758301</ele>
        <time>2013-05-24T08:54:20Z</time>
      </trkpt>
      <trkpt lat="44.38753" lon="6.22153">
        <ele>1211.8791504</ele>
        <time>2013-05-24T08:54:43Z</time>
      </trkpt>
      <trkpt lat="44.3877" lon="6.2214">
        <ele>1212.8405762</ele>
        <time>2013-05-24T08:55:00Z</time>
      </trkpt>
      <trkpt lat="44.38766" lon="6.22132">
        <ele>1213.8017578</ele>
        <time>2013-05-24T08:55:06Z</time>
      </trkpt>
      <trkpt lat="44.38743" lon="6.22142">
        <ele>1216.685791</ele>
        <time>2013-05-24T08:55:27Z</time>
      </trkpt>
      <trkpt lat="44.38718" lon="6.22139">
        <ele>1219.0891113</ele>
        <time>2013-05-24T08:55:50Z</time>
      </trkpt>
      <trkpt lat="44.3869" lon="6.22134">
        <ele>1221.9729004</ele>
        <time>2013-05-24T08:56:15Z</time>
      </trkpt>
      <trkpt lat="44.3867" lon="6.22128">
        <ele>1223.8955078</ele>
        <time>2013-05-24T08:56:34Z</time>
      </trkpt>
      <trkpt lat="44.3866" lon="6.22125">
        <ele>1224.8569336</ele>
        <time>2013-05-24T08:56:43Z</time>
      </trkpt>
      <trkpt lat="44.38655" lon="6.22124">
        <ele>1225.8181152</ele>
        <time>2013-05-24T08:56:48Z</time>
      </trkpt>
      <trkpt lat="44.38635" lon="6.22114">
        <ele>1229.1828613</ele>
        <time>2013-05-24T08:57:09Z</time>
      </trkpt>
      <trkpt lat="44.38626" lon="6.22113">
        <ele>1229.6635742</ele>
        <time>2013-05-24T08:57:18Z</time>
      </trkpt>
      <trkpt lat="44.38612" lon="6.22124">
        <ele>1232.0668945</ele>
        <time>2013-05-24T08:57:36Z</time>
      </trkpt>
      <trkpt lat="44.38608" lon="6.22138">
        <ele>1233.989502</ele>
        <time>2013-05-24T08:57:46Z</time>
      </trkpt>
      <trkpt lat="44.38608" lon="6.22145">
        <ele>1233.989502</ele>
        <time>2013-05-24T08:57:50Z</time>
      </trkpt>
      <trkpt lat="44.38609" lon="6.22151">
        <ele>1234.4702148</ele>
        <time>2013-05-24T08:57:54Z</time>
      </trkpt>
      <trkpt lat="44.38631" lon="6.22174">
        <ele>1236.3928223</ele>
        <time>2013-05-24T08:58:19Z</time>
      </trkpt>
      <trkpt lat="44.38645" lon="6.22191">
        <ele>1238.3154297</ele>
        <time>2013-05-24T08:58:35Z</time>
      </trkpt>
      <trkpt lat="44.38646" lon="6.222">
        <ele>1239.2766113</ele>
        <time>2013-05-24T08:58:41Z</time>
      </trkpt>
      <trkpt lat="44.38641" lon="6.22215">
        <ele>1240.2380371</ele>
        <time>2013-05-24T08:58:50Z</time>
      </trkpt>
      <trkpt lat="44.38622" lon="6.22228">
        <ele>1243.1218262</ele>
        <time>2013-05-24T08:59:09Z</time>
      </trkpt>
      <trkpt lat="44.386" lon="6.22248">
        <ele>1246.0061035</ele>
        <time>2013-05-24T08:59:32Z</time>
      </trkpt>
      <trkpt lat="44.38589" lon="6.22257">
        <ele>1247.9287109</ele>
        <time>2013-05-24T08:59:43Z</time>
      </trkpt>
      <trkpt lat="44.38583" lon="6.2226">
        <ele>1248.8898926</ele>
        <time>2013-05-24T08:59:48Z</time>
      </trkpt>
      <trkpt lat="44.38561" lon="6.22269">
        <ele>1250.8125</ele>
        <time>2013-05-24T09:00:09Z</time>
      </trkpt>
      <trkpt lat="44.38556" lon="6.22256">
        <ele>1252.2543945</ele>
        <time>2013-05-24T09:00:22Z</time>
      </trkpt>
      <trkpt lat="44.3858" lon="6.22246">
        <ele>1254.1772461</ele>
        <time>2013-05-24T09:00:43Z</time>
      </trkpt>
      <trkpt lat="44.38598" lon="6.22224">
        <ele>1255.6191406</ele>
        <time>2013-05-24T09:01:03Z</time>
      </trkpt>
      <trkpt lat="44.386" lon="6.22221">
        <ele>1255.6191406</ele>
        <time>2013-05-24T09:01:05Z</time>
      </trkpt>
      <trkpt lat="44.38589" lon="6.22198">
        <ele>1258.0224609</ele>
        <time>2013-05-24T09:01:24Z</time>
      </trkpt>
      <trkpt lat="44.3858" lon="6.22197">
        <ele>1259.9448242</ele>
        <time>2013-05-24T09:01:31Z</time>
      </trkpt>
      <trkpt lat="44.38572" lon="6.22197">
        <ele>1259.9448242</ele>
        <time>2013-05-24T09:01:37Z</time>
      </trkpt>
      <trkpt lat="44.38548" lon="6.22182">
        <ele>1262.8291016</ele>
        <time>2013-05-24T09:01:59Z</time>
      </trkpt>
      <trkpt lat="44.38542" lon="6.22176">
        <ele>1263.3098145</ele>
        <time>2013-05-24T09:02:06Z</time>
      </trkpt>
      <trkpt lat="44.38521" lon="6.22164">
        <ele>1266.1936035</ele>
        <time>2013-05-24T09:02:25Z</time>
      </trkpt>
      <trkpt lat="44.38515" lon="6.22161">
        <ele>1266.6743164</ele>
        <time>2013-05-24T09:02:30Z</time>
      </trkpt>
      <trkpt lat="44.3851" lon="6.22158">
        <ele>1267.1550293</ele>
        <time>2013-05-24T09:02:35Z</time>
      </trkpt>
      <trkpt lat="44.38496" lon="6.22136">
        <ele>1269.5583496</ele>
        <time>2013-05-24T09:02:53Z</time>
      </trkpt>
      <trkpt lat="44.38516" lon="6.22111">
        <ele>1272.4421387</ele>
        <time>2013-05-24T09:03:14Z</time>
      </trkpt>
      <trkpt lat="44.38522" lon="6.22085">
        <ele>1274.3647461</ele>
        <time>2013-05-24T09:03:32Z</time>
      </trkpt>
      <trkpt lat="44.38526" lon="6.22062">
        <ele>1275.3259277</ele>
        <time>2013-05-24T09:03:47Z</time>
      </trkpt>
      <trkpt lat="44.38536" lon="6.22056">
        <ele>1276.7683105</ele>
        <time>2013-05-24T09:03:55Z</time>
      </trkpt>
      <trkpt lat="44.38544" lon="6.2205">
        <ele>1277.7294922</ele>
        <time>2013-05-24T09:04:03Z</time>
      </trkpt>
      <trkpt lat="44.38549" lon="6.2204">
        <ele>1278.2102051</ele>
        <time>2013-05-24T09:04:10Z</time>
      </trkpt>
      <trkpt lat="44.38551" lon="6.22033">
        <ele>1278.2102051</ele>
        <time>2013-05-24T09:04:14Z</time>
      </trkpt>
      <trkpt lat="44.38541" lon="6.21992">
        <ele>1281.0942383</ele>
        <time>2013-05-24T09:04:39Z</time>
      </trkpt>
      <trkpt lat="44.3854" lon="6.21988">
        <ele>1281.574707</ele>
        <time>2013-05-24T09:04:41Z</time>
      </trkpt>
      <trkpt lat="44.38543" lon="6.21966">
        <ele>1283.9780273</ele>
        <time>2013-05-24T09:04:55Z</time>
      </trkpt>
      <trkpt lat="44.38568" lon="6.21973">
        <ele>1285.9006348</ele>
        <time>2013-05-24T09:05:13Z</time>
      </trkpt>
      <trkpt lat="44.38586" lon="6.21977">
        <ele>1286.8618164</ele>
        <time>2013-05-24T09:05:25Z</time>
      </trkpt>
      <trkpt lat="44.38604" lon="6.21963">
        <ele>1288.3039551</ele>
        <time>2013-05-24T09:05:43Z</time>
      </trkpt>
      <trkpt lat="44.3861" lon="6.21923">
        <ele>1289.2651367</ele>
        <time>2013-05-24T09:06:07Z</time>
      </trkpt>
      <trkpt lat="44.38614" lon="6.21905">
        <ele>1290.2265625</ele>
        <time>2013-05-24T09:06:17Z</time>
      </trkpt>
      <trkpt lat="44.38623" lon="6.21856">
        <ele>1293.1105957</ele>
        <time>2013-05-24T09:06:44Z</time>
      </trkpt>
      <trkpt lat="44.38636" lon="6.21829">
        <ele>1295.513916</ele>
        <time>2013-05-24T09:07:03Z</time>
      </trkpt>
      <trkpt lat="44.38638" lon="6.21817">
        <ele>1296.4753418</ele>
        <time>2013-05-24T09:07:11Z</time>
      </trkpt>
      <trkpt lat="44.38639" lon="6.21778">
        <ele>1298.878418</ele>
        <time>2013-05-24T09:07:33Z</time>
      </trkpt>
      <trkpt lat="44.38652" lon="6.2175">
        <ele>1299.8398438</ele>
        <time>2013-05-24T09:07:51Z</time>
      </trkpt>
      <trkpt lat="44.38654" lon="6.21713">
        <ele>1303.2043457</ele>
        <time>2013-05-24T09:08:11Z</time>
      </trkpt>
      <trkpt lat="44.38666" lon="6.2168">
        <ele>1305.1269531</ele>
        <time>2013-05-24T09:08:31Z</time>
      </trkpt>
      <trkpt lat="44.38669" lon="6.21676">
        <ele>1305.1269531</ele>
        <time>2013-05-24T09:08:35Z</time>
      </trkpt>
      <trkpt lat="44.38675" lon="6.21667">
        <ele>1305.607666</ele>
        <time>2013-05-24T09:08:43Z</time>
      </trkpt>
      <trkpt lat="44.38695" lon="6.21642">
        <ele>1307.0495605</ele>
        <time>2013-05-24T09:09:01Z</time>
      </trkpt>
      <trkpt lat="44.38708" lon="6.216">
        <ele>1309.9335938</ele>
        <time>2013-05-24T09:09:25Z</time>
      </trkpt>
      <trkpt lat="44.38731" lon="6.21572">
        <ele>1310.4143066</ele>
        <time>2013-05-24T09:09:45Z</time>
      </trkpt>
      <trkpt lat="44.3875" lon="6.21537">
        <ele>1311.8564453</ele>
        <time>2013-05-24T09:10:04Z</time>
      </trkpt>
      <trkpt lat="44.3875" lon="6.21528">
        <ele>1313.2983398</ele>
        <time>2013-05-24T09:10:08Z</time>
      </trkpt>
      <trkpt lat="44.38745" lon="6.2152">
        <ele>1313.2983398</ele>
        <time>2013-05-24T09:10:12Z</time>
      </trkpt>
      <trkpt lat="44.38741" lon="6.2152">
        <ele>1312.817627</ele>
        <time>2013-05-24T09:10:31Z</time>
      </trkpt>
      <trkpt lat="44.38741" lon="6.2152">
        <ele>1314.2595215</ele>
        <time>2013-05-24T09:10:43Z</time>
      </trkpt>
      <trkpt lat="44.38741" lon="6.2152">
        <ele>1312.3369141</ele>
        <time>2013-05-24T09:10:54Z</time>
      </trkpt>
      <trkpt lat="44.38741" lon="6.2152">
        <ele>1310.4143066</ele>
        <time>2013-05-24T09:12:32Z</time>
      </trkpt>
      <trkpt lat="44.3874" lon="6.21519">
        <ele>1309.9335938</ele>
        <time>2013-05-24T09:12:43Z</time>
      </trkpt>
      <trkpt lat="44.38737" lon="6.21514">
        <ele>1310.4143066</ele>
        <time>2013-05-24T09:12:47Z</time>
      </trkpt>
      <trkpt lat="44.38727" lon="6.21503">
        <ele>1312.3369141</ele>
        <time>2013-05-24T09:12:54Z</time>
      </trkpt>
      <trkpt lat="44.38718" lon="6.21498">
        <ele>1312.817627</ele>
        <time>2013-05-24T09:13:00Z</time>
      </trkpt>
      <trkpt lat="44.38694" lon="6.21507">
        <ele>1313.2983398</ele>
        <time>2013-05-24T09:13:17Z</time>
      </trkpt>
      <trkpt lat="44.38669" lon="6.21481">
        <ele>1314.2595215</ele>
        <time>2013-05-24T09:13:31Z</time>
      </trkpt>
      <trkpt lat="44.38627" lon="6.21437">
        <ele>1313.7788086</ele>
        <time>2013-05-24T09:13:50Z</time>
      </trkpt>
      <trkpt lat="44.38584" lon="6.21422">
        <ele>1314.7402344</ele>
        <time>2013-05-24T09:14:07Z</time>
      </trkpt>
      <trkpt lat="44.38577" lon="6.21426">
        <ele>1314.7402344</ele>
        <time>2013-05-24T09:14:10Z</time>
      </trkpt>
      <trkpt lat="44.38546" lon="6.21409">
        <ele>1315.2209473</ele>
        <time>2013-05-24T09:14:24Z</time>
      </trkpt>
      <trkpt lat="44.38537" lon="6.21396">
        <ele>1316.6628418</ele>
        <time>2013-05-24T09:14:29Z</time>
      </trkpt>
      <trkpt lat="44.38525" lon="6.21343">
        <ele>1316.1821289</ele>
        <time>2013-05-24T09:14:45Z</time>
      </trkpt>
      <trkpt lat="44.38512" lon="6.2128">
        <ele>1317.1435547</ele>
        <time>2013-05-24T09:15:03Z</time>
      </trkpt>
      <trkpt lat="44.38494" lon="6.21246">
        <ele>1318.1047363</ele>
        <time>2013-05-24T09:15:15Z</time>
      </trkpt>
      <trkpt lat="44.38467" lon="6.21222">
        <ele>1319.0661621</ele>
        <time>2013-05-24T09:15:28Z</time>
      </trkpt>
      <trkpt lat="44.38439" lon="6.21188">
        <ele>1319.546875</ele>
        <time>2013-05-24T09:15:43Z</time>
      </trkpt>
      <trkpt lat="44.38418" lon="6.21185">
        <ele>1321.4692383</ele>
        <time>2013-05-24T09:15:55Z</time>
      </trkpt>
      <trkpt lat="44.38406" lon="6.21162">
        <ele>1322.4306641</ele>
        <time>2013-05-24T09:16:07Z</time>
      </trkpt>
      <trkpt lat="44.38415" lon="6.21106">
        <ele>1321.4692383</ele>
        <time>2013-05-24T09:16:24Z</time>
      </trkpt>
      <trkpt lat="44.38408" lon="6.21038">
        <ele>1321.9499512</ele>
        <time>2013-05-24T09:16:41Z</time>
      </trkpt>
      <trkpt lat="44.38386" lon="6.20983">
        <ele>1324.3535156</ele>
        <time>2013-05-24T09:16:59Z</time>
      </trkpt>
      <trkpt lat="44.3836" lon="6.20948">
        <ele>1324.3535156</ele>
        <time>2013-05-24T09:17:14Z</time>
      </trkpt>
      <trkpt lat="44.38322" lon="6.20924">
        <ele>1326.276123</ele>
        <time>2013-05-24T09:17:31Z</time>
      </trkpt>
      <trkpt lat="44.38293" lon="6.20935">
        <ele>1327.2375488</ele>
        <time>2013-05-24T09:17:45Z</time>
      </trkpt>
      <trkpt lat="44.38286" lon="6.2093">
        <ele>1327.2375488</ele>
        <time>2013-05-24T09:17:48Z</time>
      </trkpt>
      <trkpt lat="44.38283" lon="6.20918">
        <ele>1327.7180176</ele>
        <time>2013-05-24T09:17:52Z</time>
      </trkpt>
      <trkpt lat="44.38277" lon="6.20899">
        <ele>1328.1987305</ele>
        <time>2013-05-24T09:17:58Z</time>
      </trkpt>
      <trkpt lat="44.38247" lon="6.20886">
        <ele>1328.6794434</ele>
        <time>2013-05-24T09:18:11Z</time>
      </trkpt>
      <trkpt lat="44.38244" lon="6.2085">
        <ele>1329.1599121</ele>
        <time>2013-05-24T09:18:22Z</time>
      </trkpt>
      <trkpt lat="44.38245" lon="6.20847">
        <ele>1329.1599121</ele>
        <time>2013-05-24T09:18:23Z</time>
      </trkpt>
      <trkpt lat="44.38236" lon="6.20802">
        <ele>1329.640625</ele>
        <time>2013-05-24T09:18:37Z</time>
      </trkpt>
      <trkpt lat="44.382" lon="6.20778">
        <ele>1331.0827637</ele>
        <time>2013-05-24T09:18:53Z</time>
      </trkpt>
      <trkpt lat="44.38199" lon="6.20775">
        <ele>1331.0827637</ele>
        <time>2013-05-24T09:18:54Z</time>
      </trkpt>
      <trkpt lat="44.38198" lon="6.20757">
        <ele>1332.0439453</ele>
        <time>2013-05-24T09:19:00Z</time>
      </trkpt>
      <trkpt lat="44.38214" lon="6.20705">
        <ele>1333.005127</ele>
        <time>2013-05-24T09:19:17Z</time>
      </trkpt>
      <trkpt lat="44.38192" lon="6.20649">
        <ele>1333.4858398</ele>
        <time>2013-05-24T09:19:34Z</time>
      </trkpt>
      <trkpt lat="44.38158" lon="6.20596">
        <ele>1334.4472656</ele>
        <time>2013-05-24T09:19:54Z</time>
      </trkpt>
      <trkpt lat="44.3812" lon="6.20561">
        <ele>1334.9279785</ele>
        <time>2013-05-24T09:20:12Z</time>
      </trkpt>
      <trkpt lat="44.38096" lon="6.20538">
        <ele>1335.8891602</ele>
        <time>2013-05-24T09:20:25Z</time>
      </trkpt>
      <trkpt lat="44.38106" lon="6.20497">
        <ele>1336.8503418</ele>
        <time>2013-05-24T09:20:39Z</time>
      </trkpt>
      <trkpt lat="44.38096" lon="6.20454">
        <ele>1336.369873</ele>
        <time>2013-05-24T09:20:53Z</time>
      </trkpt>
      <trkpt lat="44.38085" lon="6.20442">
        <ele>1336.8503418</ele>
        <time>2013-05-24T09:21:06Z</time>
      </trkpt>
      <trkpt lat="44.38077" lon="6.20432">
        <ele>1336.8503418</ele>
        <time>2013-05-24T09:21:23Z</time>
      </trkpt>
      <trkpt lat="44.38071" lon="6.20425">
        <ele>1337.3310547</ele>
        <time>2013-05-24T09:21:37Z</time>
      </trkpt>
      <trkpt lat="44.38066" lon="6.2042">
        <ele>1337.3310547</ele>
        <time>2013-05-24T09:21:40Z</time>
      </trkpt>
      <trkpt lat="44.38032" lon="6.20376">
        <ele>1337.8117676</ele>
        <time>2013-05-24T09:22:00Z</time>
      </trkpt>
      <trkpt lat="44.38003" lon="6.20357">
        <ele>1338.7731934</ele>
        <time>2013-05-24T09:22:15Z</time>
      </trkpt>
      <trkpt lat="44.37969" lon="6.20343">
        <ele>1339.734375</ele>
        <time>2013-05-24T09:22:32Z</time>
      </trkpt>
      <trkpt lat="44.37976" lon="6.20312">
        <ele>1340.6958008</ele>
        <time>2013-05-24T09:22:43Z</time>
      </trkpt>
      <trkpt lat="44.38006" lon="6.2029">
        <ele>1341.1765137</ele>
        <time>2013-05-24T09:22:58Z</time>
      </trkpt>
      <trkpt lat="44.38018" lon="6.20274">
        <ele>1341.1765137</ele>
        <time>2013-05-24T09:23:06Z</time>
      </trkpt>
      <trkpt lat="44.38018" lon="6.20256">
        <ele>1342.1379395</ele>
        <time>2013-05-24T09:23:12Z</time>
      </trkpt>
      <trkpt lat="44.37991" lon="6.20251">
        <ele>1342.1379395</ele>
        <time>2013-05-24T09:23:26Z</time>
      </trkpt>
      <trkpt lat="44.3797" lon="6.2025">
        <ele>1342.1379395</ele>
        <time>2013-05-24T09:23:34Z</time>
      </trkpt>
      <trkpt lat="44.37963" lon="6.20222">
        <ele>1342.6186523</ele>
        <time>2013-05-24T09:23:42Z</time>
      </trkpt>
      <trkpt lat="44.37975" lon="6.20172">
        <ele>1343.579834</ele>
        <time>2013-05-24T09:23:58Z</time>
      </trkpt>
      <trkpt lat="44.37987" lon="6.20116">
        <ele>1344.5410156</ele>
        <time>2013-05-24T09:24:16Z</time>
      </trkpt>
      <trkpt lat="44.37982" lon="6.20066">
        <ele>1345.0217285</ele>
        <time>2013-05-24T09:24:32Z</time>
      </trkpt>
      <trkpt lat="44.37949" lon="6.20002">
        <ele>1346.4638672</ele>
        <time>2013-05-24T09:24:54Z</time>
      </trkpt>
      <trkpt lat="44.37937" lon="6.19943">
        <ele>1346.9443359</ele>
        <time>2013-05-24T09:25:10Z</time>
      </trkpt>
      <trkpt lat="44.37917" lon="6.19908">
        <ele>1346.9443359</ele>
        <time>2013-05-24T09:25:23Z</time>
      </trkpt>
      <trkpt lat="44.37901" lon="6.19886">
        <ele>1348.3862305</ele>
        <time>2013-05-24T09:25:36Z</time>
      </trkpt>
      <trkpt lat="44.37897" lon="6.19888">
        <ele>1348.8669434</ele>
        <time>2013-05-24T09:25:39Z</time>
      </trkpt>
      <trkpt lat="44.37895" lon="6.1989">
        <ele>1349.3476563</ele>
        <time>2013-05-24T09:25:41Z</time>
      </trkpt>
      <trkpt lat="44.37907" lon="6.19911">
        <ele>1351.2702637</ele>
        <time>2013-05-24T09:25:57Z</time>
      </trkpt>
      <trkpt lat="44.37921" lon="6.19944">
        <ele>1353.1928711</ele>
        <time>2013-05-24T09:26:18Z</time>
      </trkpt>
      <trkpt lat="44.37924" lon="6.19981">
        <ele>1356.5576172</ele>
        <time>2013-05-24T09:26:40Z</time>
      </trkpt>
      <trkpt lat="44.37927" lon="6.20001">
        <ele>1357.9997559</ele>
        <time>2013-05-24T09:26:52Z</time>
      </trkpt>
      <trkpt lat="44.37933" lon="6.20029">
        <ele>1360.402832</ele>
        <time>2013-05-24T09:27:10Z</time>
      </trkpt>
      <trkpt lat="44.37931" lon="6.20059">
        <ele>1363.2868652</ele>
        <time>2013-05-24T09:27:28Z</time>
      </trkpt>
      <trkpt lat="44.37927" lon="6.20089">
        <ele>1366.1706543</ele>
        <time>2013-05-24T09:27:47Z</time>
      </trkpt>
      <trkpt lat="44.37921" lon="6.20116">
        <ele>1369.5354004</ele>
        <time>2013-05-24T09:28:06Z</time>
      </trkpt>
      <trkpt lat="44.37912" lon="6.20151">
        <ele>1371.9384766</ele>
        <time>2013-05-24T09:28:31Z</time>
      </trkpt>
      <trkpt lat="44.37898" lon="6.20181">
        <ele>1375.3032227</ele>
        <time>2013-05-24T09:28:55Z</time>
      </trkpt>
      <trkpt lat="44.37883" lon="6.20207">
        <ele>1378.1872559</ele>
        <time>2013-05-24T09:29:16Z</time>
      </trkpt>
      <trkpt lat="44.37879" lon="6.20229">
        <ele>1380.1098633</ele>
        <time>2013-05-24T09:29:32Z</time>
      </trkpt>
      <trkpt lat="44.37878" lon="6.20255">
        <ele>1382.9936523</ele>
        <time>2013-05-24T09:29:50Z</time>
      </trkpt>
      <trkpt lat="44.37875" lon="6.20271">
        <ele>1384.435791</ele>
        <time>2013-05-24T09:30:01Z</time>
      </trkpt>
      <trkpt lat="44.37878" lon="6.20288">
        <ele>1386.8388672</ele>
        <time>2013-05-24T09:30:13Z</time>
      </trkpt>
      <trkpt lat="44.3788" lon="6.203">
        <ele>1387.800293</ele>
        <time>2013-05-24T09:30:21Z</time>
      </trkpt>
      <trkpt lat="44.3788" lon="6.20307">
        <ele>1388.28125</ele>
        <time>2013-05-24T09:30:25Z</time>
      </trkpt>
      <trkpt lat="44.3788" lon="6.20322">
        <ele>1389.2424316</ele>
        <time>2013-05-24T09:30:35Z</time>
      </trkpt>
      <trkpt lat="44.37884" lon="6.20338">
        <ele>1391.1650391</ele>
        <time>2013-05-24T09:30:47Z</time>
      </trkpt>
      <trkpt lat="44.37883" lon="6.20359">
        <ele>1393.0876465</ele>
        <time>2013-05-24T09:31:03Z</time>
      </trkpt>
      <trkpt lat="44.37878" lon="6.20391">
        <ele>1396.4523926</ele>
        <time>2013-05-24T09:31:25Z</time>
      </trkpt>
      <trkpt lat="44.37879" lon="6.20398">
        <ele>1396.9328613</ele>
        <time>2013-05-24T09:31:29Z</time>
      </trkpt>
      <trkpt lat="44.37894" lon="6.20431">
        <ele>1399.3361816</ele>
        <time>2013-05-24T09:31:51Z</time>
      </trkpt>
      <trkpt lat="44.37904" lon="6.20451">
        <ele>1401.739502</ele>
        <time>2013-05-24T09:32:08Z</time>
      </trkpt>
      <trkpt lat="44.37911" lon="6.20479">
        <ele>1404.1430664</ele>
        <time>2013-05-24T09:32:29Z</time>
      </trkpt>
      <trkpt lat="44.37909" lon="6.20492">
        <ele>1404.6235352</ele>
        <time>2013-05-24T09:32:37Z</time>
      </trkpt>
      <trkpt lat="44.37911" lon="6.20506">
        <ele>1406.0654297</ele>
        <time>2013-05-24T09:32:46Z</time>
      </trkpt>
      <trkpt lat="44.37916" lon="6.20535">
        <ele>1408.9494629</ele>
        <time>2013-05-24T09:33:06Z</time>
      </trkpt>
      <trkpt lat="44.37915" lon="6.20544">
        <ele>1409.9106445</ele>
        <time>2013-05-24T09:33:13Z</time>
      </trkpt>
      <trkpt lat="44.37912" lon="6.20574">
        <ele>1413.2753906</ele>
        <time>2013-05-24T09:33:35Z</time>
      </trkpt>
      <trkpt lat="44.37909" lon="6.20595">
        <ele>1414.2365723</ele>
        <time>2013-05-24T09:33:48Z</time>
      </trkpt>
      <trkpt lat="44.37905" lon="6.20603">
        <ele>1415.6787109</ele>
        <time>2013-05-24T09:33:55Z</time>
      </trkpt>
      <trkpt lat="44.37912" lon="6.20647">
        <ele>1418.5625</ele>
        <time>2013-05-24T09:34:21Z</time>
      </trkpt>
      <trkpt lat="44.37918" lon="6.20653">
        <ele>1420.4853516</ele>
        <time>2013-05-24T09:34:37Z</time>
      </trkpt>
      <trkpt lat="44.37922" lon="6.20667">
        <ele>1420.9660645</ele>
        <time>2013-05-24T09:34:55Z</time>
      </trkpt>
      <trkpt lat="44.37923" lon="6.20705">
        <ele>1424.8112793</ele>
        <time>2013-05-24T09:35:19Z</time>
      </trkpt>
      <trkpt lat="44.37923" lon="6.20706">
        <ele>1424.8112793</ele>
        <time>2013-05-24T09:35:20Z</time>
      </trkpt>
      <trkpt lat="44.37925" lon="6.2071">
        <ele>1425.291748</ele>
        <time>2013-05-24T09:35:23Z</time>
      </trkpt>
      <trkpt lat="44.37929" lon="6.20718">
        <ele>1426.2531738</ele>
        <time>2013-05-24T09:35:29Z</time>
      </trkpt>
      <trkpt lat="44.37931" lon="6.20722">
        <ele>1426.2531738</ele>
        <time>2013-05-24T09:35:32Z</time>
      </trkpt>
      <trkpt lat="44.37935" lon="6.20727">
        <ele>1427.2145996</ele>
        <time>2013-05-24T09:35:36Z</time>
      </trkpt>
      <trkpt lat="44.37953" lon="6.20763">
        <ele>1428.6564941</ele>
        <time>2013-05-24T09:36:01Z</time>
      </trkpt>
      <trkpt lat="44.37959" lon="6.20797">
        <ele>1429.6176758</ele>
        <time>2013-05-24T09:36:18Z</time>
      </trkpt>
      <trkpt lat="44.37965" lon="6.20827">
        <ele>1430.5791016</ele>
        <time>2013-05-24T09:36:34Z</time>
      </trkpt>
      <trkpt lat="44.37966" lon="6.20866">
        <ele>1431.5402832</ele>
        <time>2013-05-24T09:36:52Z</time>
      </trkpt>
      <trkpt lat="44.37976" lon="6.20913">
        <ele>1432.501709</ele>
        <time>2013-05-24T09:37:12Z</time>
      </trkpt>
      <trkpt lat="44.37994" lon="6.20943">
        <ele>1433.9436035</ele>
        <time>2013-05-24T09:37:28Z</time>
      </trkpt>
      <trkpt lat="44.38015" lon="6.20983">
        <ele>1434.9050293</ele>
        <time>2013-05-24T09:37:48Z</time>
      </trkpt>
      <trkpt lat="44.38023" lon="6.21027">
        <ele>1436.347168</ele>
        <time>2013-05-24T09:38:08Z</time>
      </trkpt>
      <trkpt lat="44.38028" lon="6.21075">
        <ele>1437.3083496</ele>
        <time>2013-05-24T09:38:28Z</time>
      </trkpt>
      <trkpt lat="44.38052" lon="6.21127">
        <ele>1438.2697754</ele>
        <time>2013-05-24T09:38:51Z</time>
      </trkpt>
      <trkpt lat="44.38072" lon="6.21168">
        <ele>1441.6342773</ele>
        <time>2013-05-24T09:39:11Z</time>
      </trkpt>
      <trkpt lat="44.38077" lon="6.21176">
        <ele>1441.1535645</ele>
        <time>2013-05-24T09:39:16Z</time>
      </trkpt>
      <trkpt lat="44.38079" lon="6.21189">
        <ele>1441.6342773</ele>
        <time>2013-05-24T09:39:23Z</time>
      </trkpt>
      <trkpt lat="44.38096" lon="6.21216">
        <ele>1442.1149902</ele>
        <time>2013-05-24T09:39:42Z</time>
      </trkpt>
      <trkpt lat="44.38096" lon="6.21215">
        <ele>1442.5957031</ele>
        <time>2013-05-24T09:40:35Z</time>
      </trkpt>
      <trkpt lat="44.38096" lon="6.21215">
        <ele>1442.1149902</ele>
        <time>2013-05-24T09:41:04Z</time>
      </trkpt>
      <trkpt lat="44.38094" lon="6.21219">
        <ele>1442.5957031</ele>
        <time>2013-05-24T09:41:08Z</time>
      </trkpt>
      <trkpt lat="44.38091" lon="6.2122">
        <ele>1443.5568848</ele>
        <time>2013-05-24T09:41:10Z</time>
      </trkpt>
      <trkpt lat="44.38072" lon="6.21206">
        <ele>1445.4794922</ele>
        <time>2013-05-24T09:41:28Z</time>
      </trkpt>
      <trkpt lat="44.3807" lon="6.21201">
        <ele>1446.440918</ele>
        <time>2013-05-24T09:41:44Z</time>
      </trkpt>
      <trkpt lat="44.38069" lon="6.212">
        <ele>1446.9213867</ele>
        <time>2013-05-24T09:42:05Z</time>
      </trkpt>
      <trkpt lat="44.38068" lon="6.212">
        <ele>1446.9213867</ele>
        <time>2013-05-24T09:42:12Z</time>
      </trkpt>
      <trkpt lat="44.38065" lon="6.21195">
        <ele>1446.9213867</ele>
        <time>2013-05-24T09:42:16Z</time>
      </trkpt>
      <trkpt lat="44.38041" lon="6.21176">
        <ele>1449.8054199</ele>
        <time>2013-05-24T09:42:37Z</time>
      </trkpt>
      <trkpt lat="44.38022" lon="6.21165">
        <ele>1453.170166</ele>
        <time>2013-05-24T09:42:55Z</time>
      </trkpt>
      <trkpt lat="44.38003" lon="6.21152">
        <ele>1456.0539551</ele>
        <time>2013-05-24T09:43:13Z</time>
      </trkpt>
      <trkpt lat="44.37991" lon="6.21138">
        <ele>1457.4960938</ele>
        <time>2013-05-24T09:43:28Z</time>
      </trkpt>
      <trkpt lat="44.37973" lon="6.21119">
        <ele>1460.8605957</ele>
        <time>2013-05-24T09:43:49Z</time>
      </trkpt>
      <trkpt lat="44.37962" lon="6.21095">
        <ele>1463.263916</ele>
        <time>2013-05-24T09:44:07Z</time>
      </trkpt>
      <trkpt lat="44.37958" lon="6.21087">
        <ele>1464.2250977</ele>
        <time>2013-05-24T09:44:24Z</time>
      </trkpt>
      <trkpt lat="44.37957" lon="6.21086">
        <ele>1464.2250977</ele>
        <time>2013-05-24T09:44:47Z</time>
      </trkpt>
      <trkpt lat="44.37939" lon="6.21061">
        <ele>1467.5895996</ele>
        <time>2013-05-24T09:45:07Z</time>
      </trkpt>
      <trkpt lat="44.37932" lon="6.21054">
        <ele>1469.0319824</ele>
        <time>2013-05-24T09:45:16Z</time>
      </trkpt>
      <trkpt lat="44.37911" lon="6.2104">
        <ele>1472.8771973</ele>
        <time>2013-05-24T09:45:39Z</time>
      </trkpt>
      <trkpt lat="44.37891" lon="6.21021">
        <ele>1475.7609863</ele>
        <time>2013-05-24T09:46:02Z</time>
      </trkpt>
      <trkpt lat="44.37886" lon="6.21016">
        <ele>1476.7224121</ele>
        <time>2013-05-24T09:46:15Z</time>
      </trkpt>
      <trkpt lat="44.37881" lon="6.21011">
        <ele>1477.6835938</ele>
        <time>2013-05-24T09:46:31Z</time>
      </trkpt>
      <trkpt lat="44.3788" lon="6.21012">
        <ele>1477.203125</ele>
        <time>2013-05-24T09:47:01Z</time>
      </trkpt>
      <trkpt lat="44.3788" lon="6.21011">
        <ele>1476.7224121</ele>
        <time>2013-05-24T09:47:10Z</time>
      </trkpt>
      <trkpt lat="44.37877" lon="6.21004">
        <ele>1478.6450195</ele>
        <time>2013-05-24T09:47:14Z</time>
      </trkpt>
      <trkpt lat="44.37861" lon="6.2098">
        <ele>1480.567627</ele>
        <time>2013-05-24T09:47:34Z</time>
      </trkpt>
      <trkpt lat="44.37855" lon="6.20974">
        <ele>1481.5288086</ele>
        <time>2013-05-24T09:47:40Z</time>
      </trkpt>
      <trkpt lat="44.37853" lon="6.20967">
        <ele>1482.9707031</ele>
        <time>2013-05-24T09:47:45Z</time>
      </trkpt>
      <trkpt lat="44.37838" lon="6.20938">
        <ele>1484.8937988</ele>
        <time>2013-05-24T09:48:07Z</time>
      </trkpt>
      <trkpt lat="44.37825" lon="6.20908">
        <ele>1488.2583008</ele>
        <time>2013-05-24T09:48:28Z</time>
      </trkpt>
      <trkpt lat="44.37821" lon="6.209">
        <ele>1489.7001953</ele>
        <time>2013-05-24T09:48:34Z</time>
      </trkpt>
      <trkpt lat="44.37812" lon="6.20887">
        <ele>1489.2194824</ele>
        <time>2013-05-24T09:48:46Z</time>
      </trkpt>
      <trkpt lat="44.37811" lon="6.20884">
        <ele>1491.1420898</ele>
        <time>2013-05-24T09:48:48Z</time>
      </trkpt>
      <trkpt lat="44.37809" lon="6.2088">
        <ele>1489.2194824</ele>
        <time>2013-05-24T09:48:51Z</time>
      </trkpt>
      <trkpt lat="44.37807" lon="6.20879">
        <ele>1491.1420898</ele>
        <time>2013-05-24T09:48:53Z</time>
      </trkpt>
      <trkpt lat="44.37799" lon="6.20861">
        <ele>1494.5065918</ele>
        <time>2013-05-24T09:49:06Z</time>
      </trkpt>
      <trkpt lat="44.37796" lon="6.20845">
        <ele>1495.4680176</ele>
        <time>2013-05-24T09:49:20Z</time>
      </trkpt>
      <trkpt lat="44.37786" lon="6.20824">
        <ele>1497.390625</ele>
        <time>2013-05-24T09:49:36Z</time>
      </trkpt>
      <trkpt lat="44.37772" lon="6.20801">
        <ele>1500.7553711</ele>
        <time>2013-05-24T09:49:57Z</time>
      </trkpt>
      <trkpt lat="44.37761" lon="6.20782">
        <ele>1503.1586914</ele>
        <time>2013-05-24T09:50:14Z</time>
      </trkpt>
      <trkpt lat="44.37752" lon="6.20764">
        <ele>1505.0812988</ele>
        <time>2013-05-24T09:50:29Z</time>
      </trkpt>
      <trkpt lat="44.37742" lon="6.20742">
        <ele>1507.4846191</ele>
        <time>2013-05-24T09:50:48Z</time>
      </trkpt>
      <trkpt lat="44.37728" lon="6.20719">
        <ele>1510.3684082</ele>
        <time>2013-05-24T09:51:10Z</time>
      </trkpt>
      <trkpt lat="44.37719" lon="6.20698">
        <ele>1511.8105469</ele>
        <time>2013-05-24T09:51:28Z</time>
      </trkpt>
      <trkpt lat="44.37713" lon="6.20685">
        <ele>1513.2524414</ele>
        <time>2013-05-24T09:51:37Z</time>
      </trkpt>
      <trkpt lat="44.37713" lon="6.20684">
        <ele>1513.7329102</ele>
        <time>2013-05-24T09:51:39Z</time>
      </trkpt>
      <trkpt lat="44.37709" lon="6.20684">
        <ele>1514.213623</ele>
        <time>2013-05-24T09:51:43Z</time>
      </trkpt>
      <trkpt lat="44.37706" lon="6.20689">
        <ele>1514.6943359</ele>
        <time>2013-05-24T09:51:48Z</time>
      </trkpt>
      <trkpt lat="44.37705" lon="6.20691">
        <ele>1514.6943359</ele>
        <time>2013-05-24T09:51:50Z</time>
      </trkpt>
      <trkpt lat="44.3771" lon="6.20717">
        <ele>1517.5783691</ele>
        <time>2013-05-24T09:52:09Z</time>
      </trkpt>
      <trkpt lat="44.37709" lon="6.20744">
        <ele>1520.9431152</ele>
        <time>2013-05-24T09:52:27Z</time>
      </trkpt>
      <trkpt lat="44.37709" lon="6.20748">
        <ele>1522.3850098</ele>
        <time>2013-05-24T09:52:31Z</time>
      </trkpt>
      <trkpt lat="44.37707" lon="6.20764">
        <ele>1523.3464355</ele>
        <time>2013-05-24T09:52:47Z</time>
      </trkpt>
      <trkpt lat="44.37704" lon="6.20774">
        <ele>1524.3076172</ele>
        <time>2013-05-24T09:53:15Z</time>
      </trkpt>
      <trkpt lat="44.37704" lon="6.20779">
        <ele>1525.2687988</ele>
        <time>2013-05-24T09:53:37Z</time>
      </trkpt>
      <trkpt lat="44.37703" lon="6.20784">
        <ele>1525.7495117</ele>
        <time>2013-05-24T09:53:53Z</time>
      </trkpt>
      <trkpt lat="44.37703" lon="6.20784">
        <ele>1526.2302246</ele>
        <time>2013-05-24T09:54:01Z</time>
      </trkpt>
      <trkpt lat="44.37701" lon="6.20785">
        <ele>1525.2687988</ele>
        <time>2013-05-24T09:54:22Z</time>
      </trkpt>
      <trkpt lat="44.37705" lon="6.20793">
        <ele>1528.152832</ele>
        <time>2013-05-24T09:55:52Z</time>
      </trkpt>
      <trkpt lat="44.37705" lon="6.208">
        <ele>1528.152832</ele>
        <time>2013-05-24T09:55:57Z</time>
      </trkpt>
      <trkpt lat="44.37705" lon="6.20826">
        <ele>1530.5561523</ele>
        <time>2013-05-24T09:56:21Z</time>
      </trkpt>
      <trkpt lat="44.37706" lon="6.20832">
        <ele>1531.0368652</ele>
        <time>2013-05-24T09:56:48Z</time>
      </trkpt>
      <trkpt lat="44.377" lon="6.2086">
        <ele>1534.4016113</ele>
        <time>2013-05-24T09:57:03Z</time>
      </trkpt>
      <trkpt lat="44.37694" lon="6.20885">
        <ele>1537.2854004</ele>
        <time>2013-05-24T09:57:19Z</time>
      </trkpt>
      <trkpt lat="44.37688" lon="6.20919">
        <ele>1540.1694336</ele>
        <time>2013-05-24T09:57:41Z</time>
      </trkpt>
      <trkpt lat="44.37684" lon="6.20942">
        <ele>1542.5727539</ele>
        <time>2013-05-24T09:57:57Z</time>
      </trkpt>
      <trkpt lat="44.37681" lon="6.20951">
        <ele>1543.5339355</ele>
        <time>2013-05-24T09:58:04Z</time>
      </trkpt>
      <trkpt lat="44.37679" lon="6.20958">
        <ele>1543.5339355</ele>
        <time>2013-05-24T09:58:09Z</time>
      </trkpt>
      <trkpt lat="44.37674" lon="6.20983">
        <ele>1545.9372559</ele>
        <time>2013-05-24T09:58:27Z</time>
      </trkpt>
      <trkpt lat="44.37672" lon="6.2101">
        <ele>1547.8598633</ele>
        <time>2013-05-24T09:58:46Z</time>
      </trkpt>
      <trkpt lat="44.37675" lon="6.21054">
        <ele>1549.7827148</ele>
        <time>2013-05-24T09:59:11Z</time>
      </trkpt>
      <trkpt lat="44.37675" lon="6.21069">
        <ele>1549.302002</ele>
        <time>2013-05-24T09:59:19Z</time>
      </trkpt>
      <trkpt lat="44.37666" lon="6.21071">
        <ele>1550.2634277</ele>
        <time>2013-05-24T09:59:33Z</time>
      </trkpt>
      <trkpt lat="44.37666" lon="6.21075">
        <ele>1549.7827148</ele>
        <time>2013-05-24T10:00:01Z</time>
      </trkpt>
      <trkpt lat="44.3767" lon="6.21076">
        <ele>1549.302002</ele>
        <time>2013-05-24T10:00:34Z</time>
      </trkpt>
      <trkpt lat="44.37675" lon="6.21076">
        <ele>1550.2634277</ele>
        <time>2013-05-24T10:00:45Z</time>
      </trkpt>
      <trkpt lat="44.37665" lon="6.21066">
        <ele>1550.2634277</ele>
        <time>2013-05-24T10:01:01Z</time>
      </trkpt>
      <trkpt lat="44.37663" lon="6.21061">
        <ele>1551.7053223</ele>
        <time>2013-05-24T10:01:06Z</time>
      </trkpt>
      <trkpt lat="44.37663" lon="6.21056">
        <ele>1551.7053223</ele>
        <time>2013-05-24T10:01:30Z</time>
      </trkpt>
      <trkpt lat="44.37659" lon="6.21044">
        <ele>1552.6665039</ele>
        <time>2013-05-24T10:02:13Z</time>
      </trkpt>
      <trkpt lat="44.37654" lon="6.21029">
        <ele>1554.1086426</ele>
        <time>2013-05-24T10:02:25Z</time>
      </trkpt>
      <trkpt lat="44.37647" lon="6.21001">
        <ele>1555.5505371</ele>
        <time>2013-05-24T10:02:41Z</time>
      </trkpt>
      <trkpt lat="44.37614" lon="6.20976">
        <ele>1557.4731445</ele>
        <time>2013-05-24T10:03:08Z</time>
      </trkpt>
      <trkpt lat="44.37586" lon="6.20967">
        <ele>1559.8762207</ele>
        <time>2013-05-24T10:03:28Z</time>
      </trkpt>
      <trkpt lat="44.37561" lon="6.20944">
        <ele>1562.279541</ele>
        <time>2013-05-24T10:03:52Z</time>
      </trkpt>
      <trkpt lat="44.37557" lon="6.20936">
        <ele>1562.7602539</ele>
        <time>2013-05-24T10:03:58Z</time>
      </trkpt>
      <trkpt lat="44.37553" lon="6.20897">
        <ele>1565.1638184</ele>
        <time>2013-05-24T10:04:19Z</time>
      </trkpt>
      <trkpt lat="44.37545" lon="6.20874">
        <ele>1567.5668945</ele>
        <time>2013-05-24T10:04:37Z</time>
      </trkpt>
      <trkpt lat="44.37522" lon="6.20871">
        <ele>1569.0090332</ele>
        <time>2013-05-24T10:04:57Z</time>
      </trkpt>
      <trkpt lat="44.37509" lon="6.20849">
        <ele>1569.9702148</ele>
        <time>2013-05-24T10:05:14Z</time>
      </trkpt>
      <trkpt lat="44.37506" lon="6.20845">
        <ele>1570.4509277</ele>
        <time>2013-05-24T10:05:17Z</time>
      </trkpt>
      <trkpt lat="44.3749" lon="6.20811">
        <ele>1570.9316406</ele>
        <time>2013-05-24T10:05:37Z</time>
      </trkpt>
      <trkpt lat="44.37476" lon="6.20778">
        <ele>1569.9702148</ele>
        <time>2013-05-24T10:05:55Z</time>
      </trkpt>
      <trkpt lat="44.37473" lon="6.20749">
        <ele>1568.5283203</ele>
        <time>2013-05-24T10:06:30Z</time>
      </trkpt>
      <trkpt lat="44.37472" lon="6.20706">
        <ele>1567.5668945</ele>
        <time>2013-05-24T10:06:45Z</time>
      </trkpt>
      <trkpt lat="44.37464" lon="6.20662">
        <ele>1565.6445313</ele>
        <time>2013-05-24T10:07:02Z</time>
      </trkpt>
      <trkpt lat="44.37461" lon="6.20616">
        <ele>1563.2409668</ele>
        <time>2013-05-24T10:07:17Z</time>
      </trkpt>
      <trkpt lat="44.37453" lon="6.20558">
        <ele>1561.3183594</ele>
        <time>2013-05-24T10:07:35Z</time>
      </trkpt>
      <trkpt lat="44.37447" lon="6.20518">
        <ele>1560.3569336</ele>
        <time>2013-05-24T10:07:49Z</time>
      </trkpt>
      <trkpt lat="44.37453" lon="6.2047">
        <ele>1556.5117188</ele>
        <time>2013-05-24T10:08:03Z</time>
      </trkpt>
      <trkpt lat="44.3746" lon="6.20436">
        <ele>1553.1472168</ele>
        <time>2013-05-24T10:08:14Z</time>
      </trkpt>
      <trkpt lat="44.37463" lon="6.20423">
        <ele>1551.7053223</ele>
        <time>2013-05-24T10:08:18Z</time>
      </trkpt>
      <trkpt lat="44.37466" lon="6.20402">
        <ele>1549.7827148</ele>
        <time>2013-05-24T10:08:25Z</time>
      </trkpt>
      <trkpt lat="44.3747" lon="6.20377">
        <ele>1546.4179688</ele>
        <time>2013-05-24T10:08:33Z</time>
      </trkpt>
      <trkpt lat="44.37472" lon="6.20339">
        <ele>1543.0532227</ele>
        <time>2013-05-24T10:08:46Z</time>
      </trkpt>
      <trkpt lat="44.37472" lon="6.20335">
        <ele>1542.092041</ele>
        <time>2013-05-24T10:08:48Z</time>
      </trkpt>
      <trkpt lat="44.37469" lon="6.20309">
        <ele>1538.2468262</ele>
        <time>2013-05-24T10:08:58Z</time>
      </trkpt>
      <trkpt lat="44.37464" lon="6.20278">
        <ele>1534.8823242</ele>
        <time>2013-05-24T10:09:10Z</time>
      </trkpt>
      <trkpt lat="44.37458" lon="6.20256">
        <ele>1531.517334</ele>
        <time>2013-05-24T10:09:17Z</time>
      </trkpt>
      <trkpt lat="44.37458" lon="6.20251">
        <ele>1531.517334</ele>
        <time>2013-05-24T10:09:18Z</time>
      </trkpt>
      <trkpt lat="44.37451" lon="6.20219">
        <ele>1527.6721191</ele>
        <time>2013-05-24T10:09:26Z</time>
      </trkpt>
      <trkpt lat="44.37451" lon="6.20215">
        <ele>1527.6721191</ele>
        <time>2013-05-24T10:09:27Z</time>
      </trkpt>
      <trkpt lat="44.37448" lon="6.20199">
        <ele>1525.2687988</ele>
        <time>2013-05-24T10:09:32Z</time>
      </trkpt>
      <trkpt lat="44.37443" lon="6.20181">
        <ele>1522.8657227</ele>
        <time>2013-05-24T10:09:38Z</time>
      </trkpt>
      <trkpt lat="44.37438" lon="6.20153">
        <ele>1519.5012207</ele>
        <time>2013-05-24T10:09:45Z</time>
      </trkpt>
      <trkpt lat="44.37434" lon="6.20131">
        <ele>1517.5783691</ele>
        <time>2013-05-24T10:09:50Z</time>
      </trkpt>
      <trkpt lat="44.37432" lon="6.20117">
        <ele>1516.1364746</ele>
        <time>2013-05-24T10:09:53Z</time>
      </trkpt>
      <trkpt lat="44.37443" lon="6.20068">
        <ele>1516.1364746</ele>
        <time>2013-05-24T10:10:05Z</time>
      </trkpt>
      <trkpt lat="44.37457" lon="6.20032">
        <ele>1514.213623</ele>
        <time>2013-05-24T10:10:16Z</time>
      </trkpt>
      <trkpt lat="44.37464" lon="6.20007">
        <ele>1512.2910156</ele>
        <time>2013-05-24T10:10:22Z</time>
      </trkpt>
      <trkpt lat="44.37475" lon="6.19979">
        <ele>1509.8876953</ele>
        <time>2013-05-24T10:10:30Z</time>
      </trkpt>
      <trkpt lat="44.37477" lon="6.19947">
        <ele>1506.5231934</ele>
        <time>2013-05-24T10:10:37Z</time>
      </trkpt>
      <trkpt lat="44.37479" lon="6.19928">
        <ele>1505.0812988</ele>
        <time>2013-05-24T10:10:41Z</time>
      </trkpt>
      <trkpt lat="44.37479" lon="6.19896">
        <ele>1500.2749023</ele>
        <time>2013-05-24T10:10:49Z</time>
      </trkpt>
      <trkpt lat="44.37479" lon="6.19892">
        <ele>1500.2749023</ele>
        <time>2013-05-24T10:10:50Z</time>
      </trkpt>
      <trkpt lat="44.37479" lon="6.19867">
        <ele>1498.3518066</ele>
        <time>2013-05-24T10:11:06Z</time>
      </trkpt>
      <trkpt lat="44.37479" lon="6.19867">
        <ele>1497.8713379</ele>
        <time>2013-05-24T10:11:41Z</time>
      </trkpt>
      <trkpt lat="44.37477" lon="6.19859">
        <ele>1496.9099121</ele>
        <time>2013-05-24T10:12:05Z</time>
      </trkpt>
      <trkpt lat="44.3747" lon="6.19821">
        <ele>1493.0646973</ele>
        <time>2013-05-24T10:12:13Z</time>
      </trkpt>
      <trkpt lat="44.37468" lon="6.19815">
        <ele>1493.0646973</ele>
        <time>2013-05-24T10:12:14Z</time>
      </trkpt>
      <trkpt lat="44.37446" lon="6.19777">
        <ele>1494.9873047</ele>
        <time>2013-05-24T10:12:26Z</time>
      </trkpt>
      <trkpt lat="44.37414" lon="6.19732">
        <ele>1495.9487305</ele>
        <time>2013-05-24T10:12:45Z</time>
      </trkpt>
      <trkpt lat="44.37389" lon="6.19702">
        <ele>1496.9099121</ele>
        <time>2013-05-24T10:13:00Z</time>
      </trkpt>
      <trkpt lat="44.37364" lon="6.19674">
        <ele>1497.390625</ele>
        <time>2013-05-24T10:13:16Z</time>
      </trkpt>
      <trkpt lat="44.37348" lon="6.19639">
        <ele>1497.390625</ele>
        <time>2013-05-24T10:13:32Z</time>
      </trkpt>
      <trkpt lat="44.37348" lon="6.19629">
        <ele>1497.390625</ele>
        <time>2013-05-24T10:13:36Z</time>
      </trkpt>
      <trkpt lat="44.3733" lon="6.1958">
        <ele>1497.390625</ele>
        <time>2013-05-24T10:13:53Z</time>
      </trkpt>
      <trkpt lat="44.37316" lon="6.19538">
        <ele>1495.9487305</ele>
        <time>2013-05-24T10:14:05Z</time>
      </trkpt>
      <trkpt lat="44.37315" lon="6.19532">
        <ele>1495.9487305</ele>
        <time>2013-05-24T10:14:06Z</time>
      </trkpt>
      <trkpt lat="44.37306" lon="6.19495">
        <ele>1494.026123</ele>
        <time>2013-05-24T10:14:15Z</time>
      </trkpt>
      <trkpt lat="44.37302" lon="6.19479">
        <ele>1493.0646973</ele>
        <time>2013-05-24T10:14:18Z</time>
      </trkpt>
      <trkpt lat="44.37296" lon="6.19446">
        <ele>1492.5842285</ele>
        <time>2013-05-24T10:14:23Z</time>
      </trkpt>
      <trkpt lat="44.37284" lon="6.19384">
        <ele>1491.6228027</ele>
        <time>2013-05-24T10:14:35Z</time>
      </trkpt>
      <trkpt lat="44.37275" lon="6.19331">
        <ele>1491.1420898</ele>
        <time>2013-05-24T10:14:48Z</time>
      </trkpt>
      <trkpt lat="44.37275" lon="6.19326">
        <ele>1490.661377</ele>
        <time>2013-05-24T10:14:50Z</time>
      </trkpt>
      <trkpt lat="44.37273" lon="6.19319">
        <ele>1489.7001953</ele>
        <time>2013-05-24T10:14:54Z</time>
      </trkpt>
      <trkpt lat="44.37273" lon="6.1928">
        <ele>1487.7775879</ele>
        <time>2013-05-24T10:15:10Z</time>
      </trkpt>
      <trkpt lat="44.37277" lon="6.19258">
        <ele>1484.4130859</ele>
        <time>2013-05-24T10:15:18Z</time>
      </trkpt>
      <trkpt lat="44.37277" lon="6.19216">
        <ele>1481.5288086</ele>
        <time>2013-05-24T10:15:32Z</time>
      </trkpt>
      <trkpt lat="44.37263" lon="6.19181">
        <ele>1478.1643066</ele>
        <time>2013-05-24T10:15:43Z</time>
      </trkpt>
      <trkpt lat="44.37262" lon="6.19171">
        <ele>1477.6835938</ele>
        <time>2013-05-24T10:15:45Z</time>
      </trkpt>
      <trkpt lat="44.3728" lon="6.19138">
        <ele>1476.2416992</ele>
        <time>2013-05-24T10:15:57Z</time>
      </trkpt>
      <trkpt lat="44.37289" lon="6.19108">
        <ele>1475.7609863</ele>
        <time>2013-05-24T10:16:05Z</time>
      </trkpt>
      <trkpt lat="44.37288" lon="6.19049">
        <ele>1474.3190918</ele>
        <time>2013-05-24T10:16:18Z</time>
      </trkpt>
      <trkpt lat="44.37275" lon="6.18995">
        <ele>1473.3579102</ele>
        <time>2013-05-24T10:16:38Z</time>
      </trkpt>
      <trkpt lat="44.37264" lon="6.18973">
        <ele>1472.3964844</ele>
        <time>2013-05-24T10:16:46Z</time>
      </trkpt>
      <trkpt lat="44.37278" lon="6.18958">
        <ele>1469.9931641</ele>
        <time>2013-05-24T10:16:56Z</time>
      </trkpt>
      <trkpt lat="44.37286" lon="6.18965">
        <ele>1469.5126953</ele>
        <time>2013-05-24T10:17:00Z</time>
      </trkpt>
      <trkpt lat="44.37292" lon="6.18973">
        <ele>1468.0705566</ele>
        <time>2013-05-24T10:17:03Z</time>
      </trkpt>
      <trkpt lat="44.37307" lon="6.18996">
        <ele>1464.7058105</ele>
        <time>2013-05-24T10:17:11Z</time>
      </trkpt>
      <trkpt lat="44.37308" lon="6.18999">
        <ele>1464.7058105</ele>
        <time>2013-05-24T10:17:12Z</time>
      </trkpt>
      <trkpt lat="44.37322" lon="6.19027">
        <ele>1461.8220215</ele>
        <time>2013-05-24T10:17:21Z</time>
      </trkpt>
      <trkpt lat="44.37334" lon="6.19059">
        <ele>1458.4572754</ele>
        <time>2013-05-24T10:17:30Z</time>
      </trkpt>
      <trkpt lat="44.37341" lon="6.19107">
        <ele>1455.5734863</ele>
        <time>2013-05-24T10:17:42Z</time>
      </trkpt>
      <trkpt lat="44.37343" lon="6.19118">
        <ele>1455.0927734</ele>
        <time>2013-05-24T10:17:44Z</time>
      </trkpt>
      <trkpt lat="44.37353" lon="6.19133">
        <ele>1453.170166</ele>
        <time>2013-05-24T10:17:50Z</time>
      </trkpt>
      <trkpt lat="44.37365" lon="6.19125">
        <ele>1450.7666016</ele>
        <time>2013-05-24T10:17:54Z</time>
      </trkpt>
      <trkpt lat="44.37373" lon="6.19119">
        <ele>1449.8054199</ele>
        <time>2013-05-24T10:17:57Z</time>
      </trkpt>
      <trkpt lat="44.37377" lon="6.19115">
        <ele>1448.8439941</ele>
        <time>2013-05-24T10:17:59Z</time>
      </trkpt>
      <trkpt lat="44.37395" lon="6.19102">
        <ele>1446.440918</ele>
        <time>2013-05-24T10:18:06Z</time>
      </trkpt>
      <trkpt lat="44.37411" lon="6.19092">
        <ele>1444.9987793</ele>
        <time>2013-05-24T10:18:13Z</time>
      </trkpt>
      <trkpt lat="44.37413" lon="6.19089">
        <ele>1444.5180664</ele>
        <time>2013-05-24T10:18:14Z</time>
      </trkpt>
      <trkpt lat="44.37436" lon="6.19054">
        <ele>1442.1149902</ele>
        <time>2013-05-24T10:18:23Z</time>
      </trkpt>
      <trkpt lat="44.37456" lon="6.19037">
        <ele>1441.1535645</ele>
        <time>2013-05-24T10:18:35Z</time>
      </trkpt>
      <trkpt lat="44.37458" lon="6.19034">
        <ele>1441.1535645</ele>
        <time>2013-05-24T10:20:19Z</time>
      </trkpt>
      <trkpt lat="44.37457" lon="6.19011">
        <ele>1438.7504883</ele>
        <time>2013-05-24T10:20:25Z</time>
      </trkpt>
      <trkpt lat="44.37457" lon="6.19">
        <ele>1437.7890625</ele>
        <time>2013-05-24T10:20:28Z</time>
      </trkpt>
      <trkpt lat="44.37458" lon="6.18962">
        <ele>1435.8662109</ele>
        <time>2013-05-24T10:20:39Z</time>
      </trkpt>
      <trkpt lat="44.37459" lon="6.18951">
        <ele>1434.4243164</ele>
        <time>2013-05-24T10:20:41Z</time>
      </trkpt>
      <trkpt lat="44.37462" lon="6.18919">
        <ele>1430.5791016</ele>
        <time>2013-05-24T10:20:47Z</time>
      </trkpt>
      <trkpt lat="44.37462" lon="6.18913">
        <ele>1430.5791016</ele>
        <time>2013-05-24T10:20:48Z</time>
      </trkpt>
      <trkpt lat="44.37465" lon="6.18881">
        <ele>1427.6950684</ele>
        <time>2013-05-24T10:20:54Z</time>
      </trkpt>
      <trkpt lat="44.37465" lon="6.18876">
        <ele>1427.6950684</ele>
        <time>2013-05-24T10:20:55Z</time>
      </trkpt>
      <trkpt lat="44.37464" lon="6.18813">
        <ele>1423.3693848</ele>
        <time>2013-05-24T10:21:10Z</time>
      </trkpt>
      <trkpt lat="44.37464" lon="6.18786">
        <ele>1420.9660645</ele>
        <time>2013-05-24T10:21:15Z</time>
      </trkpt>
      <trkpt lat="44.37462" lon="6.18752">
        <ele>1420.4853516</ele>
        <time>2013-05-24T10:21:26Z</time>
      </trkpt>
      <trkpt lat="44.37462" lon="6.18752">
        <ele>1420.0046387</ele>
        <time>2013-05-24T10:21:43Z</time>
      </trkpt>
      <trkpt lat="44.37462" lon="6.18752">
        <ele>1419.0432129</ele>
        <time>2013-05-24T10:22:58Z</time>
      </trkpt>
      <trkpt lat="44.3746" lon="6.18744">
        <ele>1418.5625</ele>
        <time>2013-05-24T10:26:14Z</time>
      </trkpt>
      <trkpt lat="44.37449" lon="6.18708">
        <ele>1416.1591797</ele>
        <time>2013-05-24T10:26:29Z</time>
      </trkpt>
      <trkpt lat="44.37435" lon="6.18666">
        <ele>1414.7172852</ele>
        <time>2013-05-24T10:26:38Z</time>
      </trkpt>
      <trkpt lat="44.37429" lon="6.18637">
        <ele>1413.7558594</ele>
        <time>2013-05-24T10:26:43Z</time>
      </trkpt>
      <trkpt lat="44.37432" lon="6.18535">
        <ele>1414.2365723</ele>
        <time>2013-05-24T10:27:01Z</time>
      </trkpt>
      <trkpt lat="44.3743" lon="6.18468">
        <ele>1412.7946777</ele>
        <time>2013-05-24T10:27:15Z</time>
      </trkpt>
      <trkpt lat="44.37434" lon="6.18422">
        <ele>1409.4301758</ele>
        <time>2013-05-24T10:27:25Z</time>
      </trkpt>
      <trkpt lat="44.37419" lon="6.1838">
        <ele>1406.5461426</ele>
        <time>2013-05-24T10:27:38Z</time>
      </trkpt>
      <trkpt lat="44.37415" lon="6.18356">
        <ele>1403.6621094</ele>
        <time>2013-05-24T10:27:44Z</time>
      </trkpt>
      <trkpt lat="44.37412" lon="6.18327">
        <ele>1400.2976074</ele>
        <time>2013-05-24T10:27:51Z</time>
      </trkpt>
      <trkpt lat="44.37412" lon="6.18306">
        <ele>1397.8942871</ele>
        <time>2013-05-24T10:27:56Z</time>
      </trkpt>
      <trkpt lat="44.37411" lon="6.18282">
        <ele>1395.0102539</ele>
        <time>2013-05-24T10:28:02Z</time>
      </trkpt>
      <trkpt lat="44.37411" lon="6.18268">
        <ele>1393.5683594</ele>
        <time>2013-05-24T10:28:05Z</time>
      </trkpt>
      <trkpt lat="44.37413" lon="6.18242">
        <ele>1390.6843262</ele>
        <time>2013-05-24T10:28:16Z</time>
      </trkpt>
      <trkpt lat="44.37417" lon="6.18241">
        <ele>1390.2038574</ele>
        <time>2013-05-24T10:28:19Z</time>
      </trkpt>
      <trkpt lat="44.37423" lon="6.18247">
        <ele>1390.2038574</ele>
        <time>2013-05-24T10:28:24Z</time>
      </trkpt>
      <trkpt lat="44.37426" lon="6.18281">
        <ele>1386.8388672</ele>
        <time>2013-05-24T10:28:37Z</time>
      </trkpt>
      <trkpt lat="44.37427" lon="6.18289">
        <ele>1386.3583984</ele>
        <time>2013-05-24T10:28:40Z</time>
      </trkpt>
      <trkpt lat="44.3744" lon="6.18292">
        <ele>1383.4743652</ele>
        <time>2013-05-24T10:28:46Z</time>
      </trkpt>
      <trkpt lat="44.37458" lon="6.18268">
        <ele>1380.5905762</ele>
        <time>2013-05-24T10:28:58Z</time>
      </trkpt>
      <trkpt lat="44.37466" lon="6.18249">
        <ele>1378.6679688</ele>
        <time>2013-05-24T10:29:06Z</time>
      </trkpt>
      <trkpt lat="44.37459" lon="6.18225">
        <ele>1376.2646484</ele>
        <time>2013-05-24T10:29:13Z</time>
      </trkpt>
      <trkpt lat="44.37457" lon="6.18217">
        <ele>1375.3032227</ele>
        <time>2013-05-24T10:29:20Z</time>
      </trkpt>
      <trkpt lat="44.37465" lon="6.18175">
        <ele>1372.4194336</ele>
        <time>2013-05-24T10:29:34Z</time>
      </trkpt>
      <trkpt lat="44.37468" lon="6.1817">
        <ele>1371.9384766</ele>
        <time>2013-05-24T10:29:36Z</time>
      </trkpt>
      <trkpt lat="44.37479" lon="6.18142">
        <ele>1368.0932617</ele>
        <time>2013-05-24T10:29:44Z</time>
      </trkpt>
      <trkpt lat="44.3748" lon="6.18137">
        <ele>1368.0932617</ele>
        <time>2013-05-24T10:29:45Z</time>
      </trkpt>
      <trkpt lat="44.37495" lon="6.18095">
        <ele>1365.2094727</ele>
        <time>2013-05-24T10:29:56Z</time>
      </trkpt>
      <trkpt lat="44.37511" lon="6.18044">
        <ele>1361.8449707</ele>
        <time>2013-05-24T10:30:10Z</time>
      </trkpt>
      <trkpt lat="44.37511" lon="6.17973">
        <ele>1359.9221191</ele>
        <time>2013-05-24T10:30:27Z</time>
      </trkpt>
      <trkpt lat="44.37484" lon="6.17895">
        <ele>1357.9997559</ele>
        <time>2013-05-24T10:30:47Z</time>
      </trkpt>
      <trkpt lat="44.37461" lon="6.17838">
        <ele>1355.1154785</ele>
        <time>2013-05-24T10:31:04Z</time>
      </trkpt>
      <trkpt lat="44.37422" lon="6.17823">
        <ele>1354.6347656</ele>
        <time>2013-05-24T10:31:17Z</time>
      </trkpt>
      <trkpt lat="44.37385" lon="6.17804">
        <ele>1352.2314453</ele>
        <time>2013-05-24T10:31:31Z</time>
      </trkpt>
      <trkpt lat="44.3737" lon="6.17789">
        <ele>1351.2702637</ele>
        <time>2013-05-24T10:31:43Z</time>
      </trkpt>
      <trkpt lat="44.3735" lon="6.17771">
        <ele>1349.8283691</ele>
        <time>2013-05-24T10:32:07Z</time>
      </trkpt>
      <trkpt lat="44.37306" lon="6.17745">
        <ele>1348.3862305</ele>
        <time>2013-05-24T10:32:22Z</time>
      </trkpt>
      <trkpt lat="44.37301" lon="6.1774">
        <ele>1349.3476563</ele>
        <time>2013-05-24T10:32:26Z</time>
      </trkpt>
      <trkpt lat="44.37298" lon="6.17737">
        <ele>1349.8283691</ele>
        <time>2013-05-24T10:32:36Z</time>
      </trkpt>
      <trkpt lat="44.37298" lon="6.17737">
        <ele>1351.2702637</ele>
        <time>2013-05-24T10:32:52Z</time>
      </trkpt>
      <trkpt lat="44.37298" lon="6.17737">
        <ele>1353.673584</ele>
        <time>2013-05-24T10:33:08Z</time>
      </trkpt>
      <trkpt lat="44.37298" lon="6.17737">
        <ele>1357.0383301</ele>
        <time>2013-05-24T10:33:28Z</time>
      </trkpt>
      <trkpt lat="44.37298" lon="6.17737">
        <ele>1359.9221191</ele>
        <time>2013-05-24T10:33:52Z</time>
      </trkpt>
      <trkpt lat="44.37298" lon="6.17737">
        <ele>1362.8061523</ele>
        <time>2013-05-24T10:34:08Z</time>
      </trkpt>
      <trkpt lat="44.37298" lon="6.17737">
        <ele>1366.1706543</ele>
        <time>2013-05-24T10:34:29Z</time>
      </trkpt>
      <trkpt lat="44.37204" lon="6.17706">
        <ele>1368.0932617</ele>
        <time>2013-05-24T10:34:50Z</time>
      </trkpt>
      <trkpt lat="44.37202" lon="6.1769">
        <ele>1369.0546875</ele>
        <time>2013-05-24T10:35:09Z</time>
      </trkpt>
      <trkpt lat="44.37202" lon="6.17688">
        <ele>1370.0158691</ele>
        <time>2013-05-24T10:35:14Z</time>
      </trkpt>
      <trkpt lat="44.37201" lon="6.17682">
        <ele>1370.0158691</ele>
        <time>2013-05-24T10:35:18Z</time>
      </trkpt>
      <trkpt lat="44.37189" lon="6.17652">
        <ele>1371.9384766</ele>
        <time>2013-05-24T10:35:36Z</time>
      </trkpt>
      <trkpt lat="44.37167" lon="6.1762">
        <ele>1371.4577637</ele>
        <time>2013-05-24T10:35:55Z</time>
      </trkpt>
      <trkpt lat="44.37152" lon="6.1759">
        <ele>1373.8613281</ele>
        <time>2013-05-24T10:36:11Z</time>
      </trkpt>
      <trkpt lat="44.37157" lon="6.17561">
        <ele>1375.3032227</ele>
        <time>2013-05-24T10:36:26Z</time>
      </trkpt>
      <trkpt lat="44.3717" lon="6.17528">
        <ele>1372.4194336</ele>
        <time>2013-05-24T10:36:43Z</time>
      </trkpt>
      <trkpt lat="44.37171" lon="6.17523">
        <ele>1372.4194336</ele>
        <time>2013-05-24T10:36:46Z</time>
      </trkpt>
      <trkpt lat="44.37171" lon="6.17512">
        <ele>1370.9772949</ele>
        <time>2013-05-24T10:36:51Z</time>
      </trkpt>
      <trkpt lat="44.37163" lon="6.175">
        <ele>1369.0546875</ele>
        <time>2013-05-24T10:37:06Z</time>
      </trkpt>
      <trkpt lat="44.37157" lon="6.17499">
        <ele>1368.0932617</ele>
        <time>2013-05-24T10:37:23Z</time>
      </trkpt>
      <trkpt lat="44.37157" lon="6.17499">
        <ele>1368.0932617</ele>
        <time>2013-05-24T10:37:32Z</time>
      </trkpt>
      <trkpt lat="44.3715" lon="6.17496">
        <ele>1367.6125488</ele>
        <time>2013-05-24T10:37:36Z</time>
      </trkpt>
      <trkpt lat="44.37126" lon="6.17484">
        <ele>1364.2480469</ele>
        <time>2013-05-24T10:37:52Z</time>
      </trkpt>
      <trkpt lat="44.37112" lon="6.17471">
        <ele>1360.402832</ele>
        <time>2013-05-24T10:38:06Z</time>
      </trkpt>
      <trkpt lat="44.37108" lon="6.17466">
        <ele>1359.4416504</ele>
        <time>2013-05-24T10:38:10Z</time>
      </trkpt>
      <trkpt lat="44.37098" lon="6.1745">
        <ele>1355.5961914</ele>
        <time>2013-05-24T10:38:22Z</time>
      </trkpt>
      <trkpt lat="44.37097" lon="6.17445">
        <ele>1355.1154785</ele>
        <time>2013-05-24T10:38:25Z</time>
      </trkpt>
      <trkpt lat="44.37088" lon="6.17439">
        <ele>1352.2314453</ele>
        <time>2013-05-24T10:38:39Z</time>
      </trkpt>
      <trkpt lat="44.37085" lon="6.17436">
        <ele>1352.2314453</ele>
        <time>2013-05-24T10:38:42Z</time>
      </trkpt>
      <trkpt lat="44.37077" lon="6.17425">
        <ele>1349.8283691</ele>
        <time>2013-05-24T10:38:51Z</time>
      </trkpt>
      <trkpt lat="44.37063" lon="6.17404">
        <ele>1347.4250488</ele>
        <time>2013-05-24T10:39:05Z</time>
      </trkpt>
      <trkpt lat="44.3706" lon="6.174">
        <ele>1345.9831543</ele>
        <time>2013-05-24T10:39:08Z</time>
      </trkpt>
      <trkpt lat="44.37053" lon="6.17392">
        <ele>1345.0217285</ele>
        <time>2013-05-24T10:39:13Z</time>
      </trkpt>
      <trkpt lat="44.3704" lon="6.17381">
        <ele>1344.0605469</ele>
        <time>2013-05-24T10:39:25Z</time>
      </trkpt>
      <trkpt lat="44.3704" lon="6.17383">
        <ele>1344.0605469</ele>
        <time>2013-05-24T10:39:29Z</time>
      </trkpt>
      <trkpt lat="44.37033" lon="6.17403">
        <ele>1341.6572266</ele>
        <time>2013-05-24T10:39:44Z</time>
      </trkpt>
      <trkpt lat="44.37026" lon="6.17403">
        <ele>1341.1765137</ele>
        <time>2013-05-24T10:40:03Z</time>
      </trkpt>
      <trkpt lat="44.37018" lon="6.17403">
        <ele>1337.8117676</ele>
        <time>2013-05-24T10:40:18Z</time>
      </trkpt>
      <trkpt lat="44.37011" lon="6.17399">
        <ele>1334.9279785</ele>
        <time>2013-05-24T10:40:33Z</time>
      </trkpt>
      <trkpt lat="44.37008" lon="6.17397">
        <ele>1334.9279785</ele>
        <time>2013-05-24T10:40:38Z</time>
      </trkpt>
      <trkpt lat="44.37001" lon="6.17396">
        <ele>1332.5246582</ele>
        <time>2013-05-24T10:40:55Z</time>
      </trkpt>
      <trkpt lat="44.36998" lon="6.17391">
        <ele>1332.0439453</ele>
        <time>2013-05-24T10:41:10Z</time>
      </trkpt>
      <trkpt lat="44.36995" lon="6.17387">
        <ele>1330.6020508</ele>
        <time>2013-05-24T10:41:22Z</time>
      </trkpt>
      <trkpt lat="44.36975" lon="6.17367">
        <ele>1328.6794434</ele>
        <time>2013-05-24T10:41:37Z</time>
      </trkpt>
      <trkpt lat="44.36966" lon="6.17357">
        <ele>1329.1599121</ele>
        <time>2013-05-24T10:41:51Z</time>
      </trkpt>
      <trkpt lat="44.36958" lon="6.17351">
        <ele>1327.2375488</ele>
        <time>2013-05-24T10:42:07Z</time>
      </trkpt>
      <trkpt lat="44.3695" lon="6.17355">
        <ele>1325.3146973</ele>
        <time>2013-05-24T10:42:23Z</time>
      </trkpt>
      <trkpt lat="44.36938" lon="6.17345">
        <ele>1323.3920898</ele>
        <time>2013-05-24T10:42:39Z</time>
      </trkpt>
      <trkpt lat="44.36919" lon="6.17326">
        <ele>1320.9887695</ele>
        <time>2013-05-24T10:42:52Z</time>
      </trkpt>
      <trkpt lat="44.36918" lon="6.17325">
        <ele>1320.9887695</ele>
        <time>2013-05-24T10:42:53Z</time>
      </trkpt>
      <trkpt lat="44.36899" lon="6.17315">
        <ele>1317.6240234</ele>
        <time>2013-05-24T10:43:07Z</time>
      </trkpt>
      <trkpt lat="44.36899" lon="6.17314">
        <ele>1318.1047363</ele>
        <time>2013-05-24T10:43:23Z</time>
      </trkpt>
      <trkpt lat="44.3689" lon="6.17316">
        <ele>1314.7402344</ele>
        <time>2013-05-24T10:43:40Z</time>
      </trkpt>
      <trkpt lat="44.36882" lon="6.17312">
        <ele>1311.3757324</ele>
        <time>2013-05-24T10:44:01Z</time>
      </trkpt>
      <trkpt lat="44.36877" lon="6.17306">
        <ele>1308.4916992</ele>
        <time>2013-05-24T10:44:15Z</time>
      </trkpt>
      <trkpt lat="44.36866" lon="6.17303">
        <ele>1306.0881348</ele>
        <time>2013-05-24T10:44:37Z</time>
      </trkpt>
      <trkpt lat="44.3686" lon="6.173">
        <ele>1305.607666</ele>
        <time>2013-05-24T10:44:55Z</time>
      </trkpt>
      <trkpt lat="44.36856" lon="6.17297">
        <ele>1302.2429199</ele>
        <time>2013-05-24T10:45:05Z</time>
      </trkpt>
      <trkpt lat="44.36855" lon="6.17297">
        <ele>1301.2817383</ele>
        <time>2013-05-24T10:45:14Z</time>
      </trkpt>
      <trkpt lat="44.36852" lon="6.17298">
        <ele>1301.2817383</ele>
        <time>2013-05-24T10:45:24Z</time>
      </trkpt>
      <trkpt lat="44.36852" lon="6.17293">
        <ele>1300.8010254</ele>
        <time>2013-05-24T10:45:45Z</time>
      </trkpt>
      <trkpt lat="44.36848" lon="6.17289">
        <ele>1297.9172363</ele>
        <time>2013-05-24T10:45:59Z</time>
      </trkpt>
      <trkpt lat="44.36846" lon="6.17283">
        <ele>1295.9946289</ele>
        <time>2013-05-24T10:46:19Z</time>
      </trkpt>
      <trkpt lat="44.36845" lon="6.1728">
        <ele>1294.5524902</ele>
        <time>2013-05-24T10:46:38Z</time>
      </trkpt>
      <trkpt lat="44.36843" lon="6.1728">
        <ele>1295.0332031</ele>
        <time>2013-05-24T10:46:56Z</time>
      </trkpt>
      <trkpt lat="44.36837" lon="6.17281">
        <ele>1291.1877441</ele>
        <time>2013-05-24T10:47:15Z</time>
      </trkpt>
      <trkpt lat="44.36836" lon="6.17281">
        <ele>1291.1877441</ele>
        <time>2013-05-24T10:47:16Z</time>
      </trkpt>
      <trkpt lat="44.3683" lon="6.17285">
        <ele>1288.3039551</ele>
        <time>2013-05-24T10:47:31Z</time>
      </trkpt>
      <trkpt lat="44.3682" lon="6.17288">
        <ele>1284.9394531</ele>
        <time>2013-05-24T10:47:50Z</time>
      </trkpt>
      <trkpt lat="44.36815" lon="6.17293">
        <ele>1281.574707</ele>
        <time>2013-05-24T10:48:02Z</time>
      </trkpt>
      <trkpt lat="44.36815" lon="6.17294">
        <ele>1281.574707</ele>
        <time>2013-05-24T10:48:03Z</time>
      </trkpt>
      <trkpt lat="44.36804" lon="6.17297">
        <ele>1277.7294922</ele>
        <time>2013-05-24T10:48:15Z</time>
      </trkpt>
      <trkpt lat="44.36799" lon="6.173">
        <ele>1276.7683105</ele>
        <time>2013-05-24T10:48:23Z</time>
      </trkpt>
      <trkpt lat="44.36793" lon="6.17304">
        <ele>1275.8066406</ele>
        <time>2013-05-24T10:48:34Z</time>
      </trkpt>
      <trkpt lat="44.36774" lon="6.17309">
        <ele>1273.8840332</ele>
        <time>2013-05-24T10:48:55Z</time>
      </trkpt>
      <trkpt lat="44.36759" lon="6.17314">
        <ele>1271.9614258</ele>
        <time>2013-05-24T10:49:15Z</time>
      </trkpt>
      <trkpt lat="44.36747" lon="6.17315">
        <ele>1268.5969238</ele>
        <time>2013-05-24T10:49:36Z</time>
      </trkpt>
      <trkpt lat="44.36741" lon="6.17319">
        <ele>1264.751709</ele>
        <time>2013-05-24T10:49:55Z</time>
      </trkpt>
      <trkpt lat="44.36731" lon="6.17316">
        <ele>1263.3098145</ele>
        <time>2013-05-24T10:50:13Z</time>
      </trkpt>
      <trkpt lat="44.36724" lon="6.17318">
        <ele>1260.4257813</ele>
        <time>2013-05-24T10:50:27Z</time>
      </trkpt>
      <trkpt lat="44.36721" lon="6.17312">
        <ele>1257.0610352</ele>
        <time>2013-05-24T10:50:44Z</time>
      </trkpt>
      <trkpt lat="44.36712" lon="6.17318">
        <ele>1254.1772461</ele>
        <time>2013-05-24T10:51:04Z</time>
      </trkpt>
      <trkpt lat="44.36701" lon="6.17322">
        <ele>1251.2932129</ele>
        <time>2013-05-24T10:51:25Z</time>
      </trkpt>
      <trkpt lat="44.36699" lon="6.17322">
        <ele>1249.8513184</ele>
        <time>2013-05-24T10:51:29Z</time>
      </trkpt>
      <trkpt lat="44.36696" lon="6.17319">
        <ele>1246.0061035</ele>
        <time>2013-05-24T10:51:35Z</time>
      </trkpt>
      <trkpt lat="44.36696" lon="6.17318">
        <ele>1246.0061035</ele>
        <time>2013-05-24T10:51:36Z</time>
      </trkpt>
      <trkpt lat="44.36686" lon="6.17319">
        <ele>1244.5639648</ele>
        <time>2013-05-24T10:51:56Z</time>
      </trkpt>
      <trkpt lat="44.36675" lon="6.17313">
        <ele>1240.7185059</ele>
        <time>2013-05-24T10:52:19Z</time>
      </trkpt>
      <trkpt lat="44.36668" lon="6.17307">
        <ele>1238.3154297</ele>
        <time>2013-05-24T10:52:42Z</time>
      </trkpt>
      <trkpt lat="44.36663" lon="6.17308">
        <ele>1237.3540039</ele>
        <time>2013-05-24T10:52:59Z</time>
      </trkpt>
      <trkpt lat="44.36661" lon="6.17311">
        <ele>1235.4313965</ele>
        <time>2013-05-24T10:53:11Z</time>
      </trkpt>
      <trkpt lat="44.36656" lon="6.17312">
        <ele>1233.989502</ele>
        <time>2013-05-24T10:53:29Z</time>
      </trkpt>
      <trkpt lat="44.36651" lon="6.17311">
        <ele>1231.5861816</ele>
        <time>2013-05-24T10:53:49Z</time>
      </trkpt>
      <trkpt lat="44.36647" lon="6.17315">
        <ele>1230.1442871</ele>
        <time>2013-05-24T10:54:08Z</time>
      </trkpt>
      <trkpt lat="44.36642" lon="6.17315">
        <ele>1226.779541</ele>
        <time>2013-05-24T10:54:24Z</time>
      </trkpt>
      <trkpt lat="44.36642" lon="6.17316">
        <ele>1226.779541</ele>
        <time>2013-05-24T10:54:25Z</time>
      </trkpt>
      <trkpt lat="44.36637" lon="6.17316">
        <ele>1224.8569336</ele>
        <time>2013-05-24T10:54:42Z</time>
      </trkpt>
      <trkpt lat="44.36633" lon="6.17306">
        <ele>1221.4921875</ele>
        <time>2013-05-24T10:55:00Z</time>
      </trkpt>
      <trkpt lat="44.36632" lon="6.17303">
        <ele>1220.5310059</ele>
        <time>2013-05-24T10:55:02Z</time>
      </trkpt>
      <trkpt lat="44.36629" lon="6.17296">
        <ele>1217.6469727</ele>
        <time>2013-05-24T10:55:18Z</time>
      </trkpt>
      <trkpt lat="44.3662" lon="6.17288">
        <ele>1215.7246094</ele>
        <time>2013-05-24T10:55:38Z</time>
      </trkpt>
      <trkpt lat="44.36615" lon="6.17278">
        <ele>1214.2824707</ele>
        <time>2013-05-24T10:55:57Z</time>
      </trkpt>
      <trkpt lat="44.36611" lon="6.17275">
        <ele>1210.4370117</ele>
        <time>2013-05-24T10:56:19Z</time>
      </trkpt>
      <trkpt lat="44.36604" lon="6.17281">
        <ele>1208.5144043</ele>
        <time>2013-05-24T10:56:36Z</time>
      </trkpt>
      <trkpt lat="44.366" lon="6.17285">
        <ele>1205.6306152</ele>
        <time>2013-05-24T10:56:50Z</time>
      </trkpt>
      <trkpt lat="44.36599" lon="6.17285">
        <ele>1205.6306152</ele>
        <time>2013-05-24T10:56:51Z</time>
      </trkpt>
      <trkpt lat="44.36593" lon="6.17288">
        <ele>1203.7080078</ele>
        <time>2013-05-24T10:57:11Z</time>
      </trkpt>
      <trkpt lat="44.36592" lon="6.17287">
        <ele>1202.746582</ele>
        <time>2013-05-24T10:57:14Z</time>
      </trkpt>
      <trkpt lat="44.36588" lon="6.17275">
        <ele>1198.9013672</ele>
        <time>2013-05-24T10:57:34Z</time>
      </trkpt>
      <trkpt lat="44.36582" lon="6.17271">
        <ele>1196.498291</ele>
        <time>2013-05-24T10:57:58Z</time>
      </trkpt>
      <trkpt lat="44.36579" lon="6.17267">
        <ele>1193.6140137</ele>
        <time>2013-05-24T10:58:05Z</time>
      </trkpt>
      <trkpt lat="44.36577" lon="6.17258">
        <ele>1191.2106934</ele>
        <time>2013-05-24T10:58:16Z</time>
      </trkpt>
      <trkpt lat="44.36575" lon="6.17249">
        <ele>1190.2495117</ele>
        <time>2013-05-24T10:58:25Z</time>
      </trkpt>
      <trkpt lat="44.36571" lon="6.17246">
        <ele>1191.2106934</ele>
        <time>2013-05-24T10:58:32Z</time>
      </trkpt>
      <trkpt lat="44.36569" lon="6.17246">
        <ele>1188.8076172</ele>
        <time>2013-05-24T10:58:35Z</time>
      </trkpt>
      <trkpt lat="44.36568" lon="6.17246">
        <ele>1190.2495117</ele>
        <time>2013-05-24T10:58:37Z</time>
      </trkpt>
      <trkpt lat="44.36566" lon="6.17246">
        <ele>1189.2880859</ele>
        <time>2013-05-24T10:58:39Z</time>
      </trkpt>
      <trkpt lat="44.36561" lon="6.17243">
        <ele>1185.4428711</ele>
        <time>2013-05-24T10:58:48Z</time>
      </trkpt>
      <trkpt lat="44.3656" lon="6.17242">
        <ele>1185.4428711</ele>
        <time>2013-05-24T10:58:49Z</time>
      </trkpt>
      <trkpt lat="44.36556" lon="6.17241">
        <ele>1184.9624023</ele>
        <time>2013-05-24T10:58:59Z</time>
      </trkpt>
      <trkpt lat="44.36549" lon="6.17246">
        <ele>1183.0395508</ele>
        <time>2013-05-24T10:59:03Z</time>
      </trkpt>
      <trkpt lat="44.36544" lon="6.17254">
        <ele>1180.6364746</ele>
        <time>2013-05-24T10:59:07Z</time>
      </trkpt>
      <trkpt lat="44.36542" lon="6.1726">
        <ele>1179.1940918</ele>
        <time>2013-05-24T10:59:09Z</time>
      </trkpt>
      <trkpt lat="44.36538" lon="6.17267">
        <ele>1177.2717285</ele>
        <time>2013-05-24T10:59:12Z</time>
      </trkpt>
      <trkpt lat="44.36528" lon="6.17271">
        <ele>1173.9069824</ele>
        <time>2013-05-24T10:59:17Z</time>
      </trkpt>
      <trkpt lat="44.36524" lon="6.17269">
        <ele>1172.9458008</ele>
        <time>2013-05-24T10:59:19Z</time>
      </trkpt>
      <trkpt lat="44.36518" lon="6.17266">
        <ele>1171.5036621</ele>
        <time>2013-05-24T10:59:21Z</time>
      </trkpt>
      <trkpt lat="44.36506" lon="6.17261">
        <ele>1169.5812988</ele>
        <time>2013-05-24T10:59:26Z</time>
      </trkpt>
      <trkpt lat="44.36497" lon="6.17263">
        <ele>1168.619873</ele>
        <time>2013-05-24T10:59:35Z</time>
      </trkpt>
      <trkpt lat="44.36496" lon="6.17262">
        <ele>1169.1005859</ele>
        <time>2013-05-24T11:00:57Z</time>
      </trkpt>
      <trkpt lat="44.36495" lon="6.17263">
        <ele>1169.1005859</ele>
        <time>2013-05-24T11:01:46Z</time>
      </trkpt>
      <trkpt lat="44.36492" lon="6.17264">
        <ele>1169.1005859</ele>
        <time>2013-05-24T11:01:55Z</time>
      </trkpt>
      <trkpt lat="44.36486" lon="6.17274">
        <ele>1168.1391602</ele>
        <time>2013-05-24T11:02:00Z</time>
      </trkpt>
      <trkpt lat="44.36483" lon="6.17285">
        <ele>1168.619873</ele>
        <time>2013-05-24T11:02:04Z</time>
      </trkpt>
      <trkpt lat="44.36476" lon="6.17289">
        <ele>1168.619873</ele>
        <time>2013-05-24T11:02:08Z</time>
      </trkpt>
      <trkpt lat="44.36459" lon="6.17264">
        <ele>1166.6972656</ele>
        <time>2013-05-24T11:02:19Z</time>
      </trkpt>
      <trkpt lat="44.36465" lon="6.17251">
        <ele>1164.7746582</ele>
        <time>2013-05-24T11:02:22Z</time>
      </trkpt>
      <trkpt lat="44.36474" lon="6.17248">
        <ele>1164.2939453</ele>
        <time>2013-05-24T11:02:24Z</time>
      </trkpt>
      <trkpt lat="44.36475" lon="6.17247">
        <ele>1161.890625</ele>
        <time>2013-05-24T11:02:27Z</time>
      </trkpt>
      <trkpt lat="44.36511" lon="6.17221">
        <ele>1160.4484863</ele>
        <time>2013-05-24T11:02:32Z</time>
      </trkpt>
      <trkpt lat="44.36524" lon="6.17207">
        <ele>1158.5258789</ele>
        <time>2013-05-24T11:02:35Z</time>
      </trkpt>
      <trkpt lat="44.36528" lon="6.17202">
        <ele>1158.5258789</ele>
        <time>2013-05-24T11:02:36Z</time>
      </trkpt>
      <trkpt lat="44.36537" lon="6.17193">
        <ele>1156.6032715</ele>
        <time>2013-05-24T11:02:38Z</time>
      </trkpt>
      <trkpt lat="44.36557" lon="6.17182">
        <ele>1155.161377</ele>
        <time>2013-05-24T11:02:42Z</time>
      </trkpt>
      <trkpt lat="44.3661" lon="6.17172">
        <ele>1153.7194824</ele>
        <time>2013-05-24T11:02:54Z</time>
      </trkpt>
      <trkpt lat="44.36637" lon="6.17157">
        <ele>1153.2387695</ele>
        <time>2013-05-24T11:03:03Z</time>
      </trkpt>
      <trkpt lat="44.36648" lon="6.17151">
        <ele>1151.3161621</ele>
        <time>2013-05-24T11:03:06Z</time>
      </trkpt>
      <trkpt lat="44.36688" lon="6.17121">
        <ele>1153.2387695</ele>
        <time>2013-05-24T11:03:19Z</time>
      </trkpt>
      <trkpt lat="44.36731" lon="6.17069">
        <ele>1154.2001953</ele>
        <time>2013-05-24T11:03:39Z</time>
      </trkpt>
      <trkpt lat="44.36771" lon="6.17017">
        <ele>1155.161377</ele>
        <time>2013-05-24T11:03:56Z</time>
      </trkpt>
      <trkpt lat="44.36823" lon="6.16954">
        <ele>1155.6420898</ele>
        <time>2013-05-24T11:04:18Z</time>
      </trkpt>
      <trkpt lat="44.3687" lon="6.169">
        <ele>1152.2773438</ele>
        <time>2013-05-24T11:04:34Z</time>
      </trkpt>
      <trkpt lat="44.36875" lon="6.16896">
        <ele>1152.2773438</ele>
        <time>2013-05-24T11:04:35Z</time>
      </trkpt>
      <trkpt lat="44.3689" lon="6.16874">
        <ele>1151.796875</ele>
        <time>2013-05-24T11:04:39Z</time>
      </trkpt>
      <trkpt lat="44.36929" lon="6.16831">
        <ele>1154.2001953</ele>
        <time>2013-05-24T11:04:53Z</time>
      </trkpt>
      <trkpt lat="44.36954" lon="6.168">
        <ele>1154.6806641</ele>
        <time>2013-05-24T11:05:08Z</time>
      </trkpt>
      <trkpt lat="44.36972" lon="6.16787">
        <ele>1156.6032715</ele>
        <time>2013-05-24T11:05:18Z</time>
      </trkpt>
      <trkpt lat="44.37002" lon="6.16771">
        <ele>1158.5258789</ele>
        <time>2013-05-24T11:05:36Z</time>
      </trkpt>
      <trkpt lat="44.37031" lon="6.16757">
        <ele>1159.4873047</ele>
        <time>2013-05-24T11:05:53Z</time>
      </trkpt>
      <trkpt lat="44.37036" lon="6.16754">
        <ele>1160.9291992</ele>
        <time>2013-05-24T11:05:56Z</time>
      </trkpt>
      <trkpt lat="44.3704" lon="6.16752">
        <ele>1159.9677734</ele>
        <time>2013-05-24T11:05:59Z</time>
      </trkpt>
      <trkpt lat="44.3707" lon="6.16736">
        <ele>1163.3325195</ele>
        <time>2013-05-24T11:06:19Z</time>
      </trkpt>
      <trkpt lat="44.37095" lon="6.16739">
        <ele>1166.2165527</ele>
        <time>2013-05-24T11:06:36Z</time>
      </trkpt>
      <trkpt lat="44.37113" lon="6.16739">
        <ele>1166.6972656</ele>
        <time>2013-05-24T11:06:45Z</time>
      </trkpt>
      <trkpt lat="44.3712" lon="6.16707">
        <ele>1168.1391602</ele>
        <time>2013-05-24T11:06:58Z</time>
      </trkpt>
      <trkpt lat="44.3712" lon="6.16699">
        <ele>1168.619873</ele>
        <time>2013-05-24T11:07:01Z</time>
      </trkpt>
      <trkpt lat="44.37118" lon="6.1669">
        <ele>1168.619873</ele>
        <time>2013-05-24T11:07:05Z</time>
      </trkpt>
      <trkpt lat="44.37116" lon="6.16675">
        <ele>1170.5424805</ele>
        <time>2013-05-24T11:07:11Z</time>
      </trkpt>
      <trkpt lat="44.37118" lon="6.16628">
        <ele>1171.5036621</ele>
        <time>2013-05-24T11:07:30Z</time>
      </trkpt>
      <trkpt lat="44.37142" lon="6.16602">
        <ele>1173.9069824</ele>
        <time>2013-05-24T11:07:48Z</time>
      </trkpt>
      <trkpt lat="44.37178" lon="6.16576">
        <ele>1175.348877</ele>
        <time>2013-05-24T11:08:08Z</time>
      </trkpt>
      <trkpt lat="44.37215" lon="6.16547">
        <ele>1176.3103027</ele>
        <time>2013-05-24T11:08:30Z</time>
      </trkpt>
      <trkpt lat="44.37246" lon="6.16515">
        <ele>1177.2717285</ele>
        <time>2013-05-24T11:08:49Z</time>
      </trkpt>
      <trkpt lat="44.37283" lon="6.16493">
        <ele>1178.713623</ele>
        <time>2013-05-24T11:09:10Z</time>
      </trkpt>
      <trkpt lat="44.37313" lon="6.16481">
        <ele>1179.1940918</ele>
        <time>2013-05-24T11:09:27Z</time>
      </trkpt>
      <trkpt lat="44.37361" lon="6.16462">
        <ele>1178.713623</ele>
        <time>2013-05-24T11:09:46Z</time>
      </trkpt>
      <trkpt lat="44.37374" lon="6.16456">
        <ele>1180.6364746</ele>
        <time>2013-05-24T11:09:51Z</time>
      </trkpt>
      <trkpt lat="44.37405" lon="6.16441">
        <ele>1180.6364746</ele>
        <time>2013-05-24T11:10:05Z</time>
      </trkpt>
      <trkpt lat="44.37412" lon="6.16438">
        <ele>1181.1171875</ele>
        <time>2013-05-24T11:10:09Z</time>
      </trkpt>
      <trkpt lat="44.37446" lon="6.16425">
        <ele>1181.1171875</ele>
        <time>2013-05-24T11:10:26Z</time>
      </trkpt>
      <trkpt lat="44.37497" lon="6.16404">
        <ele>1184.0009766</ele>
        <time>2013-05-24T11:10:46Z</time>
      </trkpt>
      <trkpt lat="44.37522" lon="6.1639">
        <ele>1181.1171875</ele>
        <time>2013-05-24T11:10:53Z</time>
      </trkpt>
      <trkpt lat="44.37558" lon="6.1637">
        <ele>1176.3103027</ele>
        <time>2013-05-24T11:11:01Z</time>
      </trkpt>
      <trkpt lat="44.37589" lon="6.1635">
        <ele>1175.8295898</ele>
        <time>2013-05-24T11:11:07Z</time>
      </trkpt>
      <trkpt lat="44.37597" lon="6.16344">
        <ele>1174.8684082</ele>
        <time>2013-05-24T11:11:09Z</time>
      </trkpt>
      <trkpt lat="44.37612" lon="6.16335">
        <ele>1173.4265137</ele>
        <time>2013-05-24T11:11:12Z</time>
      </trkpt>
      <trkpt lat="44.37622" lon="6.1633">
        <ele>1172.4650879</ele>
        <time>2013-05-24T11:11:14Z</time>
      </trkpt>
      <trkpt lat="44.37633" lon="6.16327">
        <ele>1171.0231934</ele>
        <time>2013-05-24T11:11:16Z</time>
      </trkpt>
      <trkpt lat="44.37678" lon="6.1631">
        <ele>1168.619873</ele>
        <time>2013-05-24T11:11:24Z</time>
      </trkpt>
      <trkpt lat="44.37704" lon="6.16309">
        <ele>1166.6972656</ele>
        <time>2013-05-24T11:11:28Z</time>
      </trkpt>
      <trkpt lat="44.37745" lon="6.16316">
        <ele>1165.736084</ele>
        <time>2013-05-24T11:11:34Z</time>
      </trkpt>
      <trkpt lat="44.37766" lon="6.16315">
        <ele>1163.8129883</ele>
        <time>2013-05-24T11:11:37Z</time>
      </trkpt>
      <trkpt lat="44.37789" lon="6.16313">
        <ele>1161.890625</ele>
        <time>2013-05-24T11:11:40Z</time>
      </trkpt>
      <trkpt lat="44.37814" lon="6.16311">
        <ele>1157.5646973</ele>
        <time>2013-05-24T11:11:43Z</time>
      </trkpt>
      <trkpt lat="44.37823" lon="6.1631">
        <ele>1157.5646973</ele>
        <time>2013-05-24T11:11:44Z</time>
      </trkpt>
      <trkpt lat="44.3785" lon="6.16308">
        <ele>1156.1225586</ele>
        <time>2013-05-24T11:11:47Z</time>
      </trkpt>
      <trkpt lat="44.37868" lon="6.16307">
        <ele>1154.6806641</ele>
        <time>2013-05-24T11:11:49Z</time>
      </trkpt>
      <trkpt lat="44.37886" lon="6.16305">
        <ele>1152.2773438</ele>
        <time>2013-05-24T11:11:51Z</time>
      </trkpt>
      <trkpt lat="44.3791" lon="6.16308">
        <ele>1150.8354492</ele>
        <time>2013-05-24T11:11:54Z</time>
      </trkpt>
      <trkpt lat="44.37917" lon="6.16309">
        <ele>1151.3161621</ele>
        <time>2013-05-24T11:11:55Z</time>
      </trkpt>
      <trkpt lat="44.37943" lon="6.16301">
        <ele>1149.8742676</ele>
        <time>2013-05-24T11:11:59Z</time>
      </trkpt>
      <trkpt lat="44.37959" lon="6.16285">
        <ele>1147.951416</ele>
        <time>2013-05-24T11:12:02Z</time>
      </trkpt>
      <trkpt lat="44.37976" lon="6.16275">
        <ele>1146.5095215</ele>
        <time>2013-05-24T11:12:05Z</time>
      </trkpt>
      <trkpt lat="44.37981" lon="6.16273">
        <ele>1145.0673828</ele>
        <time>2013-05-24T11:12:06Z</time>
      </trkpt>
      <trkpt lat="44.37997" lon="6.16301">
        <ele>1142.6643066</ele>
        <time>2013-05-24T11:12:13Z</time>
      </trkpt>
      <trkpt lat="44.37988" lon="6.16314">
        <ele>1141.222168</ele>
        <time>2013-05-24T11:12:15Z</time>
      </trkpt>
      <trkpt lat="44.37985" lon="6.16332">
        <ele>1140.2609863</ele>
        <time>2013-05-24T11:12:17Z</time>
      </trkpt>
      <trkpt lat="44.37988" lon="6.16347">
        <ele>1139.2995605</ele>
        <time>2013-05-24T11:12:19Z</time>
      </trkpt>
      <trkpt lat="44.38007" lon="6.16381">
        <ele>1136.8962402</ele>
        <time>2013-05-24T11:12:24Z</time>
      </trkpt>
      <trkpt lat="44.38044" lon="6.16417">
        <ele>1135.9350586</ele>
        <time>2013-05-24T11:12:30Z</time>
      </trkpt>
      <trkpt lat="44.38126" lon="6.16453">
        <ele>1133.5317383</ele>
        <time>2013-05-24T11:12:42Z</time>
      </trkpt>
      <trkpt lat="44.38157" lon="6.16449">
        <ele>1131.128418</ele>
        <time>2013-05-24T11:12:47Z</time>
      </trkpt>
      <trkpt lat="44.38166" lon="6.16437">
        <ele>1130.6477051</ele>
        <time>2013-05-24T11:12:49Z</time>
      </trkpt>
      <trkpt lat="44.38175" lon="6.16426">
        <ele>1129.6862793</ele>
        <time>2013-05-24T11:12:51Z</time>
      </trkpt>
      <trkpt lat="44.38201" lon="6.16412">
        <ele>1128.2443848</ele>
        <time>2013-05-24T11:12:55Z</time>
      </trkpt>
      <trkpt lat="44.38223" lon="6.16402">
        <ele>1126.8024902</ele>
        <time>2013-05-24T11:12:58Z</time>
      </trkpt>
      <trkpt lat="44.38244" lon="6.16387">
        <ele>1122.9572754</ele>
        <time>2013-05-24T11:13:01Z</time>
      </trkpt>
      <trkpt lat="44.3827" lon="6.16368">
        <ele>1121.9958496</ele>
        <time>2013-05-24T11:13:05Z</time>
      </trkpt>
      <trkpt lat="44.3829" lon="6.16335">
        <ele>1117.1894531</ele>
        <time>2013-05-24T11:13:09Z</time>
      </trkpt>
      <trkpt lat="44.38295" lon="6.16326">
        <ele>1117.1894531</ele>
        <time>2013-05-24T11:13:10Z</time>
      </trkpt>
      <trkpt lat="44.38306" lon="6.16311">
        <ele>1116.2280273</ele>
        <time>2013-05-24T11:13:12Z</time>
      </trkpt>
      <trkpt lat="44.38322" lon="6.16293">
        <ele>1114.3051758</ele>
        <time>2013-05-24T11:13:15Z</time>
      </trkpt>
      <trkpt lat="44.38358" lon="6.16256">
        <ele>1110.9406738</ele>
        <time>2013-05-24T11:13:22Z</time>
      </trkpt>
      <trkpt lat="44.38374" lon="6.16247">
        <ele>1109.979248</ele>
        <time>2013-05-24T11:13:25Z</time>
      </trkpt>
      <trkpt lat="44.38391" lon="6.16244">
        <ele>1108.5373535</ele>
        <time>2013-05-24T11:13:28Z</time>
      </trkpt>
      <trkpt lat="44.38407" lon="6.16243">
        <ele>1108.5373535</ele>
        <time>2013-05-24T11:13:31Z</time>
      </trkpt>
      <trkpt lat="44.38432" lon="6.16233">
        <ele>1106.6147461</ele>
        <time>2013-05-24T11:13:38Z</time>
      </trkpt>
      <trkpt lat="44.38432" lon="6.16226">
        <ele>1106.6147461</ele>
        <time>2013-05-24T11:13:42Z</time>
      </trkpt>
      <trkpt lat="44.38414" lon="6.16234">
        <ele>1105.6535645</ele>
        <time>2013-05-24T11:13:47Z</time>
      </trkpt>
      <trkpt lat="44.38361" lon="6.16217">
        <ele>1105.6535645</ele>
        <time>2013-05-24T11:14:00Z</time>
      </trkpt>
      <trkpt lat="44.38351" lon="6.16214">
        <ele>1104.2116699</ele>
        <time>2013-05-24T11:14:02Z</time>
      </trkpt>
      <trkpt lat="44.3832" lon="6.16164">
        <ele>1103.730957</ele>
        <time>2013-05-24T11:14:12Z</time>
      </trkpt>
      <trkpt lat="44.38324" lon="6.1615">
        <ele>1104.2116699</ele>
        <time>2013-05-24T11:14:15Z</time>
      </trkpt>
      <trkpt lat="44.3835" lon="6.16127">
        <ele>1107.095459</ele>
        <time>2013-05-24T11:14:30Z</time>
      </trkpt>
      <trkpt lat="44.38359" lon="6.16115">
        <ele>1108.5373535</ele>
        <time>2013-05-24T11:14:36Z</time>
      </trkpt>
      <trkpt lat="44.38369" lon="6.16087">
        <ele>1109.979248</ele>
        <time>2013-05-24T11:14:50Z</time>
      </trkpt>
      <trkpt lat="44.38371" lon="6.16062">
        <ele>1111.9020996</ele>
        <time>2013-05-24T11:15:01Z</time>
      </trkpt>
      <trkpt lat="44.38379" lon="6.16007">
        <ele>1114.7858887</ele>
        <time>2013-05-24T11:15:25Z</time>
      </trkpt>
      <trkpt lat="44.3839" lon="6.15951">
        <ele>1116.7087402</ele>
        <time>2013-05-24T11:15:48Z</time>
      </trkpt>
      <trkpt lat="44.38403" lon="6.15897">
        <ele>1119.5927734</ele>
        <time>2013-05-24T11:16:12Z</time>
      </trkpt>
      <trkpt lat="44.38397" lon="6.15849">
        <ele>1120.0732422</ele>
        <time>2013-05-24T11:16:33Z</time>
      </trkpt>
      <trkpt lat="44.38395" lon="6.15824">
        <ele>1120.5539551</ele>
        <time>2013-05-24T11:16:42Z</time>
      </trkpt>
      <trkpt lat="44.38418" lon="6.15807">
        <ele>1120.5539551</ele>
        <time>2013-05-24T11:16:59Z</time>
      </trkpt>
      <trkpt lat="44.38446" lon="6.15841">
        <ele>1121.9958496</ele>
        <time>2013-05-24T11:17:18Z</time>
      </trkpt>
      <trkpt lat="44.38474" lon="6.15862">
        <ele>1123.918457</ele>
        <time>2013-05-24T11:17:35Z</time>
      </trkpt>
      <trkpt lat="44.38482" lon="6.15859">
        <ele>1124.8798828</ele>
        <time>2013-05-24T11:17:42Z</time>
      </trkpt>
      <trkpt lat="44.38486" lon="6.15857">
        <ele>1125.3603516</ele>
        <time>2013-05-24T11:17:45Z</time>
      </trkpt>
      <trkpt lat="44.38505" lon="6.1585">
        <ele>1128.7250977</ele>
        <time>2013-05-24T11:18:01Z</time>
      </trkpt>
      <trkpt lat="44.38522" lon="6.15834">
        <ele>1130.1669922</ele>
        <time>2013-05-24T11:18:18Z</time>
      </trkpt>
      <trkpt lat="44.38538" lon="6.15807">
        <ele>1131.6088867</ele>
        <time>2013-05-24T11:18:36Z</time>
      </trkpt>
      <trkpt lat="44.38552" lon="6.15771">
        <ele>1134.4931641</ele>
        <time>2013-05-24T11:19:00Z</time>
      </trkpt>
      <trkpt lat="44.38557" lon="6.15723">
        <ele>1137.3769531</ele>
        <time>2013-05-24T11:19:22Z</time>
      </trkpt>
      <trkpt lat="44.38572" lon="6.15686">
        <ele>1139.2995605</ele>
        <time>2013-05-24T11:19:44Z</time>
      </trkpt>
      <trkpt lat="44.38587" lon="6.15652">
        <ele>1140.7414551</ele>
        <time>2013-05-24T11:20:05Z</time>
      </trkpt>
      <trkpt lat="44.3859" lon="6.15644">
        <ele>1141.222168</ele>
        <time>2013-05-24T11:20:10Z</time>
      </trkpt>
      <trkpt lat="44.38602" lon="6.15605">
        <ele>1144.5866699</ele>
        <time>2013-05-24T11:20:33Z</time>
      </trkpt>
      <trkpt lat="44.38611" lon="6.15572">
        <ele>1147.951416</ele>
        <time>2013-05-24T11:20:52Z</time>
      </trkpt>
      <trkpt lat="44.38623" lon="6.15538">
        <ele>1150.3549805</ele>
        <time>2013-05-24T11:21:15Z</time>
      </trkpt>
      <trkpt lat="44.38623" lon="6.15536">
        <ele>1153.7194824</ele>
        <time>2013-05-24T11:21:33Z</time>
      </trkpt>
      <trkpt lat="44.38623" lon="6.15536">
        <ele>1154.2001953</ele>
        <time>2013-05-24T11:21:35Z</time>
      </trkpt>
      <trkpt lat="44.38636" lon="6.15509">
        <ele>1157.0839844</ele>
        <time>2013-05-24T11:21:57Z</time>
      </trkpt>
      <trkpt lat="44.38679" lon="6.15533">
        <ele>1159.0065918</ele>
        <time>2013-05-24T11:22:21Z</time>
      </trkpt>
      <trkpt lat="44.38684" lon="6.15535">
        <ele>1159.4873047</ele>
        <time>2013-05-24T11:22:23Z</time>
      </trkpt>
      <trkpt lat="44.38686" lon="6.15536">
        <ele>1162.3710938</ele>
        <time>2013-05-24T11:22:39Z</time>
      </trkpt>
      <trkpt lat="44.38686" lon="6.15536">
        <ele>1162.3710938</ele>
        <time>2013-05-24T11:22:43Z</time>
      </trkpt>
      <trkpt lat="44.38686" lon="6.15536">
        <ele>1165.2553711</ele>
        <time>2013-05-24T11:22:58Z</time>
      </trkpt>
      <trkpt lat="44.38686" lon="6.15536">
        <ele>1165.736084</ele>
        <time>2013-05-24T11:23:03Z</time>
      </trkpt>
      <trkpt lat="44.38686" lon="6.15536">
        <ele>1165.736084</ele>
        <time>2013-05-24T11:23:07Z</time>
      </trkpt>
      <trkpt lat="44.38742" lon="6.15521">
        <ele>1167.6584473</ele>
        <time>2013-05-24T11:23:28Z</time>
      </trkpt>
      <trkpt lat="44.38748" lon="6.15515">
        <ele>1170.5424805</ele>
        <time>2013-05-24T11:23:52Z</time>
      </trkpt>
      <trkpt lat="44.38748" lon="6.15515">
        <ele>1173.9069824</ele>
        <time>2013-05-24T11:24:04Z</time>
      </trkpt>
      <trkpt lat="44.38748" lon="6.15515">
        <ele>1173.4265137</ele>
        <time>2013-05-24T11:24:07Z</time>
      </trkpt>
      <trkpt lat="44.38787" lon="6.15445">
        <ele>1175.8295898</ele>
        <time>2013-05-24T11:24:31Z</time>
      </trkpt>
      <trkpt lat="44.3879" lon="6.15443">
        <ele>1176.3103027</ele>
        <time>2013-05-24T11:24:34Z</time>
      </trkpt>
      <trkpt lat="44.38816" lon="6.15438">
        <ele>1179.1940918</ele>
        <time>2013-05-24T11:24:57Z</time>
      </trkpt>
      <trkpt lat="44.38824" lon="6.15441">
        <ele>1180.1557617</ele>
        <time>2013-05-24T11:25:03Z</time>
      </trkpt>
      <trkpt lat="44.38826" lon="6.15442">
        <ele>1180.6364746</ele>
        <time>2013-05-24T11:25:05Z</time>
      </trkpt>
      <trkpt lat="44.38847" lon="6.15468">
        <ele>1182.559082</ele>
        <time>2013-05-24T11:25:29Z</time>
      </trkpt>
      <trkpt lat="44.38854" lon="6.15475">
        <ele>1183.5202637</ele>
        <time>2013-05-24T11:25:36Z</time>
      </trkpt>
      <trkpt lat="44.38854" lon="6.15475">
        <ele>1184.0009766</ele>
        <time>2013-05-24T11:25:52Z</time>
      </trkpt>
      <trkpt lat="44.38854" lon="6.15475">
        <ele>1183.0395508</ele>
        <time>2013-05-24T11:26:08Z</time>
      </trkpt>
      <trkpt lat="44.38854" lon="6.15475">
        <ele>1184.4816895</ele>
        <time>2013-05-24T11:26:10Z</time>
      </trkpt>
      <trkpt lat="44.38854" lon="6.15475">
        <ele>1185.4428711</ele>
        <time>2013-05-24T11:26:15Z</time>
      </trkpt>
      <trkpt lat="44.38854" lon="6.15475">
        <ele>1183.5202637</ele>
        <time>2013-05-24T11:26:30Z</time>
      </trkpt>
      <trkpt lat="44.38854" lon="6.15475">
        <ele>1184.0009766</ele>
        <time>2013-05-24T11:26:55Z</time>
      </trkpt>
      <trkpt lat="44.38854" lon="6.15475">
        <ele>1185.923584</ele>
        <time>2013-05-24T11:27:33Z</time>
      </trkpt>
      <trkpt lat="44.38854" lon="6.15475">
        <ele>1185.923584</ele>
        <time>2013-05-24T11:31:04Z</time>
      </trkpt>
      <trkpt lat="44.38856" lon="6.15476">
        <ele>1186.4042969</ele>
        <time>2013-05-24T11:31:08Z</time>
      </trkpt>
      <trkpt lat="44.38891" lon="6.15481">
        <ele>1188.3269043</ele>
        <time>2013-05-24T11:31:33Z</time>
      </trkpt>
      <trkpt lat="44.38914" lon="6.15475">
        <ele>1190.7299805</ele>
        <time>2013-05-24T11:31:52Z</time>
      </trkpt>
      <trkpt lat="44.38938" lon="6.15468">
        <ele>1194.0947266</ele>
        <time>2013-05-24T11:32:15Z</time>
      </trkpt>
      <trkpt lat="44.38953" lon="6.15464">
        <ele>1194.5751953</ele>
        <time>2013-05-24T11:32:27Z</time>
      </trkpt>
      <trkpt lat="44.38975" lon="6.15456">
        <ele>1196.9787598</ele>
        <time>2013-05-24T11:32:45Z</time>
      </trkpt>
      <trkpt lat="44.38981" lon="6.15451">
        <ele>1197.4594727</ele>
        <time>2013-05-24T11:32:50Z</time>
      </trkpt>
      <trkpt lat="44.38978" lon="6.1542">
        <ele>1198.4206543</ele>
        <time>2013-05-24T11:33:12Z</time>
      </trkpt>
      <trkpt lat="44.38972" lon="6.15406">
        <ele>1201.7854004</ele>
        <time>2013-05-24T11:33:22Z</time>
      </trkpt>
      <trkpt lat="44.38972" lon="6.15406">
        <ele>1201.7854004</ele>
        <time>2013-05-24T11:33:24Z</time>
      </trkpt>
      <trkpt lat="44.38951" lon="6.15365">
        <ele>1203.7080078</ele>
        <time>2013-05-24T11:33:56Z</time>
      </trkpt>
      <trkpt lat="44.38939" lon="6.15341">
        <ele>1204.6691895</ele>
        <time>2013-05-24T11:34:06Z</time>
      </trkpt>
      <trkpt lat="44.38923" lon="6.15313">
        <ele>1207.0725098</ele>
        <time>2013-05-24T11:34:33Z</time>
      </trkpt>
      <trkpt lat="44.38905" lon="6.15282">
        <ele>1209.9562988</ele>
        <time>2013-05-24T11:34:54Z</time>
      </trkpt>
      <trkpt lat="44.38895" lon="6.15264">
        <ele>1213.3212891</ele>
        <time>2013-05-24T11:35:16Z</time>
      </trkpt>
      <trkpt lat="44.38873" lon="6.15222">
        <ele>1215.2438965</ele>
        <time>2013-05-24T11:35:41Z</time>
      </trkpt>
      <trkpt lat="44.3887" lon="6.15214">
        <ele>1216.2050781</ele>
        <time>2013-05-24T11:35:45Z</time>
      </trkpt>
      <trkpt lat="44.38857" lon="6.15185">
        <ele>1219.0891113</ele>
        <time>2013-05-24T11:36:08Z</time>
      </trkpt>
      <trkpt lat="44.38857" lon="6.15185">
        <ele>1219.0891113</ele>
        <time>2013-05-24T11:36:09Z</time>
      </trkpt>
      <trkpt lat="44.38843" lon="6.15152">
        <ele>1221.9729004</ele>
        <time>2013-05-24T11:36:31Z</time>
      </trkpt>
      <trkpt lat="44.38835" lon="6.15131">
        <ele>1223.8955078</ele>
        <time>2013-05-24T11:36:50Z</time>
      </trkpt>
      <trkpt lat="44.3882" lon="6.15097">
        <ele>1227.2602539</ele>
        <time>2013-05-24T11:37:14Z</time>
      </trkpt>
      <trkpt lat="44.388" lon="6.15067">
        <ele>1229.6635742</ele>
        <time>2013-05-24T11:37:35Z</time>
      </trkpt>
      <trkpt lat="44.38772" lon="6.15061">
        <ele>1232.0668945</ele>
        <time>2013-05-24T11:37:59Z</time>
      </trkpt>
      <trkpt lat="44.38766" lon="6.15063">
        <ele>1232.5476074</ele>
        <time>2013-05-24T11:38:03Z</time>
      </trkpt>
      <trkpt lat="44.38743" lon="6.1508">
        <ele>1233.989502</ele>
        <time>2013-05-24T11:38:22Z</time>
      </trkpt>
      <trkpt lat="44.38719" lon="6.15098">
        <ele>1234.4702148</ele>
        <time>2013-05-24T11:38:38Z</time>
      </trkpt>
      <trkpt lat="44.38707" lon="6.15102">
        <ele>1234.4702148</ele>
        <time>2013-05-24T11:38:43Z</time>
      </trkpt>
      <trkpt lat="44.38687" lon="6.15094">
        <ele>1233.0280762</ele>
        <time>2013-05-24T11:38:50Z</time>
      </trkpt>
      <trkpt lat="44.38664" lon="6.1503">
        <ele>1229.6635742</ele>
        <time>2013-05-24T11:39:03Z</time>
      </trkpt>
      <trkpt lat="44.38659" lon="6.15015">
        <ele>1229.6635742</ele>
        <time>2013-05-24T11:39:06Z</time>
      </trkpt>
      <trkpt lat="44.38642" lon="6.14974">
        <ele>1226.779541</ele>
        <time>2013-05-24T11:39:18Z</time>
      </trkpt>
      <trkpt lat="44.38629" lon="6.14947">
        <ele>1223.8955078</ele>
        <time>2013-05-24T11:39:24Z</time>
      </trkpt>
      <trkpt lat="44.38612" lon="6.14913">
        <ele>1223.4150391</ele>
        <time>2013-05-24T11:39:30Z</time>
      </trkpt>
      <trkpt lat="44.38604" lon="6.14895">
        <ele>1222.9343262</ele>
        <time>2013-05-24T11:39:33Z</time>
      </trkpt>
      <trkpt lat="44.38595" lon="6.14877">
        <ele>1222.4536133</ele>
        <time>2013-05-24T11:39:36Z</time>
      </trkpt>
      <trkpt lat="44.38577" lon="6.14841">
        <ele>1222.4536133</ele>
        <time>2013-05-24T11:39:42Z</time>
      </trkpt>
      <trkpt lat="44.38543" lon="6.14758">
        <ele>1221.4921875</ele>
        <time>2013-05-24T11:39:57Z</time>
      </trkpt>
      <trkpt lat="44.38513" lon="6.14682">
        <ele>1222.9343262</ele>
        <time>2013-05-24T11:40:17Z</time>
      </trkpt>
      <trkpt lat="44.38505" lon="6.14666">
        <ele>1223.4150391</ele>
        <time>2013-05-24T11:40:22Z</time>
      </trkpt>
      <trkpt lat="44.38482" lon="6.14639">
        <ele>1226.2988281</ele>
        <time>2013-05-24T11:40:38Z</time>
      </trkpt>
      <trkpt lat="44.38473" lon="6.14634">
        <ele>1226.779541</ele>
        <time>2013-05-24T11:40:43Z</time>
      </trkpt>
      <trkpt lat="44.38471" lon="6.14632">
        <ele>1225.8181152</ele>
        <time>2013-05-24T11:40:54Z</time>
      </trkpt>
      <trkpt lat="44.38471" lon="6.14632">
        <ele>1228.7023926</ele>
        <time>2013-05-24T11:41:13Z</time>
      </trkpt>
      <trkpt lat="44.38471" lon="6.14632">
        <ele>1228.2216797</ele>
        <time>2013-05-24T11:41:25Z</time>
      </trkpt>
      <trkpt lat="44.38471" lon="6.14632">
        <ele>1225.8181152</ele>
        <time>2013-05-24T11:42:20Z</time>
      </trkpt>
      <trkpt lat="44.38467" lon="6.14624">
        <ele>1225.8181152</ele>
        <time>2013-05-24T11:42:42Z</time>
      </trkpt>
      <trkpt lat="44.38452" lon="6.14588">
        <ele>1229.6635742</ele>
        <time>2013-05-24T11:42:58Z</time>
      </trkpt>
      <trkpt lat="44.38451" lon="6.14586">
        <ele>1232.0668945</ele>
        <time>2013-05-24T11:43:00Z</time>
      </trkpt>
      <trkpt lat="44.38448" lon="6.14584">
        <ele>1229.6635742</ele>
        <time>2013-05-24T11:43:02Z</time>
      </trkpt>
      <trkpt lat="44.38447" lon="6.14582">
        <ele>1232.0668945</ele>
        <time>2013-05-24T11:43:04Z</time>
      </trkpt>
      <trkpt lat="44.38444" lon="6.14578">
        <ele>1233.5087891</ele>
        <time>2013-05-24T11:43:09Z</time>
      </trkpt>
      <trkpt lat="44.38436" lon="6.14568">
        <ele>1232.5476074</ele>
        <time>2013-05-24T11:43:16Z</time>
      </trkpt>
      <trkpt lat="44.38427" lon="6.14564">
        <ele>1235.9121094</ele>
        <time>2013-05-24T11:43:24Z</time>
      </trkpt>
      <trkpt lat="44.38421" lon="6.14561">
        <ele>1238.7961426</ele>
        <time>2013-05-24T11:43:43Z</time>
      </trkpt>
      <trkpt lat="44.38421" lon="6.14561">
        <ele>1238.7961426</ele>
        <time>2013-05-24T11:43:44Z</time>
      </trkpt>
      <trkpt lat="44.38421" lon="6.14561">
        <ele>1239.7573242</ele>
        <time>2013-05-24T11:43:53Z</time>
      </trkpt>
      <trkpt lat="44.38421" lon="6.14561">
        <ele>1242.6413574</ele>
        <time>2013-05-24T11:44:15Z</time>
      </trkpt>
      <trkpt lat="44.38421" lon="6.14561">
        <ele>1244.0834961</ele>
        <time>2013-05-24T11:44:21Z</time>
      </trkpt>
      <trkpt lat="44.38364" lon="6.14537">
        <ele>1245.0446777</ele>
        <time>2013-05-24T11:44:27Z</time>
      </trkpt>
      <trkpt lat="44.38364" lon="6.14537">
        <ele>1245.5253906</ele>
        <time>2013-05-24T11:44:31Z</time>
      </trkpt>
      <trkpt lat="44.38364" lon="6.14537">
        <ele>1246.0061035</ele>
        <time>2013-05-24T11:44:35Z</time>
      </trkpt>
      <trkpt lat="44.38364" lon="6.14537">
        <ele>1245.0446777</ele>
        <time>2013-05-24T11:44:42Z</time>
      </trkpt>
      <trkpt lat="44.38364" lon="6.14537">
        <ele>1247.9287109</ele>
        <time>2013-05-24T11:44:43Z</time>
      </trkpt>
      <trkpt lat="44.38364" lon="6.14506">
        <ele>1247.9287109</ele>
        <time>2013-05-24T11:44:55Z</time>
      </trkpt>
      <trkpt lat="44.38364" lon="6.14506">
        <ele>1249.3706055</ele>
        <time>2013-05-24T11:44:58Z</time>
      </trkpt>
      <trkpt lat="44.38364" lon="6.14506">
        <ele>1249.8513184</ele>
        <time>2013-05-24T11:44:59Z</time>
      </trkpt>
      <trkpt lat="44.38364" lon="6.14506">
        <ele>1249.3706055</ele>
        <time>2013-05-24T11:45:02Z</time>
      </trkpt>
      <trkpt lat="44.38364" lon="6.14506">
        <ele>1251.2932129</ele>
        <time>2013-05-24T11:45:14Z</time>
      </trkpt>
      <trkpt lat="44.38364" lon="6.14506">
        <ele>1252.2543945</ele>
        <time>2013-05-24T11:45:26Z</time>
      </trkpt>
      <trkpt lat="44.38364" lon="6.14506">
        <ele>1252.7351074</ele>
        <time>2013-05-24T11:45:29Z</time>
      </trkpt>
      <trkpt lat="44.38364" lon="6.14506">
        <ele>1255.6191406</ele>
        <time>2013-05-24T11:45:50Z</time>
      </trkpt>
      <trkpt lat="44.38364" lon="6.14506">
        <ele>1257.541748</ele>
        <time>2013-05-24T11:46:05Z</time>
      </trkpt>
      <trkpt lat="44.38373" lon="6.1438">
        <ele>1260.9064941</ele>
        <time>2013-05-24T11:46:25Z</time>
      </trkpt>
      <trkpt lat="44.38373" lon="6.1438">
        <ele>1263.3098145</ele>
        <time>2013-05-24T11:46:49Z</time>
      </trkpt>
      <trkpt lat="44.38373" lon="6.1438">
        <ele>1263.7902832</ele>
        <time>2013-05-24T11:46:55Z</time>
      </trkpt>
      <trkpt lat="44.38373" lon="6.1438">
        <ele>1264.2709961</ele>
        <time>2013-05-24T11:46:58Z</time>
      </trkpt>
      <trkpt lat="44.38357" lon="6.14319">
        <ele>1265.7131348</ele>
        <time>2013-05-24T11:47:12Z</time>
      </trkpt>
      <trkpt lat="44.38357" lon="6.14319">
        <ele>1267.1550293</ele>
        <time>2013-05-24T11:47:30Z</time>
      </trkpt>
      <trkpt lat="44.38357" lon="6.14319">
        <ele>1268.5969238</ele>
        <time>2013-05-24T11:47:47Z</time>
      </trkpt>
      <trkpt lat="44.38357" lon="6.14319">
        <ele>1271.0002441</ele>
        <time>2013-05-24T11:48:12Z</time>
      </trkpt>
      <trkpt lat="44.38357" lon="6.14319">
        <ele>1272.4421387</ele>
        <time>2013-05-24T11:48:20Z</time>
      </trkpt>
      <trkpt lat="44.3833" lon="6.14195">
        <ele>1273.8840332</ele>
        <time>2013-05-24T11:48:30Z</time>
      </trkpt>
      <trkpt lat="44.3833" lon="6.14195">
        <ele>1274.845459</ele>
        <time>2013-05-24T11:48:35Z</time>
      </trkpt>
      <trkpt lat="44.3833" lon="6.14195">
        <ele>1277.2490234</ele>
        <time>2013-05-24T11:48:48Z</time>
      </trkpt>
      <trkpt lat="44.38318" lon="6.14166">
        <ele>1280.6135254</ele>
        <time>2013-05-24T11:49:05Z</time>
      </trkpt>
      <trkpt lat="44.38318" lon="6.14166">
        <ele>1280.1328125</ele>
        <time>2013-05-24T11:49:08Z</time>
      </trkpt>
      <trkpt lat="44.38301" lon="6.1413">
        <ele>1282.0554199</ele>
        <time>2013-05-24T11:49:26Z</time>
      </trkpt>
      <trkpt lat="44.38301" lon="6.1413">
        <ele>1284.9394531</ele>
        <time>2013-05-24T11:49:45Z</time>
      </trkpt>
      <trkpt lat="44.38285" lon="6.1409">
        <ele>1287.3425293</ele>
        <time>2013-05-24T11:50:00Z</time>
      </trkpt>
      <trkpt lat="44.38271" lon="6.14063">
        <ele>1288.3039551</ele>
        <time>2013-05-24T11:50:16Z</time>
      </trkpt>
      <trkpt lat="44.38269" lon="6.14052">
        <ele>1289.7458496</ele>
        <time>2013-05-24T11:50:23Z</time>
      </trkpt>
      <trkpt lat="44.38269" lon="6.14052">
        <ele>1290.7070313</ele>
        <time>2013-05-24T11:50:30Z</time>
      </trkpt>
      <trkpt lat="44.38269" lon="6.14052">
        <ele>1291.668457</ele>
        <time>2013-05-24T11:50:35Z</time>
      </trkpt>
      <trkpt lat="44.38269" lon="6.14052">
        <ele>1292.1494141</ele>
        <time>2013-05-24T11:50:39Z</time>
      </trkpt>
      <trkpt lat="44.38269" lon="6.14052">
        <ele>1294.5524902</ele>
        <time>2013-05-24T11:50:58Z</time>
      </trkpt>
      <trkpt lat="44.38269" lon="6.14052">
        <ele>1296.4753418</ele>
        <time>2013-05-24T11:51:15Z</time>
      </trkpt>
      <trkpt lat="44.38266" lon="6.13966">
        <ele>1298.878418</ele>
        <time>2013-05-24T11:51:33Z</time>
      </trkpt>
      <trkpt lat="44.38266" lon="6.13966">
        <ele>1298.878418</ele>
        <time>2013-05-24T11:51:59Z</time>
      </trkpt>
      <trkpt lat="44.38266" lon="6.13966">
        <ele>1299.3591309</ele>
        <time>2013-05-24T11:52:14Z</time>
      </trkpt>
      <trkpt lat="44.38266" lon="6.13966">
        <ele>1300.8010254</ele>
        <time>2013-05-24T11:52:53Z</time>
      </trkpt>
      <trkpt lat="44.38265" lon="6.13945">
        <ele>1300.3205566</ele>
        <time>2013-05-24T11:52:55Z</time>
      </trkpt>
      <trkpt lat="44.38258" lon="6.13925">
        <ele>1303.2043457</ele>
        <time>2013-05-24T11:53:14Z</time>
      </trkpt>
      <trkpt lat="44.38258" lon="6.13925">
        <ele>1304.6462402</ele>
        <time>2013-05-24T11:53:19Z</time>
      </trkpt>
      <trkpt lat="44.38258" lon="6.13925">
        <ele>1304.6462402</ele>
        <time>2013-05-24T11:53:44Z</time>
      </trkpt>
      <trkpt lat="44.38258" lon="6.13925">
        <ele>1305.607666</ele>
        <time>2013-05-24T11:54:14Z</time>
      </trkpt>
      <trkpt lat="44.38258" lon="6.13925">
        <ele>1305.607666</ele>
        <time>2013-05-24T11:54:38Z</time>
      </trkpt>
      <trkpt lat="44.38258" lon="6.13925">
        <ele>1305.1269531</ele>
        <time>2013-05-24T11:55:21Z</time>
      </trkpt>
      <trkpt lat="44.38258" lon="6.13925">
        <ele>1304.1657715</ele>
        <time>2013-05-24T11:55:44Z</time>
      </trkpt>
      <trkpt lat="44.38258" lon="6.13925">
        <ele>1305.1269531</ele>
        <time>2013-05-24T11:56:23Z</time>
      </trkpt>
      <trkpt lat="44.38258" lon="6.13925">
        <ele>1304.6462402</ele>
        <time>2013-05-24T11:56:39Z</time>
      </trkpt>
      <trkpt lat="44.38258" lon="6.13925">
        <ele>1307.0495605</ele>
        <time>2013-05-24T11:57:03Z</time>
      </trkpt>
      <trkpt lat="44.38258" lon="6.13925">
        <ele>1306.0881348</ele>
        <time>2013-05-24T11:57:57Z</time>
      </trkpt>
      <trkpt lat="44.38258" lon="6.13925">
        <ele>1307.0495605</ele>
        <time>2013-05-24T11:58:23Z</time>
      </trkpt>
      <trkpt lat="44.38258" lon="6.13925">
        <ele>1304.6462402</ele>
        <time>2013-05-24T11:58:31Z</time>
      </trkpt>
      <trkpt lat="44.38258" lon="6.13925">
        <ele>1306.5688477</ele>
        <time>2013-05-24T11:58:35Z</time>
      </trkpt>
      <trkpt lat="44.38237" lon="6.13871">
        <ele>1308.4916992</ele>
        <time>2013-05-24T11:58:52Z</time>
      </trkpt>
      <trkpt lat="44.38226" lon="6.1385">
        <ele>1311.8564453</ele>
        <time>2013-05-24T11:59:09Z</time>
      </trkpt>
      <trkpt lat="44.38215" lon="6.13832">
        <ele>1314.2595215</ele>
        <time>2013-05-24T11:59:24Z</time>
      </trkpt>
      <trkpt lat="44.38215" lon="6.13832">
        <ele>1315.2209473</ele>
        <time>2013-05-24T11:59:38Z</time>
      </trkpt>
      <trkpt lat="44.38215" lon="6.13832">
        <ele>1314.7402344</ele>
        <time>2013-05-24T11:59:53Z</time>
      </trkpt>
      <trkpt lat="44.38215" lon="6.13832">
        <ele>1315.7016602</ele>
        <time>2013-05-24T12:00:58Z</time>
      </trkpt>
      <trkpt lat="44.38215" lon="6.13832">
        <ele>1316.1821289</ele>
        <time>2013-05-24T12:01:08Z</time>
      </trkpt>
      <trkpt lat="44.38229" lon="6.13808">
        <ele>1317.1435547</ele>
        <time>2013-05-24T12:01:17Z</time>
      </trkpt>
      <trkpt lat="44.38245" lon="6.13796">
        <ele>1319.0661621</ele>
        <time>2013-05-24T12:01:31Z</time>
      </trkpt>
      <trkpt lat="44.38245" lon="6.13796">
        <ele>1320.0273438</ele>
        <time>2013-05-24T12:01:36Z</time>
      </trkpt>
      <trkpt lat="44.38248" lon="6.13788">
        <ele>1322.4306641</ele>
        <time>2013-05-24T12:01:55Z</time>
      </trkpt>
      <trkpt lat="44.38248" lon="6.13788">
        <ele>1325.3146973</ele>
        <time>2013-05-24T12:02:10Z</time>
      </trkpt>
      <trkpt lat="44.38248" lon="6.13788">
        <ele>1327.2375488</ele>
        <time>2013-05-24T12:02:34Z</time>
      </trkpt>
      <trkpt lat="44.38248" lon="6.13788">
        <ele>1329.1599121</ele>
        <time>2013-05-24T12:02:48Z</time>
      </trkpt>
      <trkpt lat="44.38277" lon="6.13681">
        <ele>1330.1213379</ele>
        <time>2013-05-24T12:02:54Z</time>
      </trkpt>
      <trkpt lat="44.3828" lon="6.13669">
        <ele>1332.5246582</ele>
        <time>2013-05-24T12:03:14Z</time>
      </trkpt>
      <trkpt lat="44.3829" lon="6.13651">
        <ele>1333.4858398</ele>
        <time>2013-05-24T12:03:19Z</time>
      </trkpt>
      <trkpt lat="44.38295" lon="6.13635">
        <ele>1334.9279785</ele>
        <time>2013-05-24T12:03:28Z</time>
      </trkpt>
      <trkpt lat="44.38305" lon="6.13614">
        <ele>1336.8503418</ele>
        <time>2013-05-24T12:03:52Z</time>
      </trkpt>
      <trkpt lat="44.38321" lon="6.13609">
        <ele>1338.2924805</ele>
        <time>2013-05-24T12:04:00Z</time>
      </trkpt>
      <trkpt lat="44.38321" lon="6.13609">
        <ele>1338.7731934</ele>
        <time>2013-05-24T12:04:07Z</time>
      </trkpt>
      <trkpt lat="44.38321" lon="6.13609">
        <ele>1338.7731934</ele>
        <time>2013-05-24T12:04:09Z</time>
      </trkpt>
      <trkpt lat="44.38337" lon="6.13604">
        <ele>1338.7731934</ele>
        <time>2013-05-24T12:04:18Z</time>
      </trkpt>
      <trkpt lat="44.38346" lon="6.13573">
        <ele>1339.734375</ele>
        <time>2013-05-24T12:04:35Z</time>
      </trkpt>
      <trkpt lat="44.38361" lon="6.1353">
        <ele>1340.215332</ele>
        <time>2013-05-24T12:04:57Z</time>
      </trkpt>
      <trkpt lat="44.3837" lon="6.13516">
        <ele>1340.215332</ele>
        <time>2013-05-24T12:05:04Z</time>
      </trkpt>
      <trkpt lat="44.38372" lon="6.13512">
        <ele>1340.215332</ele>
        <time>2013-05-24T12:05:06Z</time>
      </trkpt>
      <trkpt lat="44.38387" lon="6.13476">
        <ele>1341.6572266</ele>
        <time>2013-05-24T12:05:21Z</time>
      </trkpt>
      <trkpt lat="44.38391" lon="6.1345">
        <ele>1342.1379395</ele>
        <time>2013-05-24T12:05:29Z</time>
      </trkpt>
      <trkpt lat="44.38408" lon="6.13398">
        <ele>1343.579834</ele>
        <time>2013-05-24T12:05:48Z</time>
      </trkpt>
      <trkpt lat="44.38416" lon="6.13388">
        <ele>1343.579834</ele>
        <time>2013-05-24T12:05:52Z</time>
      </trkpt>
      <trkpt lat="44.38446" lon="6.13379">
        <ele>1343.579834</ele>
        <time>2013-05-24T12:06:04Z</time>
      </trkpt>
      <trkpt lat="44.38472" lon="6.13363">
        <ele>1344.0605469</ele>
        <time>2013-05-24T12:06:16Z</time>
      </trkpt>
      <trkpt lat="44.38495" lon="6.13352">
        <ele>1344.0605469</ele>
        <time>2013-05-24T12:06:25Z</time>
      </trkpt>
      <trkpt lat="44.38505" lon="6.13327">
        <ele>1344.0605469</ele>
        <time>2013-05-24T12:06:31Z</time>
      </trkpt>
      <trkpt lat="44.38501" lon="6.13279">
        <ele>1345.0217285</ele>
        <time>2013-05-24T12:06:45Z</time>
      </trkpt>
      <trkpt lat="44.38498" lon="6.13257">
        <ele>1344.0605469</ele>
        <time>2013-05-24T12:06:51Z</time>
      </trkpt>
      <trkpt lat="44.38503" lon="6.1324">
        <ele>1345.0217285</ele>
        <time>2013-05-24T12:06:56Z</time>
      </trkpt>
      <trkpt lat="44.38509" lon="6.13226">
        <ele>1345.9831543</ele>
        <time>2013-05-24T12:07:01Z</time>
      </trkpt>
      <trkpt lat="44.38511" lon="6.13199">
        <ele>1346.4638672</ele>
        <time>2013-05-24T12:07:09Z</time>
      </trkpt>
      <trkpt lat="44.38525" lon="6.13163">
        <ele>1346.4638672</ele>
        <time>2013-05-24T12:07:21Z</time>
      </trkpt>
      <trkpt lat="44.38547" lon="6.1315">
        <ele>1347.4250488</ele>
        <time>2013-05-24T12:07:32Z</time>
      </trkpt>
      <trkpt lat="44.38576" lon="6.1315">
        <ele>1347.9057617</ele>
        <time>2013-05-24T12:07:42Z</time>
      </trkpt>
      <trkpt lat="44.38582" lon="6.13097">
        <ele>1346.9443359</ele>
        <time>2013-05-24T12:07:56Z</time>
      </trkpt>
      <trkpt lat="44.38582" lon="6.13072">
        <ele>1348.3862305</ele>
        <time>2013-05-24T12:08:04Z</time>
      </trkpt>
      <trkpt lat="44.38597" lon="6.13038">
        <ele>1348.8669434</ele>
        <time>2013-05-24T12:08:14Z</time>
      </trkpt>
      <trkpt lat="44.38604" lon="6.1301">
        <ele>1349.3476563</ele>
        <time>2013-05-24T12:08:24Z</time>
      </trkpt>
      <trkpt lat="44.38606" lon="6.13005">
        <ele>1349.3476563</ele>
        <time>2013-05-24T12:08:26Z</time>
      </trkpt>
      <trkpt lat="44.38623" lon="6.13">
        <ele>1350.309082</ele>
        <time>2013-05-24T12:08:36Z</time>
      </trkpt>
      <trkpt lat="44.38634" lon="6.12999">
        <ele>1350.7895508</ele>
        <time>2013-05-24T12:08:40Z</time>
      </trkpt>
      <trkpt lat="44.38644" lon="6.12996">
        <ele>1350.7895508</ele>
        <time>2013-05-24T12:08:44Z</time>
      </trkpt>
      <trkpt lat="44.38661" lon="6.1297">
        <ele>1351.2702637</ele>
        <time>2013-05-24T12:08:54Z</time>
      </trkpt>
      <trkpt lat="44.3868" lon="6.12979">
        <ele>1350.7895508</ele>
        <time>2013-05-24T12:09:03Z</time>
      </trkpt>
      <trkpt lat="44.38698" lon="6.13015">
        <ele>1348.8669434</ele>
        <time>2013-05-24T12:09:14Z</time>
      </trkpt>
      <trkpt lat="44.3874" lon="6.13028">
        <ele>1346.9443359</ele>
        <time>2013-05-24T12:09:26Z</time>
      </trkpt>
      <trkpt lat="44.38783" lon="6.13061">
        <ele>1343.0991211</ele>
        <time>2013-05-24T12:09:38Z</time>
      </trkpt>
      <trkpt lat="44.38809" lon="6.13088">
        <ele>1341.1765137</ele>
        <time>2013-05-24T12:09:50Z</time>
      </trkpt>
      <trkpt lat="44.38812" lon="6.1309">
        <ele>1341.1765137</ele>
        <time>2013-05-24T12:09:51Z</time>
      </trkpt>
      <trkpt lat="44.38835" lon="6.13072">
        <ele>1338.7731934</ele>
        <time>2013-05-24T12:10:00Z</time>
      </trkpt>
      <trkpt lat="44.38844" lon="6.13054">
        <ele>1338.2924805</ele>
        <time>2013-05-24T12:10:04Z</time>
      </trkpt>
      <trkpt lat="44.38849" lon="6.13038">
        <ele>1336.8503418</ele>
        <time>2013-05-24T12:10:07Z</time>
      </trkpt>
      <trkpt lat="44.38862" lon="6.12991">
        <ele>1335.8891602</ele>
        <time>2013-05-24T12:10:16Z</time>
      </trkpt>
      <trkpt lat="44.38874" lon="6.12983">
        <ele>1336.369873</ele>
        <time>2013-05-24T12:10:21Z</time>
      </trkpt>
      <trkpt lat="44.38891" lon="6.13001">
        <ele>1338.2924805</ele>
        <time>2013-05-24T12:10:32Z</time>
      </trkpt>
      <trkpt lat="44.38915" lon="6.13026">
        <ele>1340.215332</ele>
        <time>2013-05-24T12:10:48Z</time>
      </trkpt>
      <trkpt lat="44.38944" lon="6.13049">
        <ele>1342.6186523</ele>
        <time>2013-05-24T12:11:08Z</time>
      </trkpt>
      <trkpt lat="44.38953" lon="6.13056">
        <ele>1344.0605469</ele>
        <time>2013-05-24T12:11:15Z</time>
      </trkpt>
      <trkpt lat="44.38969" lon="6.13045">
        <ele>1345.5024414</ele>
        <time>2013-05-24T12:11:30Z</time>
      </trkpt>
      <trkpt lat="44.38973" lon="6.13033">
        <ele>1347.4250488</ele>
        <time>2013-05-24T12:11:48Z</time>
      </trkpt>
      <trkpt lat="44.38978" lon="6.1301">
        <ele>1348.8669434</ele>
        <time>2013-05-24T12:11:56Z</time>
      </trkpt>
      <trkpt lat="44.38984" lon="6.13005">
        <ele>1349.3476563</ele>
        <time>2013-05-24T12:12:17Z</time>
      </trkpt>
      <trkpt lat="44.38984" lon="6.13005">
        <ele>1350.7895508</ele>
        <time>2013-05-24T12:12:23Z</time>
      </trkpt>
      <trkpt lat="44.39019" lon="6.13028">
        <ele>1350.7895508</ele>
        <time>2013-05-24T12:12:33Z</time>
      </trkpt>
      <trkpt lat="44.3902" lon="6.13028">
        <ele>1351.7509766</ele>
        <time>2013-05-24T12:12:36Z</time>
      </trkpt>
      <trkpt lat="44.39028" lon="6.13026">
        <ele>1353.1928711</ele>
        <time>2013-05-24T12:12:42Z</time>
      </trkpt>
      <trkpt lat="44.39035" lon="6.13032">
        <ele>1354.1542969</ele>
        <time>2013-05-24T12:12:54Z</time>
      </trkpt>
      <trkpt lat="44.39046" lon="6.13049">
        <ele>1357.519043</ele>
        <time>2013-05-24T12:13:11Z</time>
      </trkpt>
      <trkpt lat="44.3907" lon="6.13055">
        <ele>1359.4416504</ele>
        <time>2013-05-24T12:13:28Z</time>
      </trkpt>
      <trkpt lat="44.39074" lon="6.13052">
        <ele>1360.402832</ele>
        <time>2013-05-24T12:13:41Z</time>
      </trkpt>
      <trkpt lat="44.39074" lon="6.13052">
        <ele>1361.8449707</ele>
        <time>2013-05-24T12:14:28Z</time>
      </trkpt>
      <trkpt lat="44.39074" lon="6.13052">
        <ele>1364.2480469</ele>
        <time>2013-05-24T12:14:51Z</time>
      </trkpt>
      <trkpt lat="44.39099" lon="6.1302">
        <ele>1363.2868652</ele>
        <time>2013-05-24T12:14:54Z</time>
      </trkpt>
      <trkpt lat="44.39099" lon="6.1302">
        <ele>1367.1320801</ele>
        <time>2013-05-24T12:14:56Z</time>
      </trkpt>
      <trkpt lat="44.39099" lon="6.1302">
        <ele>1367.1320801</ele>
        <time>2013-05-24T12:14:57Z</time>
      </trkpt>
      <trkpt lat="44.39099" lon="6.1302">
        <ele>1364.7287598</ele>
        <time>2013-05-24T12:14:59Z</time>
      </trkpt>
      <trkpt lat="44.39099" lon="6.1302">
        <ele>1363.767334</ele>
        <time>2013-05-24T12:15:11Z</time>
      </trkpt>
      <trkpt lat="44.39099" lon="6.1302">
        <ele>1366.6513672</ele>
        <time>2013-05-24T12:15:17Z</time>
      </trkpt>
      <trkpt lat="44.39099" lon="6.1302">
        <ele>1366.6513672</ele>
        <time>2013-05-24T12:15:18Z</time>
      </trkpt>
      <trkpt lat="44.39099" lon="6.1302">
        <ele>1365.2094727</ele>
        <time>2013-05-24T12:15:29Z</time>
      </trkpt>
      <trkpt lat="44.39099" lon="6.1302">
        <ele>1364.7287598</ele>
        <time>2013-05-24T12:15:51Z</time>
      </trkpt>
      <trkpt lat="44.39099" lon="6.1302">
        <ele>1365.2094727</ele>
        <time>2013-05-24T12:16:04Z</time>
      </trkpt>
      <trkpt lat="44.39099" lon="6.1302">
        <ele>1364.2480469</ele>
        <time>2013-05-24T12:16:15Z</time>
      </trkpt>
      <trkpt lat="44.39099" lon="6.1302">
        <ele>1367.1320801</ele>
        <time>2013-05-24T12:16:22Z</time>
      </trkpt>
      <trkpt lat="44.39099" lon="6.1302">
        <ele>1367.1320801</ele>
        <time>2013-05-24T12:16:35Z</time>
      </trkpt>
      <trkpt lat="44.39134" lon="6.1298">
        <ele>1369.5354004</ele>
        <time>2013-05-24T12:16:48Z</time>
      </trkpt>
      <trkpt lat="44.39141" lon="6.12967">
        <ele>1370.0158691</ele>
        <time>2013-05-24T12:16:56Z</time>
      </trkpt>
      <trkpt lat="44.39146" lon="6.12958">
        <ele>1370.9772949</ele>
        <time>2013-05-24T12:17:02Z</time>
      </trkpt>
      <trkpt lat="44.3915" lon="6.12951">
        <ele>1371.9384766</ele>
        <time>2013-05-24T12:17:07Z</time>
      </trkpt>
      <trkpt lat="44.3916" lon="6.12932">
        <ele>1373.3808594</ele>
        <time>2013-05-24T12:17:19Z</time>
      </trkpt>
      <trkpt lat="44.39169" lon="6.12915">
        <ele>1372.9001465</ele>
        <time>2013-05-24T12:17:26Z</time>
      </trkpt>
      <trkpt lat="44.39195" lon="6.12908">
        <ele>1372.4194336</ele>
        <time>2013-05-24T12:17:39Z</time>
      </trkpt>
      <trkpt lat="44.39226" lon="6.12938">
        <ele>1370.0158691</ele>
        <time>2013-05-24T12:17:50Z</time>
      </trkpt>
      <trkpt lat="44.39268" lon="6.12974">
        <ele>1366.6513672</ele>
        <time>2013-05-24T12:18:04Z</time>
      </trkpt>
      <trkpt lat="44.39288" lon="6.13001">
        <ele>1363.767334</ele>
        <time>2013-05-24T12:18:14Z</time>
      </trkpt>
      <trkpt lat="44.39302" lon="6.13019">
        <ele>1360.402832</ele>
        <time>2013-05-24T12:18:20Z</time>
      </trkpt>
      <trkpt lat="44.39329" lon="6.13054">
        <ele>1357.519043</ele>
        <time>2013-05-24T12:18:31Z</time>
      </trkpt>
      <trkpt lat="44.3934" lon="6.13068">
        <ele>1355.5961914</ele>
        <time>2013-05-24T12:18:35Z</time>
      </trkpt>
      <trkpt lat="44.39355" lon="6.13086">
        <ele>1352.7121582</ele>
        <time>2013-05-24T12:18:41Z</time>
      </trkpt>
      <trkpt lat="44.39358" lon="6.13089">
        <ele>1352.7121582</ele>
        <time>2013-05-24T12:18:42Z</time>
      </trkpt>
      <trkpt lat="44.39382" lon="6.13115">
        <ele>1349.3476563</ele>
        <time>2013-05-24T12:18:52Z</time>
      </trkpt>
      <trkpt lat="44.39401" lon="6.1313">
        <ele>1345.9831543</ele>
        <time>2013-05-24T12:18:59Z</time>
      </trkpt>
      <trkpt lat="44.39421" lon="6.13132">
        <ele>1344.0605469</ele>
        <time>2013-05-24T12:19:05Z</time>
      </trkpt>
      <trkpt lat="44.39435" lon="6.13132">
        <ele>1342.1379395</ele>
        <time>2013-05-24T12:19:09Z</time>
      </trkpt>
      <trkpt lat="44.39467" lon="6.13137">
        <ele>1338.2924805</ele>
        <time>2013-05-24T12:19:17Z</time>
      </trkpt>
      <trkpt lat="44.39476" lon="6.13139">
        <ele>1337.3310547</ele>
        <time>2013-05-24T12:19:19Z</time>
      </trkpt>
      <trkpt lat="44.39499" lon="6.1314">
        <ele>1333.4858398</ele>
        <time>2013-05-24T12:19:25Z</time>
      </trkpt>
      <trkpt lat="44.39502" lon="6.13139">
        <ele>1333.4858398</ele>
        <time>2013-05-24T12:19:26Z</time>
      </trkpt>
      <trkpt lat="44.39523" lon="6.13139">
        <ele>1330.1213379</ele>
        <time>2013-05-24T12:19:32Z</time>
      </trkpt>
      <trkpt lat="44.39525" lon="6.1314">
        <ele>1330.1213379</ele>
        <time>2013-05-24T12:19:33Z</time>
      </trkpt>
      <trkpt lat="44.39557" lon="6.13141">
        <ele>1327.2375488</ele>
        <time>2013-05-24T12:19:47Z</time>
      </trkpt>
      <trkpt lat="44.39575" lon="6.1314">
        <ele>1323.8725586</ele>
        <time>2013-05-24T12:19:55Z</time>
      </trkpt>
      <trkpt lat="44.39577" lon="6.1314">
        <ele>1323.8725586</ele>
        <time>2013-05-24T12:19:56Z</time>
      </trkpt>
      <trkpt lat="44.39589" lon="6.1314">
        <ele>1321.4692383</ele>
        <time>2013-05-24T12:20:00Z</time>
      </trkpt>
      <trkpt lat="44.39624" lon="6.13137">
        <ele>1319.546875</ele>
        <time>2013-05-24T12:20:12Z</time>
      </trkpt>
      <trkpt lat="44.39639" lon="6.13136">
        <ele>1318.5854492</ele>
        <time>2013-05-24T12:20:19Z</time>
      </trkpt>
      <trkpt lat="44.39643" lon="6.13136">
        <ele>1317.6240234</ele>
        <time>2013-05-24T12:20:22Z</time>
      </trkpt>
      <trkpt lat="44.39691" lon="6.13135">
        <ele>1314.2595215</ele>
        <time>2013-05-24T12:20:38Z</time>
      </trkpt>
      <trkpt lat="44.39705" lon="6.13134">
        <ele>1312.817627</ele>
        <time>2013-05-24T12:20:51Z</time>
      </trkpt>
      <trkpt lat="44.39705" lon="6.13134">
        <ele>1316.1821289</ele>
        <time>2013-05-24T12:20:52Z</time>
      </trkpt>
      <trkpt lat="44.39705" lon="6.13134">
        <ele>1315.7016602</ele>
        <time>2013-05-24T12:20:53Z</time>
      </trkpt>
      <trkpt lat="44.39705" lon="6.13134">
        <ele>1316.1821289</ele>
        <time>2013-05-24T12:21:09Z</time>
      </trkpt>
      <trkpt lat="44.39705" lon="6.13134">
        <ele>1316.1821289</ele>
        <time>2013-05-24T12:21:15Z</time>
      </trkpt>
      <trkpt lat="44.39705" lon="6.13134">
        <ele>1313.7788086</ele>
        <time>2013-05-24T12:21:26Z</time>
      </trkpt>
      <trkpt lat="44.39705" lon="6.13134">
        <ele>1310.8950195</ele>
        <time>2013-05-24T12:21:38Z</time>
      </trkpt>
      <trkpt lat="44.39705" lon="6.13134">
        <ele>1310.4143066</ele>
        <time>2013-05-24T12:21:59Z</time>
      </trkpt>
      <trkpt lat="44.39705" lon="6.13134">
        <ele>1311.3757324</ele>
        <time>2013-05-24T12:22:17Z</time>
      </trkpt>
      <trkpt lat="44.39705" lon="6.13134">
        <ele>1310.4143066</ele>
        <time>2013-05-24T12:22:34Z</time>
      </trkpt>
      <trkpt lat="44.39667" lon="6.13177">
        <ele>1308.0112305</ele>
        <time>2013-05-24T12:22:42Z</time>
      </trkpt>
      <trkpt lat="44.39665" lon="6.13179">
        <ele>1308.9724121</ele>
        <time>2013-05-24T12:22:55Z</time>
      </trkpt>
      <trkpt lat="44.39665" lon="6.13179">
        <ele>1310.4143066</ele>
        <time>2013-05-24T12:23:35Z</time>
      </trkpt>
      <trkpt lat="44.39665" lon="6.13179">
        <ele>1310.8950195</ele>
        <time>2013-05-24T12:23:49Z</time>
      </trkpt>
      <trkpt lat="44.39654" lon="6.13185">
        <ele>1310.4143066</ele>
        <time>2013-05-24T12:24:03Z</time>
      </trkpt>
      <trkpt lat="44.39643" lon="6.13182">
        <ele>1309.453125</ele>
        <time>2013-05-24T12:24:10Z</time>
      </trkpt>
      <trkpt lat="44.39639" lon="6.13181">
        <ele>1305.607666</ele>
        <time>2013-05-24T12:24:11Z</time>
      </trkpt>
      <trkpt lat="44.39639" lon="6.13181">
        <ele>1306.0881348</ele>
        <time>2013-05-24T12:24:12Z</time>
      </trkpt>
      <trkpt lat="44.39639" lon="6.13181">
        <ele>1305.1269531</ele>
        <time>2013-05-24T12:24:14Z</time>
      </trkpt>
      <trkpt lat="44.39622" lon="6.13192">
        <ele>1303.6850586</ele>
        <time>2013-05-24T12:24:20Z</time>
      </trkpt>
      <trkpt lat="44.39622" lon="6.13195">
        <ele>1303.6850586</ele>
        <time>2013-05-24T12:24:21Z</time>
      </trkpt>
      <trkpt lat="44.39618" lon="6.13212">
        <ele>1302.7236328</ele>
        <time>2013-05-24T12:24:35Z</time>
      </trkpt>
      <trkpt lat="44.39618" lon="6.13212">
        <ele>1301.7624512</ele>
        <time>2013-05-24T12:24:48Z</time>
      </trkpt>
      <trkpt lat="44.39618" lon="6.13212">
        <ele>1301.7624512</ele>
        <time>2013-05-24T12:25:06Z</time>
      </trkpt>
      <trkpt lat="44.39586" lon="6.13241">
        <ele>1298.878418</ele>
        <time>2013-05-24T12:25:22Z</time>
      </trkpt>
      <trkpt lat="44.39576" lon="6.13253">
        <ele>1295.513916</ele>
        <time>2013-05-24T12:25:33Z</time>
      </trkpt>
      <trkpt lat="44.39566" lon="6.13262">
        <ele>1292.1494141</ele>
        <time>2013-05-24T12:25:42Z</time>
      </trkpt>
      <trkpt lat="44.39561" lon="6.13265">
        <ele>1290.2265625</ele>
        <time>2013-05-24T12:25:45Z</time>
      </trkpt>
      <trkpt lat="44.39558" lon="6.13267">
        <ele>1288.3039551</ele>
        <time>2013-05-24T12:25:48Z</time>
      </trkpt>
      <trkpt lat="44.39547" lon="6.13275">
        <ele>1284.9394531</ele>
        <time>2013-05-24T12:25:54Z</time>
      </trkpt>
      <trkpt lat="44.39545" lon="6.13276">
        <ele>1284.9394531</ele>
        <time>2013-05-24T12:25:55Z</time>
      </trkpt>
      <trkpt lat="44.39537" lon="6.13282">
        <ele>1281.0942383</ele>
        <time>2013-05-24T12:26:01Z</time>
      </trkpt>
      <trkpt lat="44.39535" lon="6.13283">
        <ele>1281.0942383</ele>
        <time>2013-05-24T12:26:02Z</time>
      </trkpt>
      <trkpt lat="44.39527" lon="6.13289">
        <ele>1278.690918</ele>
        <time>2013-05-24T12:26:06Z</time>
      </trkpt>
      <trkpt lat="44.39516" lon="6.13297">
        <ele>1275.3259277</ele>
        <time>2013-05-24T12:26:12Z</time>
      </trkpt>
      <trkpt lat="44.39513" lon="6.13299">
        <ele>1274.3647461</ele>
        <time>2013-05-24T12:26:14Z</time>
      </trkpt>
      <trkpt lat="44.39513" lon="6.13305">
        <ele>1272.9228516</ele>
        <time>2013-05-24T12:26:17Z</time>
      </trkpt>
      <trkpt lat="44.39517" lon="6.13307">
        <ele>1272.4421387</ele>
        <time>2013-05-24T12:26:21Z</time>
      </trkpt>
      <trkpt lat="44.39528" lon="6.13307">
        <ele>1268.5969238</ele>
        <time>2013-05-24T12:26:31Z</time>
      </trkpt>
      <trkpt lat="44.39528" lon="6.13307">
        <ele>1268.5969238</ele>
        <time>2013-05-24T12:26:32Z</time>
      </trkpt>
      <trkpt lat="44.39528" lon="6.13307">
        <ele>1268.5969238</ele>
        <time>2013-05-24T12:26:34Z</time>
      </trkpt>
      <trkpt lat="44.3954" lon="6.13308">
        <ele>1266.6743164</ele>
        <time>2013-05-24T12:26:39Z</time>
      </trkpt>
      <trkpt lat="44.39553" lon="6.13314">
        <ele>1263.3098145</ele>
        <time>2013-05-24T12:26:46Z</time>
      </trkpt>
      <trkpt lat="44.39563" lon="6.13317">
        <ele>1261.8679199</ele>
        <time>2013-05-24T12:26:50Z</time>
      </trkpt>
      <trkpt lat="44.39583" lon="6.13337">
        <ele>1259.4643555</ele>
        <time>2013-05-24T12:27:00Z</time>
      </trkpt>
      <trkpt lat="44.3959" lon="6.13344">
        <ele>1256.0996094</ele>
        <time>2013-05-24T12:27:07Z</time>
      </trkpt>
      <trkpt lat="44.3959" lon="6.13344">
        <ele>1256.0996094</ele>
        <time>2013-05-24T12:27:08Z</time>
      </trkpt>
      <trkpt lat="44.39602" lon="6.13355">
        <ele>1252.7351074</ele>
        <time>2013-05-24T12:27:17Z</time>
      </trkpt>
      <trkpt lat="44.3961" lon="6.13364">
        <ele>1249.8513184</ele>
        <time>2013-05-24T12:27:26Z</time>
      </trkpt>
      <trkpt lat="44.3961" lon="6.13372">
        <ele>1248.4091797</ele>
        <time>2013-05-24T12:27:30Z</time>
      </trkpt>
      <trkpt lat="44.39609" lon="6.13372">
        <ele>1247.447998</ele>
        <time>2013-05-24T12:27:32Z</time>
      </trkpt>
      <trkpt lat="44.39609" lon="6.13374">
        <ele>1246.9672852</ele>
        <time>2013-05-24T12:27:33Z</time>
      </trkpt>
      <trkpt lat="44.39606" lon="6.13379">
        <ele>1246.0061035</ele>
        <time>2013-05-24T12:27:36Z</time>
      </trkpt>
      <trkpt lat="44.39606" lon="6.1338">
        <ele>1245.5253906</ele>
        <time>2013-05-24T12:27:37Z</time>
      </trkpt>
      <trkpt lat="44.39598" lon="6.13381">
        <ele>1244.5639648</ele>
        <time>2013-05-24T12:27:41Z</time>
      </trkpt>
      <trkpt lat="44.3959" lon="6.13381">
        <ele>1242.6413574</ele>
        <time>2013-05-24T12:27:46Z</time>
      </trkpt>
      <trkpt lat="44.39578" lon="6.13377">
        <ele>1239.7573242</ele>
        <time>2013-05-24T12:27:52Z</time>
      </trkpt>
      <trkpt lat="44.39576" lon="6.13376">
        <ele>1239.7573242</ele>
        <time>2013-05-24T12:27:53Z</time>
      </trkpt>
      <trkpt lat="44.39573" lon="6.13373">
        <ele>1238.3154297</ele>
        <time>2013-05-24T12:27:55Z</time>
      </trkpt>
      <trkpt lat="44.39571" lon="6.13372">
        <ele>1238.3154297</ele>
        <time>2013-05-24T12:27:57Z</time>
      </trkpt>
      <trkpt lat="44.39566" lon="6.13368">
        <ele>1236.873291</ele>
        <time>2013-05-24T12:28:00Z</time>
      </trkpt>
      <trkpt lat="44.3955" lon="6.13369">
        <ele>1232.5476074</ele>
        <time>2013-05-24T12:28:08Z</time>
      </trkpt>
      <trkpt lat="44.39549" lon="6.13371">
        <ele>1232.5476074</ele>
        <time>2013-05-24T12:28:09Z</time>
      </trkpt>
      <trkpt lat="44.39546" lon="6.13376">
        <ele>1232.0668945</ele>
        <time>2013-05-24T12:28:11Z</time>
      </trkpt>
      <trkpt lat="44.39537" lon="6.13386">
        <ele>1229.6635742</ele>
        <time>2013-05-24T12:28:16Z</time>
      </trkpt>
      <trkpt lat="44.3953" lon="6.13393">
        <ele>1227.7407227</ele>
        <time>2013-05-24T12:28:20Z</time>
      </trkpt>
      <trkpt lat="44.39526" lon="6.13401">
        <ele>1225.8181152</ele>
        <time>2013-05-24T12:28:23Z</time>
      </trkpt>
      <trkpt lat="44.39523" lon="6.13406">
        <ele>1224.3762207</ele>
        <time>2013-05-24T12:28:25Z</time>
      </trkpt>
      <trkpt lat="44.39516" lon="6.13419">
        <ele>1221.9729004</ele>
        <time>2013-05-24T12:28:30Z</time>
      </trkpt>
      <trkpt lat="44.39509" lon="6.13434">
        <ele>1219.0891113</ele>
        <time>2013-05-24T12:28:37Z</time>
      </trkpt>
      <trkpt lat="44.39506" lon="6.13439">
        <ele>1218.1276855</ele>
        <time>2013-05-24T12:28:39Z</time>
      </trkpt>
      <trkpt lat="44.39509" lon="6.13446">
        <ele>1216.685791</ele>
        <time>2013-05-24T12:28:49Z</time>
      </trkpt>
      <trkpt lat="44.3951" lon="6.13446">
        <ele>1216.685791</ele>
        <time>2013-05-24T12:28:58Z</time>
      </trkpt>
      <trkpt lat="44.39516" lon="6.13444">
        <ele>1215.2438965</ele>
        <time>2013-05-24T12:29:02Z</time>
      </trkpt>
      <trkpt lat="44.39523" lon="6.13441">
        <ele>1211.8791504</ele>
        <time>2013-05-24T12:29:06Z</time>
      </trkpt>
      <trkpt lat="44.39524" lon="6.13441">
        <ele>1211.8791504</ele>
        <time>2013-05-24T12:29:07Z</time>
      </trkpt>
      <trkpt lat="44.39535" lon="6.13437">
        <ele>1208.5144043</ele>
        <time>2013-05-24T12:29:17Z</time>
      </trkpt>
      <trkpt lat="44.3954" lon="6.13434">
        <ele>1207.0725098</ele>
        <time>2013-05-24T12:29:21Z</time>
      </trkpt>
      <trkpt lat="44.39542" lon="6.13433">
        <ele>1206.5917969</ele>
        <time>2013-05-24T12:29:24Z</time>
      </trkpt>
      <trkpt lat="44.39545" lon="6.13438">
        <ele>1205.1499023</ele>
        <time>2013-05-24T12:29:28Z</time>
      </trkpt>
      <trkpt lat="44.39545" lon="6.13441">
        <ele>1203.2272949</ele>
        <time>2013-05-24T12:29:38Z</time>
      </trkpt>
      <trkpt lat="44.39539" lon="6.13451">
        <ele>1201.7854004</ele>
        <time>2013-05-24T12:29:44Z</time>
      </trkpt>
      <trkpt lat="44.39536" lon="6.13454">
        <ele>1200.3435059</ele>
        <time>2013-05-24T12:29:46Z</time>
      </trkpt>
      <trkpt lat="44.39532" lon="6.13467">
        <ele>1198.4206543</ele>
        <time>2013-05-24T12:29:51Z</time>
      </trkpt>
      <trkpt lat="44.3953" lon="6.13473">
        <ele>1196.9787598</ele>
        <time>2013-05-24T12:29:53Z</time>
      </trkpt>
      <trkpt lat="44.39527" lon="6.13481">
        <ele>1194.5751953</ele>
        <time>2013-05-24T12:30:05Z</time>
      </trkpt>
      <trkpt lat="44.39522" lon="6.1349">
        <ele>1192.652832</ele>
        <time>2013-05-24T12:30:19Z</time>
      </trkpt>
      <trkpt lat="44.39513" lon="6.13497">
        <ele>1191.2106934</ele>
        <time>2013-05-24T12:30:25Z</time>
      </trkpt>
      <trkpt lat="44.39509" lon="6.13501">
        <ele>1189.2880859</ele>
        <time>2013-05-24T12:30:28Z</time>
      </trkpt>
      <trkpt lat="44.39502" lon="6.13512">
        <ele>1185.923584</ele>
        <time>2013-05-24T12:30:34Z</time>
      </trkpt>
      <trkpt lat="44.39501" lon="6.13513">
        <ele>1185.923584</ele>
        <time>2013-05-24T12:30:35Z</time>
      </trkpt>
      <trkpt lat="44.395" lon="6.13519">
        <ele>1184.4816895</ele>
        <time>2013-05-24T12:30:37Z</time>
      </trkpt>
      <trkpt lat="44.39497" lon="6.13527">
        <ele>1183.0395508</ele>
        <time>2013-05-24T12:30:39Z</time>
      </trkpt>
      <trkpt lat="44.39494" lon="6.13532">
        <ele>1183.5202637</ele>
        <time>2013-05-24T12:30:45Z</time>
      </trkpt>
      <trkpt lat="44.39484" lon="6.13547">
        <ele>1186.4042969</ele>
        <time>2013-05-24T12:31:01Z</time>
      </trkpt>
      <trkpt lat="44.39472" lon="6.13557">
        <ele>1188.8076172</ele>
        <time>2013-05-24T12:31:18Z</time>
      </trkpt>
      <trkpt lat="44.39457" lon="6.13573">
        <ele>1190.2495117</ele>
        <time>2013-05-24T12:31:40Z</time>
      </trkpt>
      <trkpt lat="44.39457" lon="6.13574">
        <ele>1190.7299805</ele>
        <time>2013-05-24T12:31:41Z</time>
      </trkpt>
      <trkpt lat="44.39453" lon="6.13587">
        <ele>1193.1333008</ele>
        <time>2013-05-24T12:32:05Z</time>
      </trkpt>
      <trkpt lat="44.39453" lon="6.13588">
        <ele>1192.652832</ele>
        <time>2013-05-24T12:32:10Z</time>
      </trkpt>
      <trkpt lat="44.3945" lon="6.13597">
        <ele>1192.1721191</ele>
        <time>2013-05-24T12:32:14Z</time>
      </trkpt>
      <trkpt lat="44.39454" lon="6.13626">
        <ele>1191.6914063</ele>
        <time>2013-05-24T12:32:22Z</time>
      </trkpt>
      <trkpt lat="44.39451" lon="6.13641">
        <ele>1189.2880859</ele>
        <time>2013-05-24T12:32:28Z</time>
      </trkpt>
      <trkpt lat="44.39446" lon="6.13652">
        <ele>1186.8847656</ele>
        <time>2013-05-24T12:32:33Z</time>
      </trkpt>
      <trkpt lat="44.39439" lon="6.13664">
        <ele>1184.0009766</ele>
        <time>2013-05-24T12:32:40Z</time>
      </trkpt>
      <trkpt lat="44.39432" lon="6.13682">
        <ele>1182.0783691</ele>
        <time>2013-05-24T12:32:57Z</time>
      </trkpt>
      <trkpt lat="44.39432" lon="6.13688">
        <ele>1181.5976563</ele>
        <time>2013-05-24T12:33:10Z</time>
      </trkpt>
      <trkpt lat="44.39423" lon="6.13711">
        <ele>1178.713623</ele>
        <time>2013-05-24T12:33:23Z</time>
      </trkpt>
      <trkpt lat="44.39415" lon="6.13724">
        <ele>1176.3103027</ele>
        <time>2013-05-24T12:33:31Z</time>
      </trkpt>
      <trkpt lat="44.39408" lon="6.13733">
        <ele>1172.9458008</ele>
        <time>2013-05-24T12:33:39Z</time>
      </trkpt>
      <trkpt lat="44.39406" lon="6.13735">
        <ele>1172.4650879</ele>
        <time>2013-05-24T12:33:56Z</time>
      </trkpt>
      <trkpt lat="44.39397" lon="6.1374">
        <ele>1170.0617676</ele>
        <time>2013-05-24T12:34:01Z</time>
      </trkpt>
      <trkpt lat="44.39385" lon="6.13749">
        <ele>1166.2165527</ele>
        <time>2013-05-24T12:34:07Z</time>
      </trkpt>
      <trkpt lat="44.39382" lon="6.13752">
        <ele>1166.2165527</ele>
        <time>2013-05-24T12:34:08Z</time>
      </trkpt>
      <trkpt lat="44.39378" lon="6.13758">
        <ele>1164.7746582</ele>
        <time>2013-05-24T12:34:10Z</time>
      </trkpt>
      <trkpt lat="44.39375" lon="6.13767">
        <ele>1163.3325195</ele>
        <time>2013-05-24T12:34:12Z</time>
      </trkpt>
      <trkpt lat="44.39373" lon="6.1378">
        <ele>1161.4099121</ele>
        <time>2013-05-24T12:34:15Z</time>
      </trkpt>
      <trkpt lat="44.39367" lon="6.13804">
        <ele>1158.0454102</ele>
        <time>2013-05-24T12:34:21Z</time>
      </trkpt>
      <trkpt lat="44.39366" lon="6.13807">
        <ele>1158.0454102</ele>
        <time>2013-05-24T12:34:22Z</time>
      </trkpt>
      <trkpt lat="44.39354" lon="6.13836">
        <ele>1154.2001953</ele>
        <time>2013-05-24T12:34:30Z</time>
      </trkpt>
      <trkpt lat="44.39352" lon="6.13839">
        <ele>1154.2001953</ele>
        <time>2013-05-24T12:34:31Z</time>
      </trkpt>
      <trkpt lat="44.39348" lon="6.13859">
        <ele>1150.8354492</ele>
        <time>2013-05-24T12:34:37Z</time>
      </trkpt>
      <trkpt lat="44.39348" lon="6.13867">
        <ele>1149.3935547</ele>
        <time>2013-05-24T12:34:40Z</time>
      </trkpt>
      <trkpt lat="44.39359" lon="6.13889">
        <ele>1146.5095215</ele>
        <time>2013-05-24T12:34:50Z</time>
      </trkpt>
      <trkpt lat="44.39373" lon="6.13919">
        <ele>1143.6254883</ele>
        <time>2013-05-24T12:35:02Z</time>
      </trkpt>
      <trkpt lat="44.3938" lon="6.13945">
        <ele>1139.2995605</ele>
        <time>2013-05-24T12:35:12Z</time>
      </trkpt>
      <trkpt lat="44.39381" lon="6.13948">
        <ele>1139.2995605</ele>
        <time>2013-05-24T12:35:13Z</time>
      </trkpt>
      <trkpt lat="44.39388" lon="6.13967">
        <ele>1135.4543457</ele>
        <time>2013-05-24T12:35:23Z</time>
      </trkpt>
      <trkpt lat="44.39392" lon="6.13973">
        <ele>1134.973877</ele>
        <time>2013-05-24T12:35:26Z</time>
      </trkpt>
      <trkpt lat="44.39397" lon="6.13975">
        <ele>1133.0510254</ele>
        <time>2013-05-24T12:35:30Z</time>
      </trkpt>
      <trkpt lat="44.39404" lon="6.1397">
        <ele>1131.128418</ele>
        <time>2013-05-24T12:35:35Z</time>
      </trkpt>
      <trkpt lat="44.39406" lon="6.13968">
        <ele>1131.128418</ele>
        <time>2013-05-24T12:35:36Z</time>
      </trkpt>
      <trkpt lat="44.39427" lon="6.1395">
        <ele>1126.3217773</ele>
        <time>2013-05-24T12:35:48Z</time>
      </trkpt>
      <trkpt lat="44.39441" lon="6.13943">
        <ele>1122.9572754</ele>
        <time>2013-05-24T12:35:56Z</time>
      </trkpt>
      <trkpt lat="44.39465" lon="6.1395">
        <ele>1119.5927734</ele>
        <time>2013-05-24T12:36:07Z</time>
      </trkpt>
      <trkpt lat="44.39484" lon="6.13965">
        <ele>1115.7473145</ele>
        <time>2013-05-24T12:36:18Z</time>
      </trkpt>
      <trkpt lat="44.39499" lon="6.13979">
        <ele>1112.8632813</ele>
        <time>2013-05-24T12:36:32Z</time>
      </trkpt>
      <trkpt lat="44.39505" lon="6.13988">
        <ele>1111.4213867</ele>
        <time>2013-05-24T12:36:46Z</time>
      </trkpt>
      <trkpt lat="44.39507" lon="6.13997">
        <ele>1109.979248</ele>
        <time>2013-05-24T12:37:02Z</time>
      </trkpt>
      <trkpt lat="44.3952" lon="6.14023">
        <ele>1109.979248</ele>
        <time>2013-05-24T12:37:12Z</time>
      </trkpt>
      <trkpt lat="44.39528" lon="6.14075">
        <ele>1111.4213867</ele>
        <time>2013-05-24T12:37:29Z</time>
      </trkpt>
      <trkpt lat="44.39511" lon="6.14131">
        <ele>1110.9406738</ele>
        <time>2013-05-24T12:37:48Z</time>
      </trkpt>
      <trkpt lat="44.39517" lon="6.14161">
        <ele>1107.5761719</ele>
        <time>2013-05-24T12:38:00Z</time>
      </trkpt>
      <trkpt lat="44.39534" lon="6.14165">
        <ele>1104.2116699</ele>
        <time>2013-05-24T12:38:10Z</time>
      </trkpt>
      <trkpt lat="44.39546" lon="6.14159">
        <ele>1101.8083496</ele>
        <time>2013-05-24T12:38:18Z</time>
      </trkpt>
      <trkpt lat="44.39564" lon="6.14149">
        <ele>1098.4433594</ele>
        <time>2013-05-24T12:38:30Z</time>
      </trkpt>
      <trkpt lat="44.39565" lon="6.14149">
        <ele>1098.4433594</ele>
        <time>2013-05-24T12:38:31Z</time>
      </trkpt>
      <trkpt lat="44.39572" lon="6.14144">
        <ele>1097.0014648</ele>
        <time>2013-05-24T12:38:38Z</time>
      </trkpt>
      <trkpt lat="44.39586" lon="6.14154">
        <ele>1093.6369629</ele>
        <time>2013-05-24T12:38:47Z</time>
      </trkpt>
      <trkpt lat="44.39589" lon="6.14155">
        <ele>1092.6757813</ele>
        <time>2013-05-24T12:39:06Z</time>
      </trkpt>
      <trkpt lat="44.39596" lon="6.14163">
        <ele>1092.6757813</ele>
        <time>2013-05-24T12:39:21Z</time>
      </trkpt>
      <trkpt lat="44.39597" lon="6.1419">
        <ele>1093.15625</ele>
        <time>2013-05-24T12:39:38Z</time>
      </trkpt>
      <trkpt lat="44.39597" lon="6.14193">
        <ele>1092.1950684</ele>
        <time>2013-05-24T12:39:56Z</time>
      </trkpt>
      <trkpt lat="44.39597" lon="6.14193">
        <ele>1092.1950684</ele>
        <time>2013-05-24T12:39:57Z</time>
      </trkpt>
      <trkpt lat="44.39597" lon="6.142">
        <ele>1095.0788574</ele>
        <time>2013-05-24T12:40:02Z</time>
      </trkpt>
      <trkpt lat="44.39597" lon="6.14203">
        <ele>1093.15625</ele>
        <time>2013-05-24T12:40:04Z</time>
      </trkpt>
      <trkpt lat="44.39597" lon="6.14208">
        <ele>1094.5981445</ele>
        <time>2013-05-24T12:40:07Z</time>
      </trkpt>
      <trkpt lat="44.39595" lon="6.14234">
        <ele>1096.0402832</ele>
        <time>2013-05-24T12:40:25Z</time>
      </trkpt>
      <trkpt lat="44.39592" lon="6.14257">
        <ele>1099.885498</ele>
        <time>2013-05-24T12:40:47Z</time>
      </trkpt>
      <trkpt lat="44.39593" lon="6.14275">
        <ele>1102.7695313</ele>
        <time>2013-05-24T12:41:04Z</time>
      </trkpt>
      <trkpt lat="44.39594" lon="6.14281">
        <ele>1104.6921387</ele>
        <time>2013-05-24T12:41:09Z</time>
      </trkpt>
      <trkpt lat="44.39597" lon="6.14288">
        <ele>1106.6147461</ele>
        <time>2013-05-24T12:41:18Z</time>
      </trkpt>
      <trkpt lat="44.39597" lon="6.14289">
        <ele>1105.6535645</ele>
        <time>2013-05-24T12:41:20Z</time>
      </trkpt>
      <trkpt lat="44.39596" lon="6.14296">
        <ele>1105.1728516</ele>
        <time>2013-05-24T12:41:28Z</time>
      </trkpt>
      <trkpt lat="44.39589" lon="6.14314">
        <ele>1102.7695313</ele>
        <time>2013-05-24T12:41:35Z</time>
      </trkpt>
      <trkpt lat="44.39581" lon="6.14333">
        <ele>1100.8469238</ele>
        <time>2013-05-24T12:41:44Z</time>
      </trkpt>
      <trkpt lat="44.39577" lon="6.14351">
        <ele>1099.4047852</ele>
        <time>2013-05-24T12:41:51Z</time>
      </trkpt>
      <trkpt lat="44.39577" lon="6.14376">
        <ele>1095.5595703</ele>
        <time>2013-05-24T12:42:01Z</time>
      </trkpt>
      <trkpt lat="44.39577" lon="6.14379">
        <ele>1095.5595703</ele>
        <time>2013-05-24T12:42:02Z</time>
      </trkpt>
      <trkpt lat="44.39577" lon="6.14387">
        <ele>1094.1176758</ele>
        <time>2013-05-24T12:42:05Z</time>
      </trkpt>
      <trkpt lat="44.39576" lon="6.14407">
        <ele>1091.2336426</ele>
        <time>2013-05-24T12:42:14Z</time>
      </trkpt>
      <trkpt lat="44.39574" lon="6.14432">
        <ele>1088.3498535</ele>
        <time>2013-05-24T12:42:24Z</time>
      </trkpt>
      <trkpt lat="44.39564" lon="6.14443">
        <ele>1086.9077148</ele>
        <time>2013-05-24T12:42:30Z</time>
      </trkpt>
      <trkpt lat="44.39554" lon="6.14445">
        <ele>1086.4272461</ele>
        <time>2013-05-24T12:42:35Z</time>
      </trkpt>
      <trkpt lat="44.39557" lon="6.14462">
        <ele>1084.5046387</ele>
        <time>2013-05-24T12:42:44Z</time>
      </trkpt>
      <trkpt lat="44.3956" lon="6.14461">
        <ele>1083.5429688</ele>
        <time>2013-05-24T12:42:46Z</time>
      </trkpt>
      <trkpt lat="44.39571" lon="6.14459">
        <ele>1082.1010742</ele>
        <time>2013-05-24T12:42:51Z</time>
      </trkpt>
      <trkpt lat="44.39576" lon="6.14477">
        <ele>1080.6591797</ele>
        <time>2013-05-24T12:43:00Z</time>
      </trkpt>
      <trkpt lat="44.39573" lon="6.1448">
        <ele>1080.6591797</ele>
        <time>2013-05-24T12:43:01Z</time>
      </trkpt>
      <trkpt lat="44.39569" lon="6.14486">
        <ele>1079.6977539</ele>
        <time>2013-05-24T12:43:03Z</time>
      </trkpt>
      <trkpt lat="44.39548" lon="6.14515">
        <ele>1077.7751465</ele>
        <time>2013-05-24T12:43:12Z</time>
      </trkpt>
      <trkpt lat="44.39533" lon="6.14531">
        <ele>1075.3718262</ele>
        <time>2013-05-24T12:43:17Z</time>
      </trkpt>
      <trkpt lat="44.39522" lon="6.1454">
        <ele>1074.8913574</ele>
        <time>2013-05-24T12:43:26Z</time>
      </trkpt>
      <trkpt lat="44.39522" lon="6.1454">
        <ele>1073.4494629</ele>
        <time>2013-05-24T12:43:53Z</time>
      </trkpt>
      <trkpt lat="44.39522" lon="6.1454">
        <ele>1073.4494629</ele>
        <time>2013-05-24T12:44:26Z</time>
      </trkpt>
      <trkpt lat="44.39522" lon="6.1454">
        <ele>1073.9299316</ele>
        <time>2013-05-24T12:44:38Z</time>
      </trkpt>
      <trkpt lat="44.39508" lon="6.14552">
        <ele>1072.4880371</ele>
        <time>2013-05-24T12:44:54Z</time>
      </trkpt>
      <trkpt lat="44.39497" lon="6.14562">
        <ele>1072.4880371</ele>
        <time>2013-05-24T12:44:59Z</time>
      </trkpt>
      <trkpt lat="44.39482" lon="6.14589">
        <ele>1072.96875</ele>
        <time>2013-05-24T12:45:05Z</time>
      </trkpt>
      <trkpt lat="44.39481" lon="6.14604">
        <ele>1070.5654297</ele>
        <time>2013-05-24T12:45:07Z</time>
      </trkpt>
      <trkpt lat="44.39481" lon="6.14627">
        <ele>1068.6428223</ele>
        <time>2013-05-24T12:45:10Z</time>
      </trkpt>
      <trkpt lat="44.39482" lon="6.1464">
        <ele>1068.1621094</ele>
        <time>2013-05-24T12:45:12Z</time>
      </trkpt>
      <trkpt lat="44.39485" lon="6.14652">
        <ele>1067.2006836</ele>
        <time>2013-05-24T12:45:14Z</time>
      </trkpt>
      <trkpt lat="44.39489" lon="6.14675">
        <ele>1065.2780762</ele>
        <time>2013-05-24T12:45:17Z</time>
      </trkpt>
      <trkpt lat="44.39481" lon="6.14705">
        <ele>1061.9135742</ele>
        <time>2013-05-24T12:45:21Z</time>
      </trkpt>
      <trkpt lat="44.39476" lon="6.14711">
        <ele>1061.9135742</ele>
        <time>2013-05-24T12:45:22Z</time>
      </trkpt>
      <trkpt lat="44.39472" lon="6.14717">
        <ele>1059.9907227</ele>
        <time>2013-05-24T12:45:23Z</time>
      </trkpt>
      <trkpt lat="44.39456" lon="6.14764">
        <ele>1055.6650391</ele>
        <time>2013-05-24T12:45:30Z</time>
      </trkpt>
      <trkpt lat="44.39455" lon="6.14773">
        <ele>1055.6650391</ele>
        <time>2013-05-24T12:45:31Z</time>
      </trkpt>
      <trkpt lat="44.39461" lon="6.14821">
        <ele>1052.300293</ele>
        <time>2013-05-24T12:45:37Z</time>
      </trkpt>
      <trkpt lat="44.3947" lon="6.14839">
        <ele>1050.8581543</ele>
        <time>2013-05-24T12:45:40Z</time>
      </trkpt>
      <trkpt lat="44.39477" lon="6.14852">
        <ele>1049.4162598</ele>
        <time>2013-05-24T12:45:44Z</time>
      </trkpt>
      <trkpt lat="44.39481" lon="6.14862">
        <ele>1048.9355469</ele>
        <time>2013-05-24T12:45:55Z</time>
      </trkpt>
      <trkpt lat="44.39484" lon="6.14889">
        <ele>1046.0517578</ele>
        <time>2013-05-24T12:45:59Z</time>
      </trkpt>
      <trkpt lat="44.39481" lon="6.14905">
        <ele>1045.5710449</ele>
        <time>2013-05-24T12:46:01Z</time>
      </trkpt>
      <trkpt lat="44.39481" lon="6.1492">
        <ele>1044.1291504</ele>
        <time>2013-05-24T12:46:03Z</time>
      </trkpt>
      <trkpt lat="44.39482" lon="6.14944">
        <ele>1042.6872559</ele>
        <time>2013-05-24T12:46:06Z</time>
      </trkpt>
      <trkpt lat="44.3948" lon="6.14973">
        <ele>1040.7644043</ele>
        <time>2013-05-24T12:46:10Z</time>
      </trkpt>
      <trkpt lat="44.39472" lon="6.14985">
        <ele>1040.7644043</ele>
        <time>2013-05-24T12:46:12Z</time>
      </trkpt>
      <trkpt lat="44.39462" lon="6.14995">
        <ele>1038.842041</ele>
        <time>2013-05-24T12:46:14Z</time>
      </trkpt>
      <trkpt lat="44.39451" lon="6.15033">
        <ele>1039.8032227</ele>
        <time>2013-05-24T12:46:19Z</time>
      </trkpt>
      <trkpt lat="44.39451" lon="6.1505">
        <ele>1038.842041</ele>
        <time>2013-05-24T12:46:21Z</time>
      </trkpt>
      <trkpt lat="44.39454" lon="6.15087">
        <ele>1037.8806152</ele>
        <time>2013-05-24T12:46:26Z</time>
      </trkpt>
      <trkpt lat="44.39459" lon="6.15135">
        <ele>1038.3613281</ele>
        <time>2013-05-24T12:46:32Z</time>
      </trkpt>
      <trkpt lat="44.39469" lon="6.15168">
        <ele>1037.8806152</ele>
        <time>2013-05-24T12:46:37Z</time>
      </trkpt>
      <trkpt lat="44.39484" lon="6.15182">
        <ele>1038.3613281</ele>
        <time>2013-05-24T12:46:41Z</time>
      </trkpt>
      <trkpt lat="44.3953" lon="6.15193">
        <ele>1037.8806152</ele>
        <time>2013-05-24T12:46:54Z</time>
      </trkpt>
      <trkpt lat="44.39566" lon="6.15192">
        <ele>1039.3225098</ele>
        <time>2013-05-24T12:47:06Z</time>
      </trkpt>
      <trkpt lat="44.39573" lon="6.15207">
        <ele>1039.3225098</ele>
        <time>2013-05-24T12:47:10Z</time>
      </trkpt>
      <trkpt lat="44.39577" lon="6.15271">
        <ele>1040.2839355</ele>
        <time>2013-05-24T12:47:22Z</time>
      </trkpt>
      <trkpt lat="44.39592" lon="6.15317">
        <ele>1039.8032227</ele>
        <time>2013-05-24T12:47:32Z</time>
      </trkpt>
      <trkpt lat="44.39591" lon="6.15357">
        <ele>1037.8806152</ele>
        <time>2013-05-24T12:47:38Z</time>
      </trkpt>
      <trkpt lat="44.39573" lon="6.1537">
        <ele>1035.9577637</ele>
        <time>2013-05-24T12:47:43Z</time>
      </trkpt>
      <trkpt lat="44.39557" lon="6.15375">
        <ele>1033.5544434</ele>
        <time>2013-05-24T12:47:46Z</time>
      </trkpt>
      <trkpt lat="44.39548" lon="6.15407">
        <ele>1033.5544434</ele>
        <time>2013-05-24T12:47:53Z</time>
      </trkpt>
      <trkpt lat="44.39554" lon="6.15414">
        <ele>1033.5544434</ele>
        <time>2013-05-24T12:47:55Z</time>
      </trkpt>
      <trkpt lat="44.39579" lon="6.15456">
        <ele>1035.9577637</ele>
        <time>2013-05-24T12:48:07Z</time>
      </trkpt>
      <trkpt lat="44.39588" lon="6.15513">
        <ele>1037.3999023</ele>
        <time>2013-05-24T12:48:22Z</time>
      </trkpt>
      <trkpt lat="44.39605" lon="6.15578">
        <ele>1038.842041</ele>
        <time>2013-05-24T12:48:40Z</time>
      </trkpt>
      <trkpt lat="44.39633" lon="6.15641">
        <ele>1040.2839355</ele>
        <time>2013-05-24T12:48:58Z</time>
      </trkpt>
      <trkpt lat="44.39637" lon="6.15656">
        <ele>1043.6484375</ele>
        <time>2013-05-24T12:49:03Z</time>
      </trkpt>
      <trkpt lat="44.39637" lon="6.15659">
        <ele>1043.6484375</ele>
        <time>2013-05-24T12:49:04Z</time>
      </trkpt>
      <trkpt lat="44.39643" lon="6.15674">
        <ele>1042.6872559</ele>
        <time>2013-05-24T12:49:08Z</time>
      </trkpt>
      <trkpt lat="44.39649" lon="6.15691">
        <ele>1041.2451172</ele>
        <time>2013-05-24T12:49:11Z</time>
      </trkpt>
      <trkpt lat="44.3965" lon="6.15698">
        <ele>1040.2839355</ele>
        <time>2013-05-24T12:49:12Z</time>
      </trkpt>
      <trkpt lat="44.39652" lon="6.1572">
        <ele>1038.3613281</ele>
        <time>2013-05-24T12:49:15Z</time>
      </trkpt>
      <trkpt lat="44.39648" lon="6.15737">
        <ele>1036.9191895</ele>
        <time>2013-05-24T12:49:17Z</time>
      </trkpt>
      <trkpt lat="44.39641" lon="6.15763">
        <ele>1035.4770508</ele>
        <time>2013-05-24T12:49:20Z</time>
      </trkpt>
      <trkpt lat="44.39637" lon="6.15781">
        <ele>1034.0351563</ele>
        <time>2013-05-24T12:49:22Z</time>
      </trkpt>
      <trkpt lat="44.39635" lon="6.1579">
        <ele>1033.5544434</ele>
        <time>2013-05-24T12:49:23Z</time>
      </trkpt>
      <trkpt lat="44.39633" lon="6.15808">
        <ele>1032.1125488</ele>
        <time>2013-05-24T12:49:25Z</time>
      </trkpt>
      <trkpt lat="44.39631" lon="6.15834">
        <ele>1030.1899414</ele>
        <time>2013-05-24T12:49:28Z</time>
      </trkpt>
      <trkpt lat="44.39622" lon="6.15863">
        <ele>1028.267334</ele>
        <time>2013-05-24T12:49:33Z</time>
      </trkpt>
      <trkpt lat="44.39635" lon="6.15887">
        <ele>1023.9414063</ele>
        <time>2013-05-24T12:49:38Z</time>
      </trkpt>
      <trkpt lat="44.39654" lon="6.15895">
        <ele>1022.0187988</ele>
        <time>2013-05-24T12:49:41Z</time>
      </trkpt>
      <trkpt lat="44.39666" lon="6.159">
        <ele>1021.0576172</ele>
        <time>2013-05-24T12:49:43Z</time>
      </trkpt>
      <trkpt lat="44.39683" lon="6.15911">
        <ele>1019.6154785</ele>
        <time>2013-05-24T12:49:46Z</time>
      </trkpt>
      <trkpt lat="44.39697" lon="6.15914">
        <ele>1017.2121582</ele>
        <time>2013-05-24T12:49:48Z</time>
      </trkpt>
      <trkpt lat="44.3971" lon="6.15911">
        <ele>1015.7702637</ele>
        <time>2013-05-24T12:49:50Z</time>
      </trkpt>
      <trkpt lat="44.39723" lon="6.15905">
        <ele>1014.8088379</ele>
        <time>2013-05-24T12:49:52Z</time>
      </trkpt>
      <trkpt lat="44.39755" lon="6.15895">
        <ele>1015.2895508</ele>
        <time>2013-05-24T12:49:58Z</time>
      </trkpt>
      <trkpt lat="44.39777" lon="6.15887">
        <ele>1014.8088379</ele>
        <time>2013-05-24T12:50:03Z</time>
      </trkpt>
      <trkpt lat="44.39837" lon="6.15855">
        <ele>1015.7702637</ele>
        <time>2013-05-24T12:50:21Z</time>
      </trkpt>
      <trkpt lat="44.39866" lon="6.15804">
        <ele>1017.692627</ele>
        <time>2013-05-24T12:50:36Z</time>
      </trkpt>
      <trkpt lat="44.39902" lon="6.15808">
        <ele>1018.6540527</ele>
        <time>2013-05-24T12:50:47Z</time>
      </trkpt>
      <trkpt lat="44.39966" lon="6.15849">
        <ele>1021.0576172</ele>
        <time>2013-05-24T12:51:08Z</time>
      </trkpt>
      <trkpt lat="44.39991" lon="6.15901">
        <ele>1021.0576172</ele>
        <time>2013-05-24T12:51:22Z</time>
      </trkpt>
      <trkpt lat="44.39989" lon="6.15944">
        <ele>1017.692627</ele>
        <time>2013-05-24T12:51:29Z</time>
      </trkpt>
      <trkpt lat="44.39987" lon="6.15952">
        <ele>1017.692627</ele>
        <time>2013-05-24T12:51:30Z</time>
      </trkpt>
      <trkpt lat="44.39987" lon="6.15978">
        <ele>1015.2895508</ele>
        <time>2013-05-24T12:51:33Z</time>
      </trkpt>
      <trkpt lat="44.39991" lon="6.16004">
        <ele>1014.8088379</ele>
        <time>2013-05-24T12:51:36Z</time>
      </trkpt>
      <trkpt lat="44.4" lon="6.16031">
        <ele>1013.3669434</ele>
        <time>2013-05-24T12:51:40Z</time>
      </trkpt>
      <trkpt lat="44.39985" lon="6.16039">
        <ele>1011.9250488</ele>
        <time>2013-05-24T12:51:46Z</time>
      </trkpt>
      <trkpt lat="44.39977" lon="6.1603">
        <ele>1011.4443359</ele>
        <time>2013-05-24T12:51:48Z</time>
      </trkpt>
      <trkpt lat="44.39956" lon="6.16036">
        <ele>1009.0410156</ele>
        <time>2013-05-24T12:51:53Z</time>
      </trkpt>
      <trkpt lat="44.3995" lon="6.16046">
        <ele>1007.5991211</ele>
        <time>2013-05-24T12:51:55Z</time>
      </trkpt>
      <trkpt lat="44.39942" lon="6.16074">
        <ele>1005.6765137</ele>
        <time>2013-05-24T12:51:59Z</time>
      </trkpt>
      <trkpt lat="44.39926" lon="6.161">
        <ele>1003.7536621</ele>
        <time>2013-05-24T12:52:03Z</time>
      </trkpt>
      <trkpt lat="44.39918" lon="6.1611">
        <ele>1002.7922363</ele>
        <time>2013-05-24T12:52:05Z</time>
      </trkpt>
      <trkpt lat="44.3991" lon="6.1612">
        <ele>1001.3503418</ele>
        <time>2013-05-24T12:52:07Z</time>
      </trkpt>
      <trkpt lat="44.3989" lon="6.16156">
        <ele>997.9858398</ele>
        <time>2013-05-24T12:52:12Z</time>
      </trkpt>
      <trkpt lat="44.39886" lon="6.16164">
        <ele>997.0244141</ele>
        <time>2013-05-24T12:52:13Z</time>
      </trkpt>
      <trkpt lat="44.39878" lon="6.16198">
        <ele>995.5825195</ele>
        <time>2013-05-24T12:52:17Z</time>
      </trkpt>
      <trkpt lat="44.39872" lon="6.16234">
        <ele>993.6599121</ele>
        <time>2013-05-24T12:52:21Z</time>
      </trkpt>
      <trkpt lat="44.39867" lon="6.1625">
        <ele>992.2180176</ele>
        <time>2013-05-24T12:52:23Z</time>
      </trkpt>
      <trkpt lat="44.39864" lon="6.16257">
        <ele>991.7373047</ele>
        <time>2013-05-24T12:52:24Z</time>
      </trkpt>
      <trkpt lat="44.39851" lon="6.16279">
        <ele>989.3339844</ele>
        <time>2013-05-24T12:52:28Z</time>
      </trkpt>
      <trkpt lat="44.39842" lon="6.16286">
        <ele>988.3728027</ele>
        <time>2013-05-24T12:52:30Z</time>
      </trkpt>
      <trkpt lat="44.39832" lon="6.16292">
        <ele>986.9304199</ele>
        <time>2013-05-24T12:52:32Z</time>
      </trkpt>
      <trkpt lat="44.39817" lon="6.16303">
        <ele>985.4885254</ele>
        <time>2013-05-24T12:52:35Z</time>
      </trkpt>
      <trkpt lat="44.39814" lon="6.16308">
        <ele>985.4885254</ele>
        <time>2013-05-24T12:52:36Z</time>
      </trkpt>
      <trkpt lat="44.39799" lon="6.16331">
        <ele>983.0852051</ele>
        <time>2013-05-24T12:52:40Z</time>
      </trkpt>
      <trkpt lat="44.39792" lon="6.16361">
        <ele>980.6821289</ele>
        <time>2013-05-24T12:52:45Z</time>
      </trkpt>
      <trkpt lat="44.39793" lon="6.16381">
        <ele>979.7207031</ele>
        <time>2013-05-24T12:52:48Z</time>
      </trkpt>
      <trkpt lat="44.39796" lon="6.164">
        <ele>977.7980957</ele>
        <time>2013-05-24T12:52:52Z</time>
      </trkpt>
      <trkpt lat="44.39793" lon="6.16437">
        <ele>977.317627</ele>
        <time>2013-05-24T12:52:55Z</time>
      </trkpt>
      <trkpt lat="44.39804" lon="6.16477">
        <ele>978.7595215</ele>
        <time>2013-05-24T12:53:01Z</time>
      </trkpt>
      <trkpt lat="44.39803" lon="6.16502">
        <ele>978.2788086</ele>
        <time>2013-05-24T12:53:05Z</time>
      </trkpt>
      <trkpt lat="44.39785" lon="6.16534">
        <ele>980.6821289</ele>
        <time>2013-05-24T12:53:14Z</time>
      </trkpt>
      <trkpt lat="44.39757" lon="6.16578">
        <ele>983.565918</ele>
        <time>2013-05-24T12:53:33Z</time>
      </trkpt>
      <trkpt lat="44.39726" lon="6.16629">
        <ele>985.9692383</ele>
        <time>2013-05-24T12:53:57Z</time>
      </trkpt>
      <trkpt lat="44.39685" lon="6.16699">
        <ele>989.3339844</ele>
        <time>2013-05-24T12:54:29Z</time>
      </trkpt>
      <trkpt lat="44.39656" lon="6.16746">
        <ele>992.2180176</ele>
        <time>2013-05-24T12:54:52Z</time>
      </trkpt>
      <trkpt lat="44.39635" lon="6.16798">
        <ele>994.140625</ele>
        <time>2013-05-24T12:55:14Z</time>
      </trkpt>
      <trkpt lat="44.39621" lon="6.16856">
        <ele>996.0632324</ele>
        <time>2013-05-24T12:55:36Z</time>
      </trkpt>
      <trkpt lat="44.39607" lon="6.16922">
        <ele>997.9858398</ele>
        <time>2013-05-24T12:56:00Z</time>
      </trkpt>
      <trkpt lat="44.39593" lon="6.16971">
        <ele>999.4277344</ele>
        <time>2013-05-24T12:56:19Z</time>
      </trkpt>
      <trkpt lat="44.39615" lon="6.16988">
        <ele>1000.8696289</ele>
        <time>2013-05-24T12:56:31Z</time>
      </trkpt>
      <trkpt lat="44.39665" lon="6.16992">
        <ele>1002.3115234</ele>
        <time>2013-05-24T12:56:55Z</time>
      </trkpt>
      <trkpt lat="44.3969" lon="6.16985">
        <ele>1004.7150879</ele>
        <time>2013-05-24T12:57:08Z</time>
      </trkpt>
      <trkpt lat="44.39712" lon="6.16997">
        <ele>1007.5991211</ele>
        <time>2013-05-24T12:57:22Z</time>
      </trkpt>
      <trkpt lat="44.39758" lon="6.17025">
        <ele>1010.0021973</ele>
        <time>2013-05-24T12:57:49Z</time>
      </trkpt>
      <trkpt lat="44.39786" lon="6.17031">
        <ele>1012.4055176</ele>
        <time>2013-05-24T12:58:05Z</time>
      </trkpt>
      <trkpt lat="44.39812" lon="6.17036">
        <ele>1012.8862305</ele>
        <time>2013-05-24T12:58:20Z</time>
      </trkpt>
      <trkpt lat="44.39816" lon="6.17045">
        <ele>1013.8474121</ele>
        <time>2013-05-24T12:58:24Z</time>
      </trkpt>
      <trkpt lat="44.39811" lon="6.17065">
        <ele>1013.3669434</ele>
        <time>2013-05-24T12:58:29Z</time>
      </trkpt>
      <trkpt lat="44.39788" lon="6.17121">
        <ele>1010.4829102</ele>
        <time>2013-05-24T12:58:41Z</time>
      </trkpt>
      <trkpt lat="44.39788" lon="6.17122">
        <ele>1010.4829102</ele>
        <time>2013-05-24T12:58:58Z</time>
      </trkpt>
      <trkpt lat="44.39788" lon="6.17122">
        <ele>1011.9250488</ele>
        <time>2013-05-24T12:59:03Z</time>
      </trkpt>
    </trkseg>
  </trk>
</gpx>